Provisional Data: West Branch Owego Creek near Speedsville, NY


Please select a monitoring station.
Please select start date.
Please select start date.

Toggle Unit: C/F Toggle Unit: C/F
Sample Time Temperature (C) Temperature (F) Specific Conductivity (mS/cm) pH   Turbidity (NTU+) DO (mg/L)
5/17/2022 12:00:00 AM 14.11 57.398 1.224 7.74 8.36 9.04
5/17/2022 12:15:00 AM 14.02 57.236 1.189 7.74 8.46 9.05
5/17/2022 12:30:00 AM 13.94 57.092 1.161 7.74 8.86 9.07
5/17/2022 12:45:00 AM 13.84 56.912 1.12 7.73 10.17 9.09
5/17/2022 1:00:00 AM 13.75 56.75 1.152 7.73 9.55 9.11
5/17/2022 1:15:00 AM 13.66 56.588 1.132 7.73 9.53 9.13
5/17/2022 1:30:00 AM 13.57 56.426 1.158 7.72 9.91 9.15
5/17/2022 1:45:00 AM 13.48 56.264 1.005 7.72 9.31 9.18
5/17/2022 2:00:00 AM 13.39 56.102 1.087 7.72 9.74 9.2
5/17/2022 2:15:00 AM 13.3 55.94 0.979 7.72 9.67 9.23
5/17/2022 2:30:00 AM 13.22 55.796 0.876 7.72 9.45 9.26
5/17/2022 2:45:00 AM 13.15 55.67 0.357 7.71 9.83 9.29
5/17/2022 3:00:00 AM 13.09 55.562 1.063 7.71 10.54 9.29
5/17/2022 3:15:00 AM 13.02 55.436 1 7.72 10.49 9.31
5/17/2022 3:30:00 AM 12.95 55.31 0.767 7.72 10.86 9.34
5/17/2022 3:45:00 AM 12.89 55.202 0.18 7.72 10.53 9.37
5/17/2022 4:00:00 AM 12.83 55.094 0.82 7.72 9.63 9.37
5/17/2022 4:15:00 AM 12.78 55.004 0.903 7.72 9.98 9.37
5/17/2022 4:30:00 AM 12.72 54.896 0.863 7.72 9.26 9.39
5/17/2022 4:45:00 AM 12.67 54.806 0.815 7.72 9.64 9.4
5/17/2022 5:00:00 AM 12.61 54.698 0.839 7.72 9.94 9.41
5/17/2022 5:15:00 AM 12.56 54.608 0.821 7.72 9.56 9.42
5/17/2022 5:30:00 AM 12.52 54.536 0.687 7.72 9.79 9.44
5/17/2022 5:45:00 AM 12.47 54.446 1.109 7.72 9.45 9.43
5/17/2022 6:00:00 AM 12.42 54.356 1.065 7.72 8.95 9.44
5/17/2022 6:15:00 AM 12.36 54.248 0.749 7.71 9.25 9.46
5/17/2022 6:30:00 AM 12.32 54.176 0.587 7.71 8.71 9.5
5/17/2022 6:45:00 AM 12.27 54.086 0.817 7.71 8.64 9.51
5/17/2022 7:00:00 AM 12.23 54.014 0.196 7.7 8.51 9.56
5/17/2022 7:15:00 AM 12.19 53.942 0.533 7.71 8.23 9.59
5/17/2022 7:30:00 AM 12.15 53.87 0.653 7.72 8.4 9.61
5/17/2022 7:45:00 AM 12.15 53.87 0.631 7.73 8.12 9.67
5/17/2022 8:00:00 AM 12.14 53.852 0.57 7.73 8.03 9.74
5/17/2022 8:15:00 AM 12.17 53.906 0.507 7.74 7.74 9.81
5/17/2022 8:30:00 AM 12.21 53.978 0.631 7.76 7.52 9.89
5/17/2022 8:45:00 AM 12.23 54.014 0.61 7.77 7.42 9.93
5/17/2022 9:00:00 AM 12.27 54.086 0.562 7.78 7.04 9.96
5/17/2022 9:15:00 AM 12.33 54.194 0.548 7.81 7.01 10.06
5/17/2022 9:30:00 AM 12.39 54.302 0.451 7.82 6.68 10.09
5/17/2022 9:45:00 AM 12.48 54.464 0.382 7.84 6.68 10.14
5/17/2022 10:00:00 AM 12.59 54.662 0.42 7.85 6.53 10.18
5/17/2022 10:15:00 AM 12.68 54.824 0.426 7.87 6.35 10.22
5/17/2022 10:30:00 AM 12.71 54.878 0.468 7.88 6.1 10.23
5/17/2022 10:45:00 AM 12.85 55.13 0.443 7.9 6.15 10.23
5/17/2022 11:00:00 AM 12.99 55.382 0.456 7.91 6.42 10.25
5/17/2022 11:15:00 AM 13.13 55.634 0.431 7.92 6.26 10.25
5/17/2022 11:30:00 AM 13.35 56.03 0.259 7.93 6.17 10.28
5/17/2022 11:45:00 AM 13.52 56.336 0.342 7.95 5.95 10.28
5/17/2022 12:00:00 PM 13.64 56.552 0.23 7.97 5.79 10.29
5/17/2022 12:15:00 PM 13.85 56.93 0.486 7.98 5.91 10.29
5/17/2022 12:30:00 PM 14 57.2 0.482 8 6.01 10.29
5/17/2022 12:45:00 PM 14.23 57.614 0.48 8.01 5.78 10.28
5/17/2022 1:00:00 PM 14.55 58.19 0.424 8.02 5.87 10.26
5/17/2022 1:15:00 PM 14.86 58.748 0.363 8.04 6.04 10.24
5/17/2022 1:30:00 PM 15.06 59.108 0.322 8.06 5.82 10.21
5/17/2022 1:45:00 PM 15.22 59.396 0.329 8.07 5.81 10.17
5/17/2022 2:00:00 PM 15.37 59.666 0.302 8.08 5.78 10.14
5/17/2022 2:15:00 PM 15.65 60.17 0.328 8.1 5.65 10.1
5/17/2022 2:30:00 PM 15.83 60.494 0.321 8.11 5.65 10.06
5/17/2022 2:45:00 PM 15.97 60.746 0.352 8.12 5.5 10.03
5/17/2022 3:00:00 PM 16.06 60.908 0.328 8.13 5.54 9.97
5/17/2022 3:15:00 PM 16.12 61.016 0.33 8.13 5.7 9.93
5/17/2022 3:30:00 PM 16.12 61.016 0.336 8.13 5.39 9.88
5/17/2022 3:45:00 PM 16.1 60.98 0.333 8.12 6.07 9.83
5/17/2022 4:00:00 PM 16.03 60.854 0.338 8.12 5.36 9.79
5/17/2022 4:15:00 PM 15.95 60.71 0.325 8.1 5.41 9.74
5/17/2022 4:30:00 PM 15.88 60.584 0.364 8.09 5.36 9.71
5/17/2022 4:45:00 PM 15.83 60.494 0.371 8.07 5.37 9.7
5/17/2022 5:00:00 PM 15.75 60.35 0.375 8.06 5.29 9.7
5/17/2022 5:15:00 PM 15.62 60.116 0.357 8.06 5.32 9.67
5/17/2022 5:30:00 PM 15.51 59.918 0.371 8.05 5.11 9.67
5/17/2022 5:45:00 PM 15.4 59.72 0.344 8.03 5.15 9.66
5/17/2022 6:00:00 PM 15.28 59.504 0.329 8.02 5 9.65
5/17/2022 6:15:00 PM 15.17 59.306 0.33 8.01 4.71 9.63
5/17/2022 6:30:00 PM 15.09 59.162 0.348 7.99 5.14 9.62
5/17/2022 6:45:00 PM 14.99 58.982 0.343 7.98 5.13 9.62
5/17/2022 7:00:00 PM 14.9 58.82 0.334 7.97 4.92 9.59
5/17/2022 7:15:00 PM 14.81 58.658 0.345 7.95 5.09 9.57
5/17/2022 7:30:00 PM 14.71 58.478 0.33 7.93 4.92 9.55
5/17/2022 7:45:00 PM 14.6 58.28 0.347 7.92 4.89 9.52
5/17/2022 8:00:00 PM 14.49 58.082 0.357 7.9 4.78 9.5
5/17/2022 8:15:00 PM 14.38 57.884 0.288 7.88 5 9.45
5/17/2022 8:30:00 PM 14.25 57.65 0.277 7.86 4.96 9.43
5/17/2022 8:45:00 PM 14.12 57.416 0.282 7.84 4.89 9.41
5/17/2022 9:00:00 PM 14 57.2 0.265 7.83 5.06 9.4
5/17/2022 9:15:00 PM 13.87 56.966 0.232 7.81 4.98 9.37
5/17/2022 9:30:00 PM 13.76 56.768 0.195 7.8 5.03 9.37
5/17/2022 9:45:00 PM 13.64 56.552 0.192 7.78 5.14 9.35
5/17/2022 10:00:00 PM 13.52 56.336 0.194 7.78 5.5 9.37
5/17/2022 10:15:00 PM 13.42 56.156 0.192 7.76 5.39 9.35
5/17/2022 10:30:00 PM 13.31 55.958 0.191 7.75 5.24 9.35
5/17/2022 10:45:00 PM 13.22 55.796 0.192 7.74 5.17 9.35
5/17/2022 11:00:00 PM 13.13 55.634 0.192 7.73 5.15 9.35
5/17/2022 11:15:00 PM 13.03 55.454 0.193 7.73 5.54 9.37
5/17/2022 11:30:00 PM 12.94 55.292 0.192 7.72 5.4 9.38
5/17/2022 11:45:00 PM 12.85 55.13 0.192 7.71 5.07 9.38
5/18/2022 12:00:00 AM 12.77 54.986 0.192 7.71 5.16 9.39
5/18/2022 12:15:00 AM 12.68 54.824 0.191 7.71 5.04 9.42
5/18/2022 12:30:00 AM 12.59 54.662 0.192 7.7 4.93 9.42
5/18/2022 12:45:00 AM 12.5 54.5 0.193 7.7 5.08 9.44
5/18/2022 1:00:00 AM 12.43 54.374 0.194 7.7 4.93 9.45
5/18/2022 1:15:00 AM 12.37 54.266 0.193 7.7 4.86 9.47
5/18/2022 1:30:00 AM 12.3 54.14 0.193 7.69 4.76 9.49
5/18/2022 1:45:00 AM 12.24 54.032 0.192 7.69 4.84 9.49
5/18/2022 2:00:00 AM 12.19 53.942 0.192 7.69 5.25 9.52
5/18/2022 2:15:00 AM 12.13 53.834 0.192 7.69 5.12 9.53
5/18/2022 2:30:00 AM 12.08 53.744 0.191 7.69 4.89 9.53
5/18/2022 2:45:00 AM 12.04 53.672 0.191 7.68 4.97 9.54
5/18/2022 3:00:00 AM 11.99 53.582 0.191 7.68 5.46 9.55
5/18/2022 3:15:00 AM 11.94 53.492 0.189 7.67 5.42 9.55
5/18/2022 3:30:00 AM 11.88 53.384 0.187 7.68 4.97 9.57
5/18/2022 3:45:00 AM 11.82 53.276 0.188 7.68 4.99 9.58
5/18/2022 4:00:00 AM 11.76 53.168 0.185 7.68 5.05 9.59
5/18/2022 4:15:00 AM 11.71 53.078 0.185 7.66 4.61 9.58
5/18/2022 4:30:00 AM 11.66 52.988 0.185 7.66 4.94 9.58
5/18/2022 4:45:00 AM 11.59 52.862 0.185 7.66 4.92 9.6
5/18/2022 5:00:00 AM 11.53 52.754 0.185 7.66 5.02 9.63
5/18/2022 5:15:00 AM 11.45 52.61 0.185 7.66 4.82 9.64
5/18/2022 5:30:00 AM 11.38 52.484 0.185 7.65 4.63 9.64
5/18/2022 5:45:00 AM 11.3 52.34 0.186 7.66 4.54 9.68
5/18/2022 6:00:00 AM 11.24 52.232 0.185 7.64 5.21 9.64
5/18/2022 6:15:00 AM 11.16 52.088 0.186 7.64 4.32 9.68
5/18/2022 6:30:00 AM 11.1 51.98 0.185 7.63 4.72 9.66
5/18/2022 6:45:00 AM 11.03 51.854 0.186 7.65 4.61 9.75
5/18/2022 7:00:00 AM 10.97 51.746 0.186 7.65 4.56 9.78
5/18/2022 7:15:00 AM 10.93 51.674 0.186 7.65 4.69 9.81
5/18/2022 7:30:00 AM 10.9 51.62 0.186 7.65 4.34 9.86
5/18/2022 7:45:00 AM 10.86 51.548 0.187 7.68 4.23 9.95
5/18/2022 8:00:00 AM 10.84 51.512 0.186 7.67 4.51 9.98
5/18/2022 8:15:00 AM 10.83 51.494 0.186 7.67 4.62 9.99
5/18/2022 8:30:00 AM 10.82 51.476 0.186 7.67 4.42 10.02
5/18/2022 8:45:00 AM 10.83 51.494 0.186 7.68 4.38 10.07
5/18/2022 9:00:00 AM 10.83 51.494 0.187 7.71 4.3 10.2
5/18/2022 9:15:00 AM 10.86 51.548 0.187 7.73 4.15 10.28
5/18/2022 9:30:00 AM 10.92 51.656 0.187 7.73 4.35 10.31
5/18/2022 9:45:00 AM 11.02 51.836 0.187 7.75 4.27 10.38
5/18/2022 10:00:00 AM 11.13 52.034 0.187 7.75 4.16 10.41
5/18/2022 10:15:00 AM 11.28 52.304 0.187 7.75 4.25 10.38
5/18/2022 10:30:00 AM 11.43 52.574 0.187 7.8 4.14 10.54
5/18/2022 10:45:00 AM 11.59 52.862 0.187 7.78 4.02 10.54
5/18/2022 11:00:00 AM 11.79 53.222 0.187 7.83 3.72 10.62
5/18/2022 11:15:00 AM 11.97 53.546 0.187 7.81 4.62 10.54
5/18/2022 11:30:00 AM 12.2 53.96 0.187 7.85 3.96 10.64
5/18/2022 11:45:00 AM 12.47 54.446 0.187 7.89 3.92 10.66
5/18/2022 12:00:00 PM 12.68 54.824 0.187 7.85 3.9 10.57
5/18/2022 12:15:00 PM 13.02 55.436 0.187 7.86 3.99 10.56
5/18/2022 12:30:00 PM 13.36 56.048 0.187 7.89 4.17 10.55
5/18/2022 12:45:00 PM 13.77 56.786 0.187 7.94 3.9 10.64
5/18/2022 1:00:00 PM 14.2 57.56 0.187 7.97 3.85 10.62
5/18/2022 1:15:00 PM 14.3 57.74 0.187 7.96 3.77 10.49
5/18/2022 1:30:00 PM 14.61 58.298 0.187 8.01 3.71 10.58
5/18/2022 1:45:00 PM 14.77 58.586 0.187 7.99 3.78 10.48
5/18/2022 2:00:00 PM 15.15 59.27 0.187 8.03 3.66 10.5
5/18/2022 2:15:00 PM 15.46 59.828 0.187 8.06 3.79 10.48
5/18/2022 2:30:00 PM 15.68 60.224 0.187 8.06 3.72 10.41
5/18/2022 2:45:00 PM 15.92 60.656 0.187 8.06 3.44 10.38
5/18/2022 3:00:00 PM 15.95 60.71 0.187 8.08 3.5 10.3
5/18/2022 3:15:00 PM 15.87 60.566 0.187 8.08 3.96 10.22
5/18/2022 3:30:00 PM 15.81 60.458 0.187 8.07 3.85 10.16
5/18/2022 3:45:00 PM 15.88 60.584 0.187 8.13 3.53 10.15
5/18/2022 4:00:00 PM 15.91 60.638 0.187 8.11 3.54 10.09
5/18/2022 4:15:00 PM 16.01 60.818 0.187 8.16 3.32 10.07
5/18/2022 4:30:00 PM 16.04 60.872 0.188 8.13 3.71 10.01
5/18/2022 4:45:00 PM 16.06 60.908 0.188 8.17 3.62 9.99
5/18/2022 5:00:00 PM 15.96 60.728 0.188 8.12 3.58 9.88
5/18/2022 5:15:00 PM 15.94 60.692 0.188 8.12 3.57 9.85
5/18/2022 5:30:00 PM 15.84 60.512 0.188 8.09 3.3 9.78
5/18/2022 5:45:00 PM 15.74 60.332 0.188 8.08 3.59 9.73
5/18/2022 6:00:00 PM 15.63 60.134 0.188 8.05 3.47 9.64
5/18/2022 6:15:00 PM 15.56 60.008 0.189 8.04 3.46 9.58
5/18/2022 6:30:00 PM 15.46 59.828 0.189 8.01 3.44 9.49
5/18/2022 6:45:00 PM 15.35 59.63 0.189 7.98 3.42 9.42
5/18/2022 7:00:00 PM 15.26 59.468 0.19 7.96 3.45 9.38
5/18/2022 7:15:00 PM 15.15 59.27 0.19 7.94 3.27 9.32
5/18/2022 7:30:00 PM 15.03 59.054 0.19 7.91 3.52 9.26
5/18/2022 7:45:00 PM 14.93 58.874 0.19 7.89 3.58 9.23
5/18/2022 8:00:00 PM 14.83 58.694 0.191 7.87 3.55 9.18
5/18/2022 8:15:00 PM 14.7 58.46 0.191 7.85 3.65 9.15
5/18/2022 8:30:00 PM 14.59 58.262 0.191 7.82 3.55 9.09
5/18/2022 8:45:00 PM 14.49 58.082 0.192 7.82 3.47 9.05
5/18/2022 9:00:00 PM 14.4 57.92 0.192 7.8 3.55 9.04
5/18/2022 9:15:00 PM 14.3 57.74 0.192 7.78 3.69 9
5/18/2022 9:30:00 PM 14.2 57.56 0.192 7.76 3.51 8.99
5/18/2022 9:45:00 PM 14.1 57.38 0.192 7.75 4.12 8.98
5/18/2022 10:00:00 PM 14.01 57.218 0.193 7.74 4.02 8.98
5/18/2022 10:15:00 PM 13.91 57.038 0.192 7.73 3.67 8.98
5/18/2022 10:30:00 PM 13.79 56.822 0.192 7.71 3.84 8.96
5/18/2022 10:45:00 PM 13.69 56.642 0.192 7.7 4.17 8.98
5/18/2022 11:00:00 PM 13.61 56.498 0.192 7.71 3.98 8.99
5/18/2022 11:15:00 PM 13.48 56.264 0.192 7.69 4.01 9.01
5/18/2022 11:30:00 PM 13.39 56.102 0.192 7.7 4.19 9.07
5/18/2022 11:45:00 PM 13.29 55.922 0.192 7.71 4.35 9.09
5/19/2022 12:00:00 AM 13.18 55.724 0.192 7.7 4.4 9.09
5/19/2022 12:15:00 AM 13.09 55.562 0.192 7.69 4.42 9.12
5/19/2022 12:30:00 AM 13.01 55.418 0.192 7.69 4.46 9.14
5/19/2022 12:45:00 AM 12.93 55.274 0.192 7.69 4 9.14
5/19/2022 1:00:00 AM 12.86 55.148 0.192 7.69 4 9.17
5/19/2022 1:15:00 AM 12.8 55.04 0.192 7.69 4.25 9.19
5/19/2022 1:30:00 AM 12.73 54.914 0.192 7.68 4.04 9.18
5/19/2022 1:45:00 AM 12.68 54.824 0.192 7.68 3.8 9.19
5/19/2022 2:00:00 AM 12.63 54.734 0.192 7.67 3.97 9.19
5/19/2022 2:15:00 AM 12.59 54.662 0.192 7.67 3.85 9.2
5/19/2022 2:30:00 AM 12.55 54.59 0.192 7.66 4.09 9.19
5/19/2022 2:45:00 AM 12.5 54.5 0.192 7.67 3.94 9.21
5/19/2022 3:00:00 AM 12.46 54.428 0.192 7.67 3.91 9.22
5/19/2022 3:15:00 AM 12.43 54.374 0.192 7.68 3.81 9.25
5/19/2022 3:30:00 AM 12.4 54.32 0.192 7.67 4.12 9.26
5/19/2022 3:45:00 AM 12.37 54.266 0.192 7.67 4.46 9.25
5/19/2022 4:00:00 AM 12.35 54.23 0.192 7.67 4.13 9.26
5/19/2022 4:15:00 AM 12.33 54.194 0.192 7.66 4.4 9.25
5/19/2022 4:30:00 AM 12.3 54.14 0.192 7.67 4.82 9.29
5/19/2022 4:45:00 AM 12.28 54.104 0.192 7.68 4.64 9.3
5/19/2022 5:00:00 AM 12.27 54.086 0.192 7.68 4.32 9.32
5/19/2022 5:15:00 AM 12.25 54.05 0.191 7.69 4.68 9.33
5/19/2022 5:30:00 AM 12.23 54.014 0.191 7.68 4.67 9.32
5/19/2022 5:45:00 AM 12.22 53.996 0.191 7.68 4.95 9.34
5/19/2022 6:00:00 AM 12.2 53.96 0.191 7.68 4.67 9.35
5/19/2022 6:15:00 AM 12.18 53.924 0.191 7.68 4.35 9.36
5/19/2022 6:30:00 AM 12.16 53.888 0.191 7.68 4.53 9.36
5/19/2022 6:45:00 AM 12.15 53.87 0.191 7.68 4.73 9.37
5/19/2022 7:00:00 AM 12.13 53.834 0.191 7.68 4.7 9.37
5/19/2022 7:15:00 AM 12.11 53.798 0.191 7.68 4.63 9.4
5/19/2022 7:30:00 AM 12.1 53.78 0.191 7.68 4.63 9.41
5/19/2022 7:45:00 AM 12.08 53.744 0.191 7.69 4.3 9.43
5/19/2022 8:00:00 AM 12.07 53.726 0.191 7.7 4.46 9.47
5/19/2022 8:15:00 AM 12.05 53.69 0.191 7.7 4.34 9.5
5/19/2022 8:30:00 AM 12.05 53.69 0.192 7.71 4.52 9.54
5/19/2022 8:45:00 AM 12.04 53.672 0.192 7.72 4.37 9.58
5/19/2022 9:00:00 AM 12.03 53.654 0.192 7.72 4.08 9.6
5/19/2022 9:15:00 AM 12.03 53.654 0.192 7.73 4.29 9.65
5/19/2022 9:30:00 AM 12.03 53.654 0.192 7.74 4.14 9.69
5/19/2022 9:45:00 AM 12.04 53.672 0.192 7.75 4.05 9.74
5/19/2022 10:00:00 AM 12.04 53.672 0.193 7.76 4.07 9.79
5/19/2022 10:15:00 AM 12.05 53.69 0.193 7.77 3.98 9.83
5/19/2022 10:30:00 AM 12.05 53.69 0.193 7.78 3.88 9.86
5/19/2022 10:45:00 AM 12.07 53.726 0.193 7.79 3.91 9.91
5/19/2022 11:00:00 AM 12.1 53.78 0.193 7.8 3.87 9.96
5/19/2022 11:15:00 AM 12.14 53.852 0.193 7.81 3.65 10.02
5/19/2022 11:30:00 AM 12.19 53.942 0.193 7.83 3.62 10.08
5/19/2022 11:45:00 AM 12.24 54.032 0.193 7.85 4.12 10.14
5/19/2022 12:00:00 PM 12.28 54.104 0.193 7.86 3.54 10.19
5/19/2022 12:15:00 PM 12.31 54.158 0.193 7.88 3.7 10.2
5/19/2022 12:30:00 PM 12.39 54.302 0.193 7.89 3.69 10.26
5/19/2022 12:45:00 PM 12.43 54.374 0.194 7.91 3.77 10.27
5/19/2022 1:00:00 PM 12.5 54.5 0.194 7.92 3.59 10.29
5/19/2022 1:15:00 PM 12.69 54.842 0.194 7.94 3.5 10.33
5/19/2022 1:30:00 PM 12.9 55.22 0.194 7.96 3.59 10.4
5/19/2022 1:45:00 PM 13.24 55.832 0.194 7.99 3.68 10.44
5/19/2022 2:00:00 PM 13.54 56.372 0.194 8.02 3.7 10.48
5/19/2022 2:15:00 PM 13.83 56.894 0.194 8.04 3.57 10.52
5/19/2022 2:30:00 PM 14.07 57.326 0.194 8.07 3.44 10.52
5/19/2022 2:45:00 PM 14.1 57.38 0.194 8.09 3.55 10.49
5/19/2022 3:00:00 PM 14.11 57.398 0.194 8.1 3.55 10.43
5/19/2022 3:15:00 PM 14.55 58.19 0.194 8.11 3.45 10.38
5/19/2022 3:30:00 PM 14.6 58.28 0.194 8.12 3.65 10.31
5/19/2022 3:45:00 PM 14.78 58.604 0.194 8.13 3.35 10.27
5/19/2022 4:00:00 PM 14.96 58.928 0.194 8.13 3.54 10.23
5/19/2022 4:15:00 PM 15.11 59.198 0.195 8.14 3.51 10.2
5/19/2022 4:30:00 PM 15.22 59.396 0.195 8.14 3.38 10.15
5/19/2022 4:45:00 PM 15.16 59.288 0.195 8.15 3.68 10.1
5/19/2022 5:00:00 PM 15.13 59.234 0.195 8.14 3.55 10.05
5/19/2022 5:15:00 PM 15.07 59.126 0.195 8.13 3.63 9.99
5/19/2022 5:30:00 PM 14.99 58.982 0.195 8.12 3.58 9.91
5/19/2022 5:45:00 PM 14.98 58.964 0.195 8.1 3.69 9.87
5/19/2022 6:00:00 PM 14.96 58.928 0.195 8.09 3.52 9.81
5/19/2022 6:15:00 PM 14.93 58.874 0.195 8.08 3.66 9.75
5/19/2022 6:30:00 PM 14.9 58.82 0.195 8.06 3.72 9.71
5/19/2022 6:45:00 PM 14.86 58.748 0.195 8.05 3.54 9.67
5/19/2022 7:00:00 PM 14.79 58.622 0.196 8.03 3.51 9.61
5/19/2022 7:15:00 PM 14.71 58.478 0.196 8.01 3.55 9.58
5/19/2022 7:30:00 PM 14.63 58.334 0.196 7.99 3.69 9.55
5/19/2022 7:45:00 PM 14.51 58.118 0.196 7.97 4.47 9.53
5/19/2022 8:00:00 PM 14.39 57.902 0.196 7.96 4.03 9.51
5/19/2022 8:15:00 PM 14.28 57.704 0.196 7.94 4.14 9.5
5/19/2022 8:30:00 PM 14.17 57.506 0.196 7.92 3.84 9.46
5/19/2022 8:45:00 PM 14.08 57.344 0.196 7.9 4.19 9.45
5/19/2022 9:00:00 PM 14 57.2 0.196 7.88 4.21 9.43
5/19/2022 9:15:00 PM 13.93 57.074 0.196 7.87 6.08 9.42
5/19/2022 9:30:00 PM 13.84 56.912 0.196 7.86 4.54 9.41
5/19/2022 9:45:00 PM 13.76 56.768 0.195 7.85 5.34 9.35
5/19/2022 10:00:00 PM 13.66 56.588 0.195 7.84 5.64 9.36
5/19/2022 10:15:00 PM 13.55 56.39 0.195 7.82 5.42 9.38
5/19/2022 10:30:00 PM 13.44 56.192 0.194 7.82 5.55 9.41
5/19/2022 10:45:00 PM 13.33 55.994 0.194 7.81 6.18 9.43
5/19/2022 11:00:00 PM 13.23 55.814 0.194 7.8 5.76 9.44
5/19/2022 11:15:00 PM 13.15 55.67 0.193 7.79 5.89 9.47
5/19/2022 11:30:00 PM 13.06 55.508 0.193 7.79 5.95 9.48
5/19/2022 11:45:00 PM 12.99 55.382 0.193 7.78 5.48 9.49
5/20/2022 12:00:00 AM 12.92 55.256 0.193 7.78 5.68 9.5
5/20/2022 12:15:00 AM 12.85 55.13 0.193 7.77 5.64 9.51
5/20/2022 12:30:00 AM 12.8 55.04 0.193 7.77 5.5 9.52
5/20/2022 12:45:00 AM 12.74 54.932 0.193 7.77 5.4 9.54
5/20/2022 1:00:00 AM 12.68 54.824 0.193 7.77 5.13 9.55
5/20/2022 1:15:00 AM 12.62 54.716 0.193 7.76 5.02 9.56
5/20/2022 1:30:00 AM 12.55 54.59 0.192 7.76 4.8 9.57
5/20/2022 1:45:00 AM 12.49 54.482 0.191 7.76 4.76 9.59
5/20/2022 2:00:00 AM 12.43 54.374 0.19 7.76 4.94 9.6
5/20/2022 2:15:00 AM 12.38 54.284 0.188 7.75 4.96 9.61
5/20/2022 2:30:00 AM 12.32 54.176 0.185 7.75 4.84 9.62
5/20/2022 2:45:00 AM 12.26 54.068 0.183 7.74 4.82 9.64
5/20/2022 3:00:00 AM 12.2 53.96 0.181 7.74 4.94 9.65
5/20/2022 3:15:00 AM 12.15 53.87 0.179 7.73 5.11 9.65
5/20/2022 3:30:00 AM 12.1 53.78 0.177 7.72 5.5 9.66
5/20/2022 3:45:00 AM 12.06 53.708 0.176 7.72 5.45 9.67
5/20/2022 4:00:00 AM 12.01 53.618 0.175 7.71 5.48 9.68
5/20/2022 4:15:00 AM 11.97 53.546 0.175 7.71 6.17 9.68
5/20/2022 4:30:00 AM 11.93 53.474 0.175 7.71 5.78 9.7
5/20/2022 4:45:00 AM 11.89 53.402 0.175 7.7 6.07 9.69
5/20/2022 5:00:00 AM 11.86 53.348 0.176 7.7 5.76 9.7
5/20/2022 5:15:00 AM 11.82 53.276 0.176 7.7 5.65 9.71
5/20/2022 5:30:00 AM 11.79 53.222 0.177 7.7 6.17 9.71
5/20/2022 5:45:00 AM 11.76 53.168 0.178 7.71 5.47 9.73
5/20/2022 6:00:00 AM 11.73 53.114 0.179 7.71 5.55 9.75
5/20/2022 6:15:00 AM 11.7 53.06 0.18 7.71 5.69 9.76
5/20/2022 6:30:00 AM 11.68 53.024 0.181 7.7 5.64 9.77
5/20/2022 6:45:00 AM 11.67 53.006 0.182 7.72 5.35 9.81
5/20/2022 7:00:00 AM 11.66 52.988 0.183 7.73 5.88 9.9
5/20/2022 7:15:00 AM 11.67 53.006 0.184 7.74 4.92 9.95
5/20/2022 7:30:00 AM 11.68 53.024 0.184 7.75 4.7 9.99
5/20/2022 7:45:00 AM 11.7 53.06 0.185 7.76 4.66 10.05
5/20/2022 8:00:00 AM 11.73 53.114 0.185 7.77 4.62 10.09
5/20/2022 8:15:00 AM 11.78 53.204 0.185 7.79 4.58 10.13
5/20/2022 8:30:00 AM 11.84 53.312 0.186 7.81 4.67 10.19
5/20/2022 8:45:00 AM 11.92 53.456 0.186 7.82 4.47 10.23
5/20/2022 9:00:00 AM 12.01 53.618 0.186 7.84 4.28 10.28
5/20/2022 9:15:00 AM 12.14 53.852 0.186 7.86 4.29 10.33
5/20/2022 9:30:00 AM 12.27 54.086 0.186 7.88 4.14 10.38
5/20/2022 9:45:00 AM 12.43 54.374 0.185 7.91 4.05 10.42
5/20/2022 10:00:00 AM 12.6 54.68 0.185 7.93 4.04 10.46
5/20/2022 10:15:00 AM 12.7 54.86 0.185 7.95 4 10.47
5/20/2022 10:30:00 AM 12.77 54.986 0.184 7.95 3.95 10.43
5/20/2022 10:45:00 AM 12.86 55.148 0.184 7.96 4 10.4
5/20/2022 11:00:00 AM 12.94 55.292 0.183 7.96 3.88 10.35
5/20/2022 11:15:00 AM 13.02 55.436 0.182 7.96 3.92 10.32
5/20/2022 11:30:00 AM 13.11 55.598 0.182 7.96 3.87 10.32
5/20/2022 11:45:00 AM 13.21 55.778 0.181 7.97 3.9 10.33
5/20/2022 12:00:00 PM 13.3 55.94 0.18 7.99 3.87 10.35
5/20/2022 12:15:00 PM 13.38 56.084 0.179 8 3.96 10.37
5/20/2022 12:30:00 PM 13.45 56.21 0.178 8.01 3.92 10.36
5/20/2022 12:45:00 PM 13.52 56.336 0.178 8.02 3.99 10.34
5/20/2022 1:00:00 PM 13.78 56.804 0.177 8.03 4.11 10.34
5/20/2022 1:15:00 PM 13.89 57.002 0.176 8.04 4.11 10.33
5/20/2022 1:30:00 PM 14.25 57.65 0.175 8.05 4.17 10.34
5/20/2022 1:45:00 PM 14.6 58.28 0.174 8.08 4.27 10.36
5/20/2022 2:00:00 PM 14.74 58.532 0.173 8.1 4.39 10.36
5/20/2022 2:15:00 PM 14.98 58.964 0.173 8.13 4.55 10.36
5/20/2022 2:30:00 PM 15.21 59.378 0.172 8.15 4.49 10.35
5/20/2022 2:45:00 PM 15.28 59.504 0.172 8.17 4.7 10.32
5/20/2022 3:00:00 PM 15.52 59.936 0.171 8.18 4.78 10.29
5/20/2022 3:15:00 PM 15.75 60.35 0.17 8.2 4.87 10.26
5/20/2022 3:30:00 PM 15.93 60.674 0.17 8.21 4.91 10.22
5/20/2022 3:45:00 PM 16.14 61.052 0.169 8.22 5.04 10.19
5/20/2022 4:00:00 PM 16.08 60.944 0.169 8.22 5.2 10.12
5/20/2022 4:15:00 PM 16.19 61.142 0.169 8.22 5.24 10.08
5/20/2022 4:30:00 PM 16.42 61.556 0.169 8.23 5.38 10.04
5/20/2022 4:45:00 PM 16.46 61.628 0.168 8.22 5.3 9.99
5/20/2022 5:00:00 PM 16.42 61.556 0.168 8.21 5.01 9.95
5/20/2022 5:15:00 PM 16.39 61.502 0.168 8.21 5.63 9.89
5/20/2022 5:30:00 PM 16.35 61.43 0.168 8.19 5.25 9.84
5/20/2022 5:45:00 PM 16.34 61.412 0.168 8.17 4.96 9.77
5/20/2022 6:00:00 PM 16.35 61.43 0.168 8.15 5.1 9.7
5/20/2022 6:15:00 PM 16.37 61.466 0.169 8.12 5.19 9.66
5/20/2022 6:30:00 PM 16.36 61.448 0.169 8.1 5.16 9.57
5/20/2022 6:45:00 PM 16.33 61.394 0.169 8.07 5.06 9.5
5/20/2022 7:00:00 PM 16.28 61.304 0.169 8.04 5.02 9.45
5/20/2022 7:15:00 PM 16.22 61.196 0.17 8.02 5.1 9.41
5/20/2022 7:30:00 PM 16.14 61.052 0.17 7.99 5.16 9.35
5/20/2022 7:45:00 PM 16.07 60.926 0.171 7.97 5.11 9.3
5/20/2022 8:00:00 PM 15.97 60.746 0.171 7.94 5.08 9.26
5/20/2022 8:15:00 PM 15.87 60.566 0.171 7.91 5.07 9.22
5/20/2022 8:30:00 PM 15.78 60.404 0.172 7.88 5.27 9.18
5/20/2022 8:45:00 PM 15.7 60.26 0.172 7.85 5.33 9.14
5/20/2022 9:00:00 PM 15.62 60.116 0.172 7.83 5.86 9.09
5/20/2022 9:15:00 PM 15.54 59.972 0.173 7.79 6.06 9.04
5/20/2022 9:30:00 PM 15.45 59.81 0.173 7.78 6.27 9.02
5/20/2022 9:45:00 PM 15.36 59.648 0.173 7.76 6.02 9.01
5/20/2022 10:00:00 PM 15.26 59.468 0.173 7.74 6.04 9.01
5/20/2022 10:15:00 PM 15.17 59.306 0.173 7.73 5.94 9.02
5/20/2022 10:30:00 PM 15.08 59.144 0.173 7.72 8.55 9.02
5/20/2022 10:45:00 PM 14.99 58.982 0.174 7.71 7.25 9.03
5/20/2022 11:00:00 PM 14.92 58.856 0.174 7.7 6.15 9.03
5/20/2022 11:15:00 PM 14.85 58.73 0.174 7.69 6.06 9.04
5/20/2022 11:30:00 PM 14.78 58.604 0.174 7.69 5.62 9.05
5/20/2022 11:45:00 PM 14.72 58.496 0.174 7.68 5.46 9.05
5/21/2022 12:00:00 AM 14.66 58.388 0.174 7.68 5.38 9.06
5/21/2022 12:15:00 AM 14.61 58.298 0.174 7.67 5.48 9.07
5/21/2022 12:30:00 AM 14.56 58.208 0.174 7.66 5.44 9.08
5/21/2022 12:45:00 AM 14.51 58.118 0.174 7.66 5.51 9.09
5/21/2022 1:00:00 AM 14.46 58.028 0.174 7.65 5.18 9.1
5/21/2022 1:15:00 AM 14.42 57.956 0.174 7.65 5.32 9.11
5/21/2022 1:30:00 AM 14.38 57.884 0.174 7.65 5.81 9.12
5/21/2022 1:45:00 AM 14.34 57.812 0.175 7.64 5.41 9.13
5/21/2022 2:00:00 AM 14.29 57.722 0.175 7.64 5.65 9.13
5/21/2022 2:15:00 AM 14.24 57.632 0.175 7.64 5.25 9.14
5/21/2022 2:30:00 AM 14.2 57.56 0.175 7.64 5.17 9.16
5/21/2022 2:45:00 AM 14.16 57.488 0.176 7.64 5.49 9.16
5/21/2022 3:00:00 AM 14.11 57.398 0.177 7.64 5.51 9.18
5/21/2022 3:15:00 AM 14.06 57.308 0.177 7.64 5.77 9.18
5/21/2022 3:30:00 AM 14.02 57.236 0.178 7.64 5.62 9.19
5/21/2022 3:45:00 AM 13.98 57.164 0.179 7.64 5.27 9.19
5/21/2022 4:00:00 AM 13.93 57.074 0.179 7.64 5.57 9.21
5/21/2022 4:15:00 AM 13.89 57.002 0.18 7.65 5.33 9.21
5/21/2022 4:30:00 AM 13.85 56.93 0.18 7.65 5.36 9.22
5/21/2022 4:45:00 AM 13.82 56.876 0.181 7.65 5.45 9.23
5/21/2022 5:00:00 AM 13.79 56.822 0.181 7.65 5.44 9.24
5/21/2022 5:15:00 AM 13.76 56.768 0.182 7.65 5.88 9.24
5/21/2022 5:30:00 AM 13.73 56.714 0.182 7.65 5.37 9.25
5/21/2022 5:45:00 AM 13.7 56.66 0.183 7.65 5.29 9.25
5/21/2022 6:00:00 AM 13.68 56.624 0.183 7.66 4.91 9.26
5/21/2022 6:15:00 AM 13.66 56.588 0.184 7.65 5.23 9.27
5/21/2022 6:30:00 AM 13.64 56.552 0.184 7.66 5.05 9.28
5/21/2022 6:45:00 AM 13.63 56.534 0.184 7.66 5.05 9.31
5/21/2022 7:00:00 AM 13.63 56.534 0.185 7.66 5.18 9.34
5/21/2022 7:15:00 AM 13.63 56.534 0.185 7.67 4.81 9.37
5/21/2022 7:30:00 AM 13.64 56.552 0.186 7.68 4.96 9.42
5/21/2022 7:45:00 AM 13.66 56.588 0.187 7.69 4.98 9.45
5/21/2022 8:00:00 AM 13.68 56.624 0.187 7.69 4.78 9.48
5/21/2022 8:15:00 AM 13.73 56.714 0.189 7.71 4.6 9.55
5/21/2022 8:30:00 AM 13.77 56.786 0.189 7.71 4.53 9.58
5/21/2022 8:45:00 AM 13.85 56.93 0.19 7.74 4.65 9.64
5/21/2022 9:00:00 AM 13.94 57.092 0.191 7.75 4.74 9.68
5/21/2022 9:15:00 AM 14.07 57.326 0.192 7.77 4.54 9.73
5/21/2022 9:30:00 AM 14.26 57.668 0.194 7.81 12.92 9.81
5/21/2022 9:45:00 AM 14.45 58.01 0.195 7.85 4.17 9.86
5/21/2022 10:00:00 AM 14.65 58.37 0.196 7.87 3.92 9.89
5/21/2022 10:15:00 AM 14.88 58.784 0.197 7.9 3.81 9.91
5/21/2022 10:30:00 AM 15.13 59.234 0.197 7.93 3.79 9.93
5/21/2022 10:45:00 AM 15.38 59.684 0.198 7.96 3.72 9.95
5/21/2022 11:00:00 AM 15.63 60.134 0.199 7.99 3.67 9.95
5/21/2022 11:15:00 AM 15.89 60.602 0.199 8.02 3.68 9.95
5/21/2022 11:30:00 AM 16.22 61.196 0.199 8.05 3.68 9.96
5/21/2022 11:45:00 AM 16.56 61.808 0.2 8.08 3.7 9.95
5/21/2022 12:00:00 PM 16.91 62.438 0.2 8.11 3.65 9.94
5/21/2022 12:15:00 PM 17.27 63.086 0.2 8.13 3.6 9.92
5/21/2022 12:30:00 PM 17.64 63.752 0.2 8.17 3.67 9.91
5/21/2022 12:45:00 PM 18.04 64.472 0.2 8.2 3.57 9.89
5/21/2022 1:00:00 PM 18.38 65.084 0.2 8.23 3.44 9.85
5/21/2022 1:15:00 PM 18.78 65.804 0.2 8.26 3.63 9.82
5/21/2022 1:30:00 PM 19.08 66.344 0.2 8.29 3.56 9.78
5/21/2022 1:45:00 PM 19.46 67.028 0.2 8.31 3.58 9.75
5/21/2022 2:00:00 PM 19.75 67.55 0.2 8.34 3.43 9.7
5/21/2022 2:15:00 PM 20.02 68.036 0.2 8.36 3.43 9.64
5/21/2022 2:30:00 PM 20.36 68.648 0.2 8.39 3.42 9.6
5/21/2022 2:45:00 PM 20.48 68.864 0.2 8.4 3.4 9.53
5/21/2022 3:00:00 PM 20.61 69.098 0.2 8.41 3.38 9.48
5/21/2022 3:15:00 PM 20.74 69.332 0.2 8.43 3.46 9.45
5/21/2022 3:30:00 PM 20.86 69.548 0.2 8.44 3.49 9.38
5/21/2022 3:45:00 PM 20.98 69.764 0.2 8.43 3.48 9.33
5/21/2022 4:00:00 PM 21.05 69.89 0.2 8.43 3.81 9.28
5/21/2022 4:15:00 PM 21.07 69.926 0.2 8.43 3.55 9.26
5/21/2022 4:30:00 PM 21.07 69.926 0.201 8.43 3.68 9.22
5/21/2022 4:45:00 PM 21.02 69.836 0.201 8.41 3.5 9.15
5/21/2022 5:00:00 PM 20.92 69.656 0.201 8.39 3.52 9.07
5/21/2022 5:15:00 PM 20.82 69.476 0.201 8.36 3.49 8.99
5/21/2022 5:30:00 PM 20.77 69.386 0.201 8.33 3.4 8.91
5/21/2022 5:45:00 PM 20.72 69.296 0.201 8.29 3.49 8.84
5/21/2022 6:00:00 PM 20.66 69.188 0.202 8.26 3.57 8.77
5/21/2022 6:15:00 PM 20.57 69.026 0.202 8.22 3.46 8.68
5/21/2022 6:30:00 PM 20.48 68.864 0.202 8.18 3.69 8.61
5/21/2022 6:45:00 PM 20.35 68.63 0.202 8.15 3.59 8.55
5/21/2022 7:00:00 PM 20.22 68.396 0.202 8.1 3.66 8.51
5/21/2022 7:15:00 PM 20.08 68.144 0.203 8.07 3.56 8.47
5/21/2022 7:30:00 PM 19.94 67.892 0.203 8.04 3.51 8.44
5/21/2022 7:45:00 PM 19.79 67.622 0.203 8.01 3.64 8.41
5/21/2022 8:00:00 PM 19.62 67.316 0.203 7.97 3.72 8.38
5/21/2022 8:15:00 PM 19.46 67.028 0.203 7.94 3.75 8.34
5/21/2022 8:30:00 PM 19.31 66.758 0.204 7.92 3.71 8.3
5/21/2022 8:45:00 PM 19.18 66.524 0.203 7.89 3.65 8.28
5/21/2022 9:00:00 PM 19.08 66.344 0.204 7.87 3.79 8.26
5/21/2022 9:15:00 PM 18.98 66.164 0.204 7.85 3.82 8.24
5/21/2022 9:30:00 PM 18.9 66.02 0.204 7.83 3.9 8.21
5/21/2022 9:45:00 PM 18.81 65.858 0.204 7.81 4.25 8.18
5/21/2022 10:00:00 PM 18.74 65.732 0.205 7.8 4.31 8.17
5/21/2022 10:15:00 PM 18.66 65.588 0.205 7.79 4.38 8.17
5/21/2022 10:30:00 PM 18.59 65.462 0.205 7.78 4.07 8.12
5/21/2022 10:45:00 PM 18.53 65.354 0.205 7.77 4.46 8.17
5/21/2022 11:00:00 PM 18.47 65.246 0.205 7.77 4.18 8.16
5/21/2022 11:15:00 PM 18.4 65.12 0.206 7.76 4.29 8.17
5/21/2022 11:30:00 PM 18.33 64.994 0.206 7.76 4.05 8.18
5/21/2022 11:45:00 PM 18.26 64.868 0.206 7.76 4.08 8.19
5/22/2022 12:00:00 AM 18.19 64.742 0.206 7.76 4.08 8.2
5/22/2022 12:15:00 AM 18.12 64.616 0.206 7.76 4 8.21
5/22/2022 12:30:00 AM 18.04 64.472 0.207 7.76 4.05 8.21
5/22/2022 12:45:00 AM 17.98 64.364 0.207 7.76 4.08 8.21
5/22/2022 1:00:00 AM 17.9 64.22 0.207 7.76 4.1 8.23
5/22/2022 1:15:00 AM 17.82 64.076 0.207 7.76 3.78 8.23
5/22/2022 1:30:00 AM 17.74 63.932 0.207 7.75 3.92 8.24
5/22/2022 1:45:00 AM 17.67 63.806 0.207 7.74 4.18 8.25
5/22/2022 2:00:00 AM 17.59 63.662 0.207 7.74 3.87 8.27
5/22/2022 2:15:00 AM 17.53 63.554 0.208 7.74 3.96 8.27
5/22/2022 2:30:00 AM 17.44 63.392 0.208 7.74 3.92 8.3
5/22/2022 2:45:00 AM 17.38 63.284 0.208 7.74 3.75 8.3
5/22/2022 3:00:00 AM 17.31 63.158 0.208 7.74 3.9 8.32
5/22/2022 3:15:00 AM 17.24 63.032 0.208 7.73 3.97 8.33
5/22/2022 3:30:00 AM 17.17 62.906 0.208 7.73 3.77 8.32
5/22/2022 3:45:00 AM 17.11 62.798 0.208 7.73 4.08 8.35
5/22/2022 4:00:00 AM 17.03 62.654 0.208 7.73 3.97 8.38
5/22/2022 4:15:00 AM 16.97 62.546 0.208 7.73 4.3 8.37
5/22/2022 4:30:00 AM 16.9 62.42 0.208 7.72 4.19 8.38
5/22/2022 4:45:00 AM 16.84 62.312 0.208 7.72 4.21 8.38
5/22/2022 5:00:00 AM 16.75 62.15 0.208 7.72 4.34 8.4
5/22/2022 5:15:00 AM 16.68 62.024 0.208 7.71 4.44 8.4
5/22/2022 5:30:00 AM 16.61 61.898 0.209 7.71 4.13 8.43
5/22/2022 5:45:00 AM 16.53 61.754 0.209 7.71 4.45 8.44
5/22/2022 6:00:00 AM 16.47 61.646 0.209 7.71 4.25 8.44
5/22/2022 6:15:00 AM 16.4 61.52 0.209 7.72 4.45 8.48
5/22/2022 6:30:00 AM 16.34 61.412 0.209 7.72 4.35 8.53
5/22/2022 6:45:00 AM 16.29 61.322 0.209 7.72 4.42 8.54
5/22/2022 7:00:00 AM 16.24 61.232 0.21 7.72 4.56 8.59
5/22/2022 7:15:00 AM 16.2 61.16 0.21 7.73 4.07 8.63
5/22/2022 7:30:00 AM 16.18 61.124 0.21 7.73 4.56 8.67
5/22/2022 7:45:00 AM 16.16 61.088 0.21 7.74 4.24 8.72
5/22/2022 8:00:00 AM 16.16 61.088 0.21 7.75 4.41 8.82
5/22/2022 8:15:00 AM 16.17 61.106 0.21 7.76 4.33 8.9
5/22/2022 8:30:00 AM 16.2 61.16 0.21 7.78 4.18 9
5/22/2022 8:45:00 AM 16.22 61.196 0.21 7.79 4.17 9.06
5/22/2022 9:00:00 AM 16.25 61.25 0.21 7.8 4.1 9.13
5/22/2022 9:15:00 AM 16.29 61.322 0.21 7.81 4.08 9.2
5/22/2022 9:30:00 AM 16.38 61.484 0.21 7.83 3.94 9.27
5/22/2022 9:45:00 AM 16.46 61.628 0.21 7.84 3.67 9.33
5/22/2022 10:00:00 AM 16.55 61.79 0.21 7.86 3.63 9.4
5/22/2022 10:15:00 AM 16.63 61.934 0.21 7.88 3.69 9.45
5/22/2022 10:30:00 AM 16.71 62.078 0.21 7.9 3.81 9.5
5/22/2022 10:45:00 AM 16.79 62.222 0.209 7.92 3.5 9.54
5/22/2022 11:00:00 AM 16.92 62.456 0.209 7.94 3.54 9.58
5/22/2022 11:15:00 AM 17.09 62.762 0.209 7.97 3.62 9.64
5/22/2022 11:30:00 AM 17.22 62.996 0.209 7.99 3.56 9.65
5/22/2022 11:45:00 AM 17.43 63.374 0.209 8.01 3.72 9.69
5/22/2022 12:00:00 PM 17.71 63.878 0.209 8.04 3.57 9.75
5/22/2022 12:15:00 PM 17.86 64.148 0.208 8.01 3.74 9.69
5/22/2022 12:30:00 PM 18.2 64.76 0.208 8.06 3.71 9.77
5/22/2022 12:45:00 PM 18.36 65.048 0.208 8.07 3.85 9.78
5/22/2022 1:00:00 PM 18.49 65.282 0.208 8.06 3.73 9.74
5/22/2022 1:15:00 PM 18.69 65.642 0.208 8.1 3.58 9.77
5/22/2022 1:30:00 PM 18.83 65.894 0.208 8.14 3.63 9.76
5/22/2022 1:45:00 PM 19.03 66.254 0.207 8.1 4.36 9.79
5/22/2022 2:00:00 PM 19.19 66.542 0.206 8.14 3.73 9.67
5/22/2022 2:15:00 PM 19.53 67.154 0.207 8.2 3.51 9.72
5/22/2022 2:30:00 PM 19.82 67.676 0.207 8.22 3.63 9.69
5/22/2022 2:45:00 PM 19.85 67.73 0.207 8.19 3.71 9.59
5/22/2022 3:00:00 PM 19.9 67.82 0.207 8.31 3.68 9.54
5/22/2022 3:15:00 PM 19.89 67.802 0.207 8.29 3.94 9.45
5/22/2022 3:30:00 PM 19.88 67.784 0.206 8.28 3.97 9.36
5/22/2022 3:45:00 PM 20.08 68.144 0.207 8.31 3.89 9.36
5/22/2022 4:00:00 PM 20.18 68.324 0.206 8.21 3.86 9.22
5/22/2022 4:15:00 PM 20.26 68.468 0.205 8.19 3.62 9.15
5/22/2022 4:30:00 PM 20.23 68.414 0.206 8.19 3.76 9.09
5/22/2022 4:45:00 PM 20.1 68.18 0.206 8.19 3.71 8.99
5/22/2022 5:00:00 PM 20 68 0.206 8.14 3.43 8.87
5/22/2022 5:15:00 PM 19.85 67.73 0.206 8.13 3.73 8.74
5/22/2022 5:30:00 PM 19.77 67.586 0.206 8.11 3.68 8.72
5/22/2022 5:45:00 PM 19.67 67.406 0.206 8.07 3.69 8.58
5/22/2022 6:00:00 PM 19.59 67.262 0.206 8.04 4.15 8.55
5/22/2022 6:15:00 PM 19.5 67.1 0.206 8.02 3.94 8.5
5/22/2022 6:30:00 PM 19.4 66.92 0.205 7.96 4.14 8.47
5/22/2022 6:45:00 PM 19.3 66.74 0.206 7.95 3.87 8.46
5/22/2022 7:00:00 PM 19.13 66.434 0.205 7.91 4.35 8.4
5/22/2022 7:15:00 PM 19.05 66.29 0.207 7.94 3.49 8.39
5/22/2022 7:30:00 PM 18.94 66.092 0.207 7.94 3.92 8.36
5/22/2022 7:45:00 PM 18.78 65.804 0.207 7.92 3.97 8.34
5/22/2022 8:00:00 PM 18.6 65.48 0.207 7.89 4 8.29
5/22/2022 8:15:00 PM 18.53 65.354 0.208 7.9 4.08 8.28
5/22/2022 8:30:00 PM 18.4 65.12 0.208 7.87 4.18 8.23
5/22/2022 8:45:00 PM 18.27 64.886 0.208 7.85 4.13 8.2
5/22/2022 9:00:00 PM 18.13 64.634 0.208 7.83 3.82 8.17
5/22/2022 9:15:00 PM 18.01 64.418 0.208 7.81 4.06 8.12
5/22/2022 9:30:00 PM 17.9 64.22 0.209 7.8 3.87 8.11
5/22/2022 9:45:00 PM 17.76 63.968 0.209 7.78 4.15 8.09
5/22/2022 10:00:00 PM 17.62 63.716 0.209 7.76 3.95 8.07
5/22/2022 10:15:00 PM 17.47 63.446 0.209 7.75 3.97 8.08
5/22/2022 10:30:00 PM 17.33 63.194 0.209 7.74 4.02 8.1
5/22/2022 10:45:00 PM 17.2 62.96 0.21 7.74 4.04 8.11
5/22/2022 11:00:00 PM 17.07 62.726 0.21 7.73 3.71 8.14
5/22/2022 11:15:00 PM 16.92 62.456 0.209 7.72 3.88 8.13
5/22/2022 11:30:00 PM 16.79 62.222 0.209 7.72 3.8 8.16
5/22/2022 11:45:00 PM 16.68 62.024 0.21 7.71 4.16 8.17
5/23/2022 12:00:00 AM 16.6 61.88 0.21 7.7 4.18 8.17
5/23/2022 12:15:00 AM 16.48 61.664 0.21 7.69 3.96 8.18
5/23/2022 12:30:00 AM 16.36 61.448 0.21 7.68 3.94 8.19
5/23/2022 12:45:00 AM 16.26 61.268 0.21 7.68 3.96 8.23
5/23/2022 1:00:00 AM 16.13 61.034 0.21 7.67 3.94 8.23
5/23/2022 1:15:00 AM 16 60.8 0.21 7.67 3.9 8.27
5/23/2022 1:30:00 AM 15.88 60.584 0.21 7.68 3.85 8.34
5/23/2022 1:45:00 AM 15.76 60.368 0.21 7.68 4.39 8.37
5/23/2022 2:00:00 AM 15.63 60.134 0.21 7.67 4.15 8.39
5/23/2022 2:15:00 AM 15.51 59.918 0.209 7.67 4.12 8.43
5/23/2022 2:30:00 AM 15.4 59.72 0.209 7.67 3.92 8.47
5/23/2022 2:45:00 AM 15.3 59.54 0.209 7.67 3.88 8.51
5/23/2022 3:00:00 AM 15.21 59.378 0.209 7.67 3.8 8.52
5/23/2022 3:15:00 AM 15.14 59.252 0.209 7.68 3.78 8.55
5/23/2022 3:30:00 AM 15.04 59.072 0.209 7.67 3.68 8.56
5/23/2022 3:45:00 AM 14.95 58.91 0.209 7.67 3.84 8.57
5/23/2022 4:00:00 AM 14.87 58.766 0.209 7.67 4.02 8.6
5/23/2022 4:15:00 AM 14.78 58.604 0.209 7.67 4.25 8.62
5/23/2022 4:30:00 AM 14.7 58.46 0.209 7.66 3.96 8.63
5/23/2022 4:45:00 AM 14.59 58.262 0.208 7.66 4.09 8.64
5/23/2022 5:00:00 AM 14.5 58.1 0.208 7.66 4.12 8.65
5/23/2022 5:15:00 AM 14.4 57.92 0.208 7.65 4.07 8.68
5/23/2022 5:30:00 AM 14.34 57.812 0.208 7.65 4.7 8.68
5/23/2022 5:45:00 AM 14.27 57.686 0.208 7.65 4.1 8.71
5/23/2022 6:00:00 AM 14.19 57.542 0.208 7.65 4.03 8.73
5/23/2022 6:15:00 AM 14.13 57.434 0.208 7.66 4.17 8.77
5/23/2022 6:30:00 AM 14.06 57.308 0.207 7.66 3.96 8.83
5/23/2022 6:45:00 AM 14.01 57.218 0.207 7.67 4.51 8.89
5/23/2022 7:00:00 AM 14.07 57.326 0.207 7.67 4.74 8.9
5/23/2022 7:15:00 AM 14.04 57.272 0.207 7.68 4.61 8.96
5/23/2022 7:30:00 AM 14.01 57.218 0.207 7.68 4 9.01
5/23/2022 7:45:00 AM 13.96 57.128 0.206 7.68 4.2 9.06
5/23/2022 8:00:00 AM 13.94 57.092 0.206 7.67 4.27 9.05
5/23/2022 8:15:00 AM 13.92 57.056 0.206 7.68 4.17 9.13
5/23/2022 8:30:00 AM 13.92 57.056 0.206 7.66 4.21 9.08
5/23/2022 8:45:00 AM 13.93 57.074 0.205 7.66 4.2 9.13
5/23/2022 9:00:00 AM 13.93 57.074 0.205 7.66 3.93 9.18
5/23/2022 9:15:00 AM 13.89 57.002 0.204 7.65 3.99 9.34
5/23/2022 9:30:00 AM 13.94 57.092 0.204 7.67 3.74 9.44
5/23/2022 9:45:00 AM 13.97 57.146 0.204 7.69 4.02 9.48
5/23/2022 10:00:00 AM 13.99 57.182 0.204 7.71 3.62 9.55
5/23/2022 10:15:00 AM 14.02 57.236 0.204 7.72 4.42 9.63
5/23/2022 10:30:00 AM 14.06 57.308 0.204 7.74 4.16 9.71
5/23/2022 10:45:00 AM 14.12 57.416 0.204 7.76 4.47 9.79
5/23/2022 11:00:00 AM 14.17 57.506 0.204 7.77 4.44 9.83
5/23/2022 11:15:00 AM 14.26 57.668 0.204 7.8 4.25 9.91
5/23/2022 11:30:00 AM 14.37 57.866 0.203 7.8 3.72 9.97
5/23/2022 11:45:00 AM 14.54 58.172 0.203 7.86 3.65 10.08
5/23/2022 12:00:00 PM 14.72 58.496 0.203 7.88 3.68 10.14
5/23/2022 12:15:00 PM 14.93 58.874 0.203 7.93 3.58 10.23
5/23/2022 12:30:00 PM 15.08 59.144 0.203 7.96 3.54 10.27
5/23/2022 12:45:00 PM 15.27 59.486 0.203 7.99 3.52 10.32
5/23/2022 1:00:00 PM 15.42 59.756 0.203 8 3.59 10.35
5/23/2022 1:15:00 PM 15.56 60.008 0.202 8.01 3.76 10.34
5/23/2022 1:30:00 PM 15.68 60.224 0.202 8.04 3.69 10.36
5/23/2022 1:45:00 PM 15.85 60.53 0.202 8.06 3.56 10.34
5/23/2022 2:00:00 PM 15.92 60.656 0.201 8.07 3.5 10.31
5/23/2022 2:15:00 PM 16.08 60.944 0.202 8.09 3.79 10.31
5/23/2022 2:30:00 PM 16.05 60.89 0.201 8.08 3.47 10.27
5/23/2022 2:45:00 PM 16.07 60.926 0.201 8.1 4.02 10.21
5/23/2022 3:00:00 PM 16.05 60.89 0.201 8.12 3.96 10.19
5/23/2022 3:15:00 PM 16.05 60.89 0.201 8.12 3.58 10.17
5/23/2022 3:30:00 PM 16.06 60.908 0.2 8.11 3.67 10.12
5/23/2022 3:45:00 PM 16.08 60.944 0.2 8.12 3.89 10.12
5/23/2022 4:00:00 PM 16.14 61.052 0.199 8.12 3.87 10.07
5/23/2022 4:15:00 PM 16.19 61.142 0.199 8.14 3.56 10.07
5/23/2022 4:30:00 PM 16.23 61.214 0.199 8.14 4.03 10.06
5/23/2022 4:45:00 PM 16.22 61.196 0.199 8.12 3.83 9.98
5/23/2022 5:00:00 PM 16.2 61.16 0.199 8.13 3.94 9.97
5/23/2022 5:15:00 PM 16.18 61.124 0.199 8.14 3.87 9.94
5/23/2022 5:30:00 PM 16.16 61.088 0.199 8.13 3.94 9.91
5/23/2022 5:45:00 PM 16.12 61.016 0.198 8.12 3.74 9.89
5/23/2022 6:00:00 PM 16.13 61.034 0.199 8.14 4.22 9.87
5/23/2022 6:15:00 PM 16.1 60.98 0.199 8.1 4.92 9.76
5/23/2022 6:30:00 PM 16.07 60.926 0.198 8.12 3.62 9.75
5/23/2022 6:45:00 PM 16.03 60.854 0.198 8.1 4.17 9.67
5/23/2022 7:00:00 PM 16 60.8 0.198 8.08 3.49 9.65
5/23/2022 7:15:00 PM 15.96 60.728 0.198 8.06 3.4 9.56
5/23/2022 7:30:00 PM 15.9 60.62 0.198 8.04 3.67 9.47
5/23/2022 7:45:00 PM 15.85 60.53 0.198 8.01 3.6 9.37
5/23/2022 8:00:00 PM 15.79 60.422 0.198 7.98 3.63 9.26
5/23/2022 8:15:00 PM 15.74 60.332 0.199 7.97 3.63 9.18
5/23/2022 8:30:00 PM 15.67 60.206 0.199 7.95 3.75 9.1
5/23/2022 8:45:00 PM 15.63 60.134 0.199 7.93 3.44 9.05
5/23/2022 9:00:00 PM 15.56 60.008 0.199 7.85 4.03 8.86
5/23/2022 9:15:00 PM 15.51 59.918 0.199 7.86 3.86 8.84
5/23/2022 9:30:00 PM 15.42 59.756 0.199 7.83 3.62 8.82
5/23/2022 9:45:00 PM 15.33 59.594 0.199 7.84 3.57 8.8
5/23/2022 10:00:00 PM 15.25 59.45 0.199 7.78 4.81 8.69
5/23/2022 10:15:00 PM 15.17 59.306 0.199 7.78 4.31 8.64
5/23/2022 10:30:00 PM 15.08 59.144 0.199 7.75 3.88 8.61
5/23/2022 10:45:00 PM 14.97 58.946 0.199 7.73 4.39 8.6
5/23/2022 11:00:00 PM 14.88 58.784 0.2 7.74 4.46 8.63
5/23/2022 11:15:00 PM 14.79 58.622 0.2 7.7 4.69 8.56
5/23/2022 11:30:00 PM 14.66 58.388 0.199 7.68 4.11 8.53
5/23/2022 11:45:00 PM 14.55 58.19 0.199 7.65 4.11 8.5
5/24/2022 12:00:00 AM 14.51 58.118 0.2 7.67 3.87 8.55
5/24/2022 12:15:00 AM 14.42 57.956 0.2 7.64 4.05 8.54
5/24/2022 12:30:00 AM 14.32 57.776 0.2 7.67 4.86 8.61
5/24/2022 12:45:00 AM 14.19 57.542 0.201 7.69 4.09 8.77
5/24/2022 1:00:00 AM 14.08 57.344 0.201 7.69 3.91 8.82
5/24/2022 1:15:00 AM 13.98 57.164 0.201 7.69 3.94 8.83
5/24/2022 1:30:00 AM 13.88 56.984 0.201 7.69 5.48 8.83
5/24/2022 1:45:00 AM 13.8 56.84 0.201 7.67 4.36 8.79
5/24/2022 2:00:00 AM 13.7 56.66 0.201 7.67 4 8.79
5/24/2022 2:15:00 AM 13.63 56.534 0.201 7.64 4.06 8.72
5/24/2022 2:30:00 AM 13.54 56.372 0.201 7.63 3.89 8.7
5/24/2022 2:45:00 AM 13.44 56.192 0.201 7.63 4.18 8.72
5/24/2022 3:00:00 AM 13.36 56.048 0.201 7.63 3.94 8.71
5/24/2022 3:15:00 AM 13.26 55.868 0.201 7.64 3.9 8.76
5/24/2022 3:30:00 AM 13.18 55.724 0.201 7.63 4.35 8.77
5/24/2022 3:45:00 AM 13.11 55.598 0.201 7.62 3.83 8.74
5/24/2022 4:00:00 AM 13.01 55.418 0.201 7.62 3.91 8.78
5/24/2022 4:15:00 AM 12.92 55.256 0.201 7.61 3.99 8.78
5/24/2022 4:30:00 AM 12.81 55.058 0.201 7.61 3.86 8.86
5/24/2022 4:45:00 AM 12.73 54.914 0.201 7.61 4.04 8.85
5/24/2022 5:00:00 AM 12.65 54.77 0.201 7.6 3.89 8.81
5/24/2022 5:15:00 AM 12.55 54.59 0.202 7.61 4.02 8.89
5/24/2022 5:30:00 AM 12.47 54.446 0.202 7.61 3.83 8.94
5/24/2022 5:45:00 AM 12.4 54.32 0.202 7.61 4.2 8.91
5/24/2022 6:00:00 AM 12.33 54.194 0.202 7.61 4.3 8.9
5/24/2022 6:15:00 AM 12.24 54.032 0.202 7.61 4.06 8.99
5/24/2022 6:30:00 AM 12.17 53.906 0.202 7.61 3.96 9.01
5/24/2022 6:45:00 AM 12.11 53.798 0.202 7.61 4.62 9.08
5/24/2022 7:00:00 AM 12.06 53.708 0.202 7.61 3.89 9.09
5/24/2022 7:15:00 AM 12.02 53.636 0.201 7.61 4.26 9.12
5/24/2022 7:30:00 AM 11.98 53.564 0.201 7.62 3.92 9.19
5/24/2022 7:45:00 AM 11.95 53.51 0.201 7.62 4.39 9.28
5/24/2022 8:00:00 AM 11.96 53.528 0.201 7.63 3.75 9.38
5/24/2022 8:15:00 AM 11.98 53.564 0.201 7.63 4.89 9.43
5/24/2022 8:30:00 AM 11.98 53.564 0.2 7.61 4.35 9.45
5/24/2022 8:45:00 AM 11.99 53.582 0.2 7.61 4.27 9.44
5/24/2022 9:00:00 AM 11.99 53.582 0.2 7.63 4.1 9.51
5/24/2022 9:15:00 AM 12.01 53.618 0.2 7.63 4.28 9.56
5/24/2022 9:30:00 AM 12.02 53.636 0.2 7.65 3.67 9.65
5/24/2022 9:45:00 AM 12.04 53.672 0.2 7.66 3.67 9.72
5/24/2022 10:00:00 AM 12.06 53.708 0.2 7.66 3.58 9.74
5/24/2022 10:15:00 AM 12.13 53.834 0.2 7.68 3.93 9.82
5/24/2022 10:30:00 AM 12.25 54.05 0.2 7.69 3.64 9.92
5/24/2022 10:45:00 AM 12.4 54.32 0.199 7.69 3.55 10.02
5/24/2022 11:00:00 AM 12.6 54.68 0.199 7.7 3.6 10.12
5/24/2022 11:15:00 AM 12.81 55.058 0.199 7.71 3.57 10.2
5/24/2022 11:30:00 AM 12.98 55.364 0.198 7.72 3.92 10.25
5/24/2022 11:45:00 AM 13.17 55.706 0.198 7.75 4.21 10.37
5/24/2022 12:00:00 PM 13.36 56.048 0.198 7.76 3.88 10.43
5/24/2022 12:15:00 PM 13.53 56.354 0.198 7.83 3.62 10.48
5/24/2022 12:30:00 PM 13.6 56.48 0.197 7.76 3.51 10.45
5/24/2022 12:45:00 PM 13.85 56.93 0.198 7.81 3.77 10.52
5/24/2022 1:00:00 PM 14.03 57.254 0.198 7.85 4.28 10.57
5/24/2022 1:15:00 PM 14.25 57.65 0.198 7.88 3.71 10.64
5/24/2022 1:30:00 PM 14.64 58.352 0.198 7.92 3.44 10.7
5/24/2022 1:45:00 PM 14.89 58.802 0.198 7.93 3.48 10.7
5/24/2022 2:00:00 PM 15.08 59.144 0.197 7.94 3.74 10.7
5/24/2022 2:15:00 PM 15.21 59.378 0.197 7.92 4.38 10.53
5/24/2022 2:30:00 PM 15.33 59.594 0.197 7.95 3.65 10.58
5/24/2022 2:45:00 PM 15.48 59.864 0.197 7.98 3.98 10.63
5/24/2022 3:00:00 PM 15.64 60.152 0.197 7.99 4.57 10.58
5/24/2022 3:15:00 PM 15.73 60.314 0.197 8 4.1 10.51
5/24/2022 3:30:00 PM 15.76 60.368 0.197 7.99 4.19 10.42
5/24/2022 3:45:00 PM 15.81 60.458 0.197 7.99 3.78 10.44
5/24/2022 4:00:00 PM 15.88 60.584 0.197 8.01 3.92 10.36
5/24/2022 4:15:00 PM 15.91 60.638 0.197 8.01 3.66 10.34
5/24/2022 4:30:00 PM 15.91 60.638 0.197 8.01 5.26 10.27
5/24/2022 4:45:00 PM 15.87 60.566 0.197 8.01 5.58 10.25
5/24/2022 5:00:00 PM 15.85 60.53 0.196 7.99 6.35 10.24
5/24/2022 5:15:00 PM 15.82 60.476 0.196 8 4.68 10.17
5/24/2022 5:30:00 PM 15.83 60.494 0.197 8 4.99 10.16
5/24/2022 5:45:00 PM 15.82 60.476 0.196 8 4.29 10.13
5/24/2022 6:00:00 PM 15.82 60.476 0.196 8 4.62 10.04
5/24/2022 6:15:00 PM 15.82 60.476 0.196 7.99 5.55 9.97
5/24/2022 6:30:00 PM 15.81 60.458 0.196 7.98 4.29 9.88
5/24/2022 6:45:00 PM 15.8 60.44 0.196 7.97 4.27 9.85
5/24/2022 7:00:00 PM 15.75 60.35 0.196 7.94 4.81 9.8
5/24/2022 7:15:00 PM 15.7 60.26 0.196 7.92 4.17 9.73
5/24/2022 7:30:00 PM 15.67 60.206 0.196 7.91 4.42 9.65
5/24/2022 7:45:00 PM 15.62 60.116 0.196 7.88 4.11 9.54
5/24/2022 8:00:00 PM 15.56 60.008 0.196 7.85 4.42 9.42
5/24/2022 8:15:00 PM 15.52 59.936 0.196 7.83 4.46 9.32
5/24/2022 8:30:00 PM 15.47 59.846 0.196 7.8 4.11 9.18
5/24/2022 8:45:00 PM 15.39 59.702 0.196 7.79 4.36 9.16
5/24/2022 9:00:00 PM 15.33 59.594 0.196 7.76 4.22 9.05
5/24/2022 9:15:00 PM 15.27 59.486 0.196 7.76 4.45 8.98
5/24/2022 9:30:00 PM 15.19 59.342 0.196 7.72 4.49 8.83
5/24/2022 9:45:00 PM 15.12 59.216 0.196 7.7 4.54 8.74
5/24/2022 10:00:00 PM 15.03 59.054 0.196 7.68 4.72 8.65
5/24/2022 10:15:00 PM 14.97 58.946 0.197 7.67 4.27 8.57
5/24/2022 10:30:00 PM 14.91 58.838 0.197 7.66 4.03 8.5
5/24/2022 10:45:00 PM 14.83 58.694 0.197 7.65 4.47 8.43
5/24/2022 11:00:00 PM 14.76 58.568 0.197 7.63 4.26 8.37
5/24/2022 11:15:00 PM 14.7 58.46 0.197 7.63 4.32 8.34
5/24/2022 11:30:00 PM 14.61 58.298 0.198 7.61 4.49 8.29
5/24/2022 11:45:00 PM 14.53 58.154 0.198 7.6 4.64 8.26
5/25/2022 12:00:00 AM 14.47 58.046 0.199 7.59 4.15 8.25
5/25/2022 12:15:00 AM 14.42 57.956 0.199 7.6 4.33 8.25
5/25/2022 12:30:00 AM 14.3 57.74 0.199 7.56 4.18 8.18
5/25/2022 12:45:00 AM 14.27 57.686 0.2 7.57 3.94 8.19
5/25/2022 1:00:00 AM 14.22 57.596 0.2 7.58 4.25 8.21
5/25/2022 1:15:00 AM 14.11 57.398 0.199 7.55 4.46 8.08
5/25/2022 1:30:00 AM 14.09 57.362 0.2 7.55 4.46 8.14
5/25/2022 1:45:00 AM 14.04 57.272 0.2 7.55 4.53 8.07
5/25/2022 2:00:00 AM 14 57.2 0.2 7.54 5.17 8.02
5/25/2022 2:15:00 AM 13.93 57.074 0.2 7.52 4.75 8.03
5/25/2022 2:30:00 AM 13.91 57.038 0.2 7.52 4.44 8
5/25/2022 2:45:00 AM 13.88 56.984 0.2 7.52 4.89 7.99
5/25/2022 3:00:00 AM 13.82 56.876 0.2 7.51 4.37 8.01
5/25/2022 3:15:00 AM 13.78 56.804 0.201 7.51 4.75 8.01
5/25/2022 3:30:00 AM 13.74 56.732 0.201 7.5 4.62 8
5/25/2022 3:45:00 AM 13.69 56.642 0.201 7.49 4.58 8.01
5/25/2022 4:00:00 AM 13.65 56.57 0.201 7.49 4.25 8.04
5/25/2022 4:15:00 AM 13.6 56.48 0.201 7.48 4.22 7.97
5/25/2022 4:30:00 AM 13.56 56.408 0.201 7.48 4.06 7.98
5/25/2022 4:45:00 AM 13.52 56.336 0.201 7.47 4.16 7.98
5/25/2022 5:00:00 AM 13.47 56.246 0.201 7.47 3.78 8.04
5/25/2022 5:15:00 AM 13.45 56.21 0.201 7.47 4.09 8.02
5/25/2022 5:30:00 AM 13.39 56.102 0.201 7.45 4.3 7.94
5/25/2022 5:45:00 AM 13.35 56.03 0.201 7.44 4.03 7.91
5/25/2022 6:00:00 AM 13.29 55.922 0.2 7.42 4.07 7.87
5/25/2022 6:15:00 AM 13.3 55.94 0.201 7.44 4.02 7.93
5/25/2022 6:30:00 AM 13.27 55.886 0.201 7.44 3.94 7.97
5/25/2022 6:45:00 AM 13.24 55.832 0.201 7.44 4.7 7.97
5/25/2022 7:00:00 AM 13.23 55.814 0.201 7.44 3.87 7.97
5/25/2022 7:15:00 AM 13.22 55.796 0.201 7.44 4.29 8.02
5/25/2022 7:30:00 AM 13.24 55.832 0.202 7.45 4.17 8.2
5/25/2022 7:45:00 AM 13.23 55.814 0.202 7.45 4.25 8.31
5/25/2022 8:00:00 AM 13.26 55.868 0.202 7.46 4.64 8.44
5/25/2022 8:15:00 AM 13.3 55.94 0.202 7.47 4.64 8.56
5/25/2022 8:30:00 AM 13.35 56.03 0.202 7.48 3.9 8.67
5/25/2022 8:45:00 AM 13.37 56.066 0.202 7.49 4.02 8.76
5/25/2022 9:00:00 AM 13.41 56.138 0.202 7.49 4.06 8.87
5/25/2022 9:15:00 AM 13.48 56.264 0.202 7.5 4.23 8.96
5/25/2022 9:30:00 AM 13.54 56.372 0.202 7.5 4.55 9.02
5/25/2022 9:45:00 AM 13.62 56.516 0.202 7.52 4.57 9.15
5/25/2022 10:00:00 AM 13.69 56.642 0.201 7.53 4.3 9.25
5/25/2022 10:15:00 AM 13.74 56.732 0.201 7.53 4.22 9.31
5/25/2022 10:30:00 AM 13.79 56.822 0.201 7.54 5.52 9.36
5/25/2022 10:45:00 AM 13.85 56.93 0.201 7.56 5.08 9.46
5/25/2022 11:00:00 AM 13.9 57.02 0.201 7.56 4.23 9.51
5/25/2022 11:15:00 AM 13.96 57.128 0.201 7.57 4.52 9.58
5/25/2022 11:30:00 AM 14.04 57.272 0.2 7.58 3.87 9.63
5/25/2022 11:45:00 AM 14.09 57.362 0.2 7.59 4.43 9.66
5/25/2022 12:00:00 PM 14.23 57.614 0.201 7.6 4.57 9.69
5/25/2022 12:15:00 PM 14.33 57.794 0.2 7.61 4.14 9.76
5/25/2022 12:30:00 PM 14.5 58.1 0.201 7.63 4.7 9.79
5/25/2022 12:45:00 PM 14.74 58.532 0.2 7.63 5.04 9.86
5/25/2022 1:00:00 PM 14.99 58.982 0.2 7.64 4.62 9.91
5/25/2022 1:15:00 PM 15.48 59.864 0.2 7.65 4.1 10
5/25/2022 1:30:00 PM 15.89 60.602 0.2 7.66 3.68 9.96
5/25/2022 1:45:00 PM 16.15 61.07 0.199 7.66 4.02 9.89
5/25/2022 2:00:00 PM 16.44 61.592 0.199 7.65 3.79 9.96
5/25/2022 2:15:00 PM 16.69 62.042 0.197 7.63 3.88 9.98
5/25/2022 2:30:00 PM 17.14 62.852 0.197 7.63 3.76 9.87
5/25/2022 2:45:00 PM 17.51 63.518 0.196 7.64 4 9.86
5/25/2022 3:00:00 PM 17.97 64.346 0.197 7.65 4.33 9.73
5/25/2022 3:15:00 PM 18.31 64.958 0.197 7.66 4 9.7
5/25/2022 3:30:00 PM 18.63 65.534 0.196 7.67 4.51 9.64
5/25/2022 3:45:00 PM 18.78 65.804 0.197 7.66 5 9.6
5/25/2022 4:00:00 PM 19.17 66.506 0.197 7.7 6.79 9.63
5/25/2022 4:15:00 PM 19.01 66.218 0.196 7.64 4.78 9.52
5/25/2022 4:30:00 PM 19.26 66.668 0.196 7.66 4.17 9.54
5/25/2022 4:45:00 PM 19.53 67.154 0.197 7.69 4.47 9.52
5/25/2022 5:00:00 PM 19.56 67.208 0.197 7.71 4.13 9.5
5/25/2022 5:15:00 PM 19.71 67.478 0.198 7.74 4.57 9.42
5/25/2022 5:30:00 PM 19.62 67.316 0.197 7.71 5.07 9.36
5/25/2022 5:45:00 PM 19.42 66.956 0.197 7.71 6.18 9.32
5/25/2022 6:00:00 PM 19.21 66.578 0.198 7.7 4.56 9.28
5/25/2022 6:15:00 PM 18.98 66.164 0.198 7.73 4.44 9.25
5/25/2022 6:30:00 PM 18.76 65.768 0.197 7.7 4.22 9.11
5/25/2022 6:45:00 PM 18.53 65.354 0.197 7.7 4.62 9.07
5/25/2022 7:00:00 PM 18.35 65.03 0.197 7.66 4.34 8.94
5/25/2022 7:15:00 PM 18.17 64.706 0.197 7.67 4.22 8.88
5/25/2022 7:30:00 PM 18.04 64.472 0.197 7.66 4.04 8.81
5/25/2022 7:45:00 PM 17.85 64.13 0.196 7.63 4.36 8.69
5/25/2022 8:00:00 PM 17.75 63.95 0.197 7.63 4.4 8.62
5/25/2022 8:15:00 PM 17.62 63.716 0.197 7.61 3.72 8.51
5/25/2022 8:30:00 PM 17.49 63.482 0.197 7.6 3.76 8.41
5/25/2022 8:45:00 PM 17.39 63.302 0.198 7.59 3.87 8.31
5/25/2022 9:00:00 PM 17.28 63.104 0.198 7.58 4.54 8.19
5/25/2022 9:15:00 PM 17.16 62.888 0.198 7.57 3.82 8.07
5/25/2022 9:30:00 PM 17.05 62.69 0.199 7.55 4.33 7.96
5/25/2022 9:45:00 PM 16.95 62.51 0.198 7.53 4.61 7.91
5/25/2022 10:00:00 PM 16.81 62.258 0.198 7.51 4.85 7.81
5/25/2022 10:15:00 PM 16.74 62.132 0.198 7.51 4.94 7.75
5/25/2022 10:30:00 PM 16.62 61.916 0.199 7.49 5.37 7.68
5/25/2022 10:45:00 PM 16.53 61.754 0.199 7.47 4.9 7.63
5/25/2022 11:00:00 PM 16.43 61.574 0.198 7.46 6.3 7.6
5/25/2022 11:15:00 PM 16.36 61.448 0.198 7.45 5.2 7.54
5/25/2022 11:30:00 PM 16.27 61.286 0.198 7.44 5.43 7.49
5/25/2022 11:45:00 PM 16.15 61.07 0.197 7.41 5.82 7.42
5/26/2022 12:00:00 AM 16.08 60.944 0.197 7.41 4.81 7.39
5/26/2022 12:15:00 AM 15.98 60.764 0.197 7.39 5.61 7.3
5/26/2022 12:30:00 AM 15.92 60.656 0.197 7.39 5.85 7.31
5/26/2022 12:45:00 AM 15.79 60.422 0.196 7.37 4.65 7.21
5/26/2022 1:00:00 AM 15.75 60.35 0.196 7.37 5.03 7.21
5/26/2022 1:15:00 AM 15.61 60.098 0.195 7.34 4.9 7.08
5/26/2022 1:30:00 AM 15.55 59.99 0.196 7.33 5.51 7.08
5/26/2022 1:45:00 AM 15.33 59.594 0.192 7.28 4.88 6.9
5/26/2022 2:00:00 AM 15.26 59.468 0.192 7.26 4.86 6.87
5/26/2022 2:15:00 AM 15.36 59.648 0.195 7.3 5.52 6.99
5/26/2022 2:30:00 AM 15.21 59.378 0.193 7.28 4.91 6.88
5/26/2022 2:45:00 AM 15.03 59.054 0.189 7.24 5.05 6.54
5/26/2022 3:00:00 AM 15.03 59.054 0.192 7.25 4.25 6.68
5/26/2022 3:15:00 AM 14.93 58.874 0.191 7.23 4.53 6.69
5/26/2022 3:30:00 AM 14.88 58.784 0.19 7.23 3.98 6.56
5/26/2022 3:45:00 AM 14.79 58.622 0.191 7.23 5.13 6.55
5/26/2022 4:00:00 AM 14.72 58.496 0.191 7.23 4.19 6.62
5/26/2022 4:15:00 AM 14.69 58.442 0.19 7.23 4.55 6.68
5/26/2022 4:30:00 AM 14.65 58.37 0.191 7.23 4.76 6.7
5/26/2022 4:45:00 AM 14.53 58.154 0.189 7.2 4.19 6.48
5/26/2022 5:00:00 AM 14.55 58.19 0.194 7.22 5.94 6.62
5/26/2022 5:15:00 AM 14.51 58.118 0.193 7.23 4.97 6.67
5/26/2022 5:30:00 AM 14.4 57.92 0.192 7.22 4.6 6.65
5/26/2022 5:45:00 AM 14.42 57.956 0.194 7.23 4.58 6.68
5/26/2022 6:00:00 AM 14.39 57.902 0.195 7.25 4.54 6.79
5/26/2022 6:15:00 AM 14.3 57.74 0.194 7.22 6.01 6.63
5/26/2022 6:30:00 AM 14.25 57.65 0.194 7.22 4.75 6.71
5/26/2022 6:45:00 AM 14.23 57.614 0.195 7.23 6.13 6.81
5/26/2022 7:00:00 AM 14.15 57.47 0.192 7.22 5.12 6.78
5/26/2022 7:15:00 AM 14.11 57.398 0.193 7.21 6.37 6.8
5/26/2022 7:30:00 AM 14.06 57.308 0.19 7.17 4.75 6.56
5/26/2022 7:45:00 AM 14.01 57.218 0.189 7.18 4.54 6.64
5/26/2022 8:00:00 AM 14.06 57.308 0.192 7.2 4.44 6.84
5/26/2022 8:15:00 AM 14.03 57.254 0.192 7.2 4.95 6.87
5/26/2022 8:30:00 AM 13.99 57.182 0.191 7.2 4.35 6.87
5/26/2022 8:45:00 AM 13.92 57.056 0.19 7.18 4.28 6.82
5/26/2022 9:00:00 AM 13.92 57.056 0.19 7.19 4.43 6.9
5/26/2022 9:15:00 AM 13.86 56.948 0.189 7.18 4.06 6.82
5/26/2022 9:30:00 AM 13.81 56.858 0.188 7.16 4.08 6.75
5/26/2022 9:45:00 AM 13.85 56.93 0.19 7.18 4.32 6.93
5/26/2022 10:00:00 AM 13.85 56.93 0.189 7.18 4 6.99
5/26/2022 10:15:00 AM 13.87 56.966 0.189 7.18 3.79 6.98
5/26/2022 10:30:00 AM 13.92 57.056 0.19 7.2 3.93 7.01
5/26/2022 10:45:00 AM 13.89 57.002 0.187 7.17 3.82 7.12
5/26/2022 11:00:00 AM 13.93 57.074 0.186 7.17 3.87 7.18
5/26/2022 11:15:00 AM 13.99 57.182 0.188 7.17 4.36 7.31
5/26/2022 11:30:00 AM 14.03 57.254 0.186 7.16 4.5 7.36
5/26/2022 11:45:00 AM 14.12 57.416 0.188 7.2 3.91 7.57
5/26/2022 12:00:00 PM 14.19 57.542 0.186 7.2 3.95 7.6
5/26/2022 12:15:00 PM 14.3 57.74 0.187 7.2 3.8 7.72
5/26/2022 12:30:00 PM 14.39 57.902 0.186 7.2 4.84 7.81
5/26/2022 12:45:00 PM 14.62 58.316 0.189 7.23 3.64 7.86
5/26/2022 1:00:00 PM 14.82 58.676 0.186 7.18 4.25 7.84
5/26/2022 1:15:00 PM 15.03 59.054 0.185 7.18 4.42 8.03
5/26/2022 1:30:00 PM 15.32 59.576 0.183 7.18 4.35 8.16
5/26/2022 1:45:00 PM 15.51 59.918 0.179 7.14 4.88 8
5/26/2022 2:00:00 PM 15.83 60.494 0.178 7.12 5.01 7.96
5/26/2022 2:15:00 PM 16.04 60.872 0.176 7.08 4.81 7.72
5/26/2022 2:30:00 PM 16.21 61.178 0.174 7.06 4.04 7.62
5/26/2022 2:45:00 PM 16.48 61.664 0.174 7.07 4.08 7.76
5/26/2022 3:00:00 PM 16.73 62.114 0.174 7.05 3.93 7.78
5/26/2022 3:15:00 PM 16.95 62.51 0.175 7.07 4.5 8.04
5/26/2022 3:30:00 PM 17.24 63.032 0.175 7.08 4.42 8.14
5/26/2022 3:45:00 PM 17.53 63.554 0.177 7.11 5.2 8.25
5/26/2022 4:00:00 PM 17.7 63.86 0.176 7.09 4.4 8.21
5/26/2022 4:15:00 PM 17.93 64.274 0.176 7.09 4.05 8.26
5/26/2022 4:30:00 PM 17.95 64.31 0.175 7.08 4.08 8.19
5/26/2022 4:45:00 PM 18.2 64.76 0.176 7.1 3.97 8.19
5/26/2022 5:00:00 PM 18.23 64.814 0.175 7.09 4.2 8.18
5/26/2022 5:15:00 PM 18.41 65.138 0.177 7.1 4.74 8.22
5/26/2022 5:30:00 PM 18.52 65.336 0.178 7.14 3.8 8.01
5/26/2022 5:45:00 PM 18.86 65.948 0.182 7.19 3.99 8.18
5/26/2022 6:00:00 PM 18.91 66.038 0.182 7.19 5.52 8.09
5/26/2022 6:15:00 PM 18.86 65.948 0.182 7.19 4.12 8.06
5/26/2022 6:30:00 PM 18.91 66.038 0.185 7.23 4.79 8.07
5/26/2022 6:45:00 PM 18.73 65.714 0.184 7.22 5.16 8.06
5/26/2022 7:00:00 PM 18.48 65.264 0.182 7.19 5.53 8.06
5/26/2022 7:15:00 PM 18.38 65.084 0.184 7.24 5.34 8.02
5/26/2022 7:30:00 PM 18.26 64.868 0.184 7.23 4.82 8
5/26/2022 7:45:00 PM 18.2 64.76 0.187 7.27 4.31 7.87
5/26/2022 8:00:00 PM 18.11 64.598 0.189 7.29 5.2 7.83
5/26/2022 8:15:00 PM 17.93 64.274 0.188 7.29 5.49 7.76
5/26/2022 8:30:00 PM 17.76 63.968 0.186 7.26 4.6 7.63
5/26/2022 8:45:00 PM 17.54 63.572 0.183 7.22 4 7.55
5/26/2022 9:00:00 PM 17.43 63.374 0.186 7.23 4.28 7.4
5/26/2022 9:15:00 PM 17.33 63.194 0.185 7.23 4.37 7.25
5/26/2022 9:30:00 PM 17.19 62.942 0.184 7.21 4.75 7.1
5/26/2022 9:45:00 PM 17.12 62.816 0.185 7.2 4.52 7.01
5/26/2022 10:00:00 PM 16.78 62.204 0.182 7.16 4.38 6.85
5/26/2022 10:15:00 PM 16.81 62.258 0.183 7.16 4.33 6.76
5/26/2022 10:30:00 PM 16.63 61.934 0.18 7.13 4.06 6.65
5/26/2022 10:45:00 PM 16.61 61.898 0.182 7.13 4.13 6.51
5/26/2022 11:00:00 PM 16.5 61.7 0.181 7.11 3.83 6.39
5/26/2022 11:15:00 PM 16.45 61.61 0.181 7.11 4.04 6.33
5/26/2022 11:30:00 PM 16.31 61.358 0.178 7.08 3.62 6.23
5/26/2022 11:45:00 PM 16.17 61.106 0.175 7.04 3.58 6.11
5/27/2022 12:00:00 AM 16.07 60.926 0.175 7.03 3.55 6.08
5/27/2022 12:15:00 AM 16.01 60.818 0.175 7.03 4.32 6.02
5/27/2022 12:30:00 AM 15.84 60.512 0.172 7 4.95 5.93
5/27/2022 12:45:00 AM 15.73 60.314 0.171 6.99 4.14 5.82
5/27/2022 1:00:00 AM 15.66 60.188 0.171 6.98 4.02 5.8
5/27/2022 1:15:00 AM 15.6 60.08 0.171 6.98 3.78 5.75
5/27/2022 1:30:00 AM 15.42 59.756 0.169 6.95 3.65 5.58
5/27/2022 1:45:00 AM 15.39 59.702 0.169 6.96 3.82 5.47
5/27/2022 2:00:00 AM 15.33 59.594 0.169 6.95 3.6 5.39
5/27/2022 2:15:00 AM 15.26 59.468 0.169 6.95 4.32 5.3
5/27/2022 2:30:00 AM 15.21 59.378 0.168 6.95 3.48 5.3
5/27/2022 2:45:00 AM 15.34 59.612 0.169 6.96 3.51 5.34
5/27/2022 3:00:00 AM 15.27 59.486 0.169 6.96 3.58 5.32
5/27/2022 3:15:00 AM 15.26 59.468 0.169 6.96 3.79 5.34
5/27/2022 3:30:00 AM 15.23 59.414 0.169 6.96 3.57 5.31
5/27/2022 3:45:00 AM 15.21 59.378 0.17 6.97 3.67 5.37
5/27/2022 4:00:00 AM 15.21 59.378 0.171 6.97 3.69 5.35
5/27/2022 4:15:00 AM 15.27 59.486 0.173 6.98 3.58 5.35
5/27/2022 4:30:00 AM 15.3 59.54 0.175 6.99 4.88 5.24
5/27/2022 4:45:00 AM 15.23 59.414 0.174 6.99 4.11 5.2
5/27/2022 5:00:00 AM 15.22 59.396 0.176 7 3.72 5.3
5/27/2022 5:15:00 AM 15.23 59.414 0.177 7.02 4.06 5.43
5/27/2022 5:30:00 AM 15.23 59.414 0.179 7 5.54 5.33
5/27/2022 5:45:00 AM 15.24 59.432 0.179 7.01 4.23 5.28
5/27/2022 6:00:00 AM 15.19 59.342 0.179 7.01 3.89 5.26
5/27/2022 6:15:00 AM 15.19 59.342 0.179 7 4.76 5.27
5/27/2022 6:30:00 AM 15.17 59.306 0.178 6.99 4.44 5.35
5/27/2022 6:45:00 AM 15.03 59.054 0.175 6.97 4.49 5.39
5/27/2022 7:00:00 AM 14.98 58.964 0.172 6.94 4.52 5.33
5/27/2022 7:15:00 AM 14.99 58.982 0.171 6.92 4.67 5.32
5/27/2022 7:30:00 AM 14.93 58.874 0.17 6.93 4.33 5.31
5/27/2022 7:45:00 AM 14.87 58.766 0.166 6.9 4.21 5.36
5/27/2022 8:00:00 AM 14.87 58.766 0.169 6.91 4.02 5.4
5/27/2022 8:15:00 AM 14.86 58.748 0.168 6.9 4.08 5.43
5/27/2022 8:30:00 AM 14.81 58.658 0.166 6.89 4.02 5.44
5/27/2022 8:45:00 AM 14.82 58.676 0.167 6.89 3.9 5.43
5/27/2022 9:00:00 AM 14.79 58.622 0.166 6.89 4.67 5.47
5/27/2022 9:15:00 AM 14.82 58.676 0.167 6.89 4.47 5.41
5/27/2022 9:30:00 AM 14.76 58.568 0.168 6.9 4.5 5.33
5/27/2022 9:45:00 AM 14.7 58.46 0.169 6.9 4.66 5.13
5/27/2022 10:00:00 AM 14.68 58.424 0.169 6.89 3.94 4.9
5/27/2022 10:15:00 AM 14.69 58.442 0.167 6.88 3.86 4.87
5/27/2022 10:30:00 AM 14.76 58.568 0.169 6.92 5.08 5.42
5/27/2022 10:45:00 AM 14.75 58.55 0.169 6.92 3.88 5.55
5/27/2022 11:00:00 AM 14.77 58.586 0.166 6.91 3.64 5.75
5/27/2022 11:15:00 AM 14.88 58.784 0.168 6.93 3.57 5.91
5/27/2022 11:30:00 AM 14.87 58.766 0.166 6.92 3.54 6.06
5/27/2022 11:45:00 AM 15.14 59.252 0.172 6.97 3.6 6.2
5/27/2022 12:00:00 PM 15.11 59.198 0.172 6.97 3.77 6.33
5/27/2022 12:15:00 PM 15.18 59.324 0.175 7 3.64 6.36
5/27/2022 12:30:00 PM 15.31 59.558 0.177 7 6.87 6.35
5/27/2022 12:45:00 PM 15.33 59.594 0.178 7.02 3.91 6.42
5/27/2022 1:00:00 PM 15.3 59.54 0.178 7.02 3.83 6.45
5/27/2022 1:15:00 PM 15.33 59.594 0.178 7.02 3.83 6.47
5/27/2022 1:30:00 PM 15.24 59.432 0.177 7.01 4 6.61
5/27/2022 1:45:00 PM 15.26 59.468 0.176 7.01 4.19 6.63
5/27/2022 2:00:00 PM 15.16 59.288 0.175 6.99 4.49 6.41
5/27/2022 2:15:00 PM 15.21 59.378 0.176 7.01 4.03 6.58
5/27/2022 2:30:00 PM 15.23 59.414 0.176 7 4.09 6.5
5/27/2022 2:45:00 PM 15.19 59.342 0.175 7 3.85 6.55
5/27/2022 3:00:00 PM 15.24 59.432 0.176 7.01 3.97 6.73
5/27/2022 3:15:00 PM 15.13 59.234 0.175 7 4.5 6.57
5/27/2022 3:30:00 PM 15.2 59.36 0.175 7 3.98 6.57
5/27/2022 3:45:00 PM 15.17 59.306 0.175 7 4.02 6.4
5/27/2022 4:00:00 PM 15.15 59.27 0.175 6.99 3.7 6.42
5/27/2022 4:15:00 PM 15.15 59.27 0.175 7.01 4.12 6.5
5/27/2022 4:30:00 PM 15.22 59.396 0.177 7.01 4.36 6.43
5/27/2022 4:45:00 PM 15.29 59.522 0.177 7.03 4.11 6.54
5/27/2022 5:00:00 PM 15.33 59.594 0.178 7.03 4.82 6.65
5/27/2022 5:15:00 PM 15.41 59.738 0.179 7.04 4.61 6.79
5/27/2022 5:30:00 PM 15.43 59.774 0.179 7.07 5.05 6.89
5/27/2022 5:45:00 PM 15.38 59.684 0.18 7.06 5.12 6.74
5/27/2022 6:00:00 PM 15.53 59.954 0.183 7.09 4.17 6.96
5/27/2022 6:15:00 PM 15.77 60.386 0.186 7.12 5.15 7.14
5/27/2022 6:30:00 PM 15.64 60.152 0.186 7.12 4.66 6.97
5/27/2022 6:45:00 PM 15.73 60.314 0.186 7.14 4.1 7.03
5/27/2022 7:00:00 PM 15.67 60.206 0.187 7.15 5.02 7.06
5/27/2022 7:15:00 PM 15.88 60.584 0.19 7.2 4.2 7.24
5/27/2022 7:30:00 PM 15.85 60.53 0.189 7.2 4.46 7.21
5/27/2022 7:45:00 PM 15.89 60.602 0.19 7.2 5.06 7.16
5/27/2022 8:00:00 PM 15.92 60.656 0.192 7.22 4.27 7.28
5/27/2022 8:15:00 PM 15.92 60.656 0.191 7.23 4.38 7.19
5/27/2022 8:30:00 PM 15.82 60.476 0.192 7.23 4.96 7.11
5/27/2022 8:45:00 PM 15.9 60.62 0.193 7.25 5.6 7.12
5/27/2022 9:00:00 PM 16.07 60.926 0.197 7.29 8.77 7.3
5/27/2022 9:15:00 PM 16.07 60.926 0.2 7.32 5.65 7.31
5/27/2022 9:30:00 PM 15.85 60.53 0.194 7.27 4.2 7.16
5/27/2022 9:45:00 PM 15.86 60.548 0.195 7.26 4.89 7.13
5/27/2022 10:00:00 PM 16.02 60.836 0.197 7.33 4.61 7.34
5/27/2022 10:15:00 PM 16.07 60.926 0.202 7.35 4.42 7.31
5/27/2022 10:30:00 PM 15.94 60.692 0.201 7.31 5.5 7.2
5/27/2022 10:45:00 PM 15.59 60.062 0.193 7.26 4.49 7.01
5/27/2022 11:00:00 PM 15.65 60.17 0.195 7.26 4.12 7.02
5/27/2022 11:15:00 PM 15.79 60.422 0.195 7.33 4.89 7.14
5/27/2022 11:30:00 PM 15.87 60.566 0.2 7.36 5.77 7.35
5/27/2022 11:45:00 PM 16.06 60.908 0.203 7.45 6.92 7.6
5/28/2022 12:00:00 AM 16.07 60.926 0.204 7.48 6.71 7.68
5/28/2022 12:15:00 AM 16.09 60.962 0.206 7.51 7.59 7.75
5/28/2022 12:30:00 AM 16.08 60.944 0.206 7.53 5.99 7.82
5/28/2022 12:45:00 AM 16.12 61.016 0.208 7.53 7.35 7.8
5/28/2022 1:00:00 AM 16.11 60.998 0.208 7.58 5.77 7.93
5/28/2022 1:15:00 AM 16.08 60.944 0.208 7.59 5.76 7.95
5/28/2022 1:30:00 AM 16.04 60.872 0.207 7.59 5.46 8
5/28/2022 1:45:00 AM 16 60.8 0.207 7.57 5.46 7.96
5/28/2022 2:00:00 AM 15.98 60.764 0.207 7.57 6.03 7.95
5/28/2022 2:15:00 AM 15.94 60.692 0.208 7.57 5.77 7.94
5/28/2022 2:30:00 AM 15.89 60.602 0.208 7.54 5.69 7.87
5/28/2022 2:45:00 AM 15.84 60.512 0.209 7.54 5.74 7.92
5/28/2022 3:00:00 AM 15.78 60.404 0.208 7.52 5.26 7.85
5/28/2022 3:15:00 AM 15.75 60.35 0.209 7.53 5.54 7.87
5/28/2022 3:30:00 AM 15.72 60.296 0.209 7.54 4.96 7.9
5/28/2022 3:45:00 AM 15.66 60.188 0.209 7.54 4.98 7.91
5/28/2022 4:00:00 AM 15.66 60.188 0.21 7.55 5.04 7.98
5/28/2022 4:15:00 AM 15.68 60.224 0.212 7.6 6.81 8.15
5/28/2022 4:30:00 AM 15.61 60.098 0.211 7.6 6.09 8.16
5/28/2022 4:45:00 AM 15.57 60.026 0.211 7.6 5.65 8.18
5/28/2022 5:00:00 AM 15.54 59.972 0.212 7.62 7.14 8.26
5/28/2022 5:15:00 AM 15.51 59.918 0.212 7.63 5.46 8.32
5/28/2022 5:30:00 AM 15.46 59.828 0.212 7.64 6.39 8.35
5/28/2022 5:45:00 AM 15.44 59.792 0.213 7.67 6.13 8.41
5/28/2022 6:00:00 AM 15.38 59.684 0.213 7.69 7.29 8.51
5/28/2022 6:15:00 AM 15.34 59.612 0.212 7.69 6.98 8.54
5/28/2022 6:30:00 AM 15.29 59.522 0.212 7.68 18.21 8.56
5/28/2022 6:45:00 AM 15.26 59.468 0.211 7.69 7.32 8.62
5/28/2022 7:00:00 AM 15.23 59.414 0.211 7.7 7.61 8.67
5/28/2022 7:15:00 AM 15.21 59.378 0.21 7.7 7.84 8.71
5/28/2022 7:30:00 AM 15.2 59.36 0.21 7.71 7.83 8.78
5/28/2022 7:45:00 AM 15.2 59.36 0.209 7.72 7.48 8.83
5/28/2022 8:00:00 AM 15.21 59.378 0.209 7.74 7.61 8.91
5/28/2022 8:15:00 AM 15.23 59.414 0.208 7.75 6.88 8.98
5/28/2022 8:30:00 AM 15.26 59.468 0.208 7.76 6.42 9.04
5/28/2022 8:45:00 AM 15.29 59.522 0.207 7.78 7.05 9.14
5/28/2022 9:00:00 AM 15.33 59.594 0.207 7.8 7.23 9.19
5/28/2022 9:15:00 AM 15.37 59.666 0.206 7.82 6.18 9.27
5/28/2022 9:30:00 AM 15.41 59.738 0.206 7.83 6.19 9.31
5/28/2022 9:45:00 AM 15.46 59.828 0.205 7.85 6.16 9.35
5/28/2022 10:00:00 AM 15.5 59.9 0.205 7.87 5.99 9.4
5/28/2022 10:15:00 AM 15.56 60.008 0.205 7.89 5.64 9.45
5/28/2022 10:30:00 AM 15.57 60.026 0.205 7.9 5.63 9.46
5/28/2022 10:45:00 AM 15.57 60.026 0.205 7.92 5.53 9.48
5/28/2022 11:00:00 AM 15.58 60.044 0.205 7.92 5.29 9.47
5/28/2022 11:15:00 AM 15.61 60.098 0.205 7.96 6.69 9.51
5/28/2022 11:30:00 AM 15.63 60.134 0.205 7.96 5.52 9.51
5/28/2022 11:45:00 AM 15.65 60.17 0.205 7.97 5.44 9.51
5/28/2022 12:00:00 PM 15.67 60.206 0.205 7.97 5.63 9.54
5/28/2022 12:15:00 PM 15.72 60.296 0.205 7.99 5.17 9.58
5/28/2022 12:30:00 PM 15.75 60.35 0.205 8 5.52 9.6
5/28/2022 12:45:00 PM 15.81 60.458 0.205 8.02 7.88 9.64
5/28/2022 1:00:00 PM 15.85 60.53 0.205 8.04 5.04 9.68
5/28/2022 1:15:00 PM 15.87 60.566 0.205 8.05 4.9 9.7
5/28/2022 1:30:00 PM 15.92 60.656 0.205 8.06 4.91 9.71
5/28/2022 1:45:00 PM 15.96 60.728 0.205 8.07 4.98 9.71
5/28/2022 2:00:00 PM 15.98 60.764 0.205 8.08 4.95 9.69
5/28/2022 2:15:00 PM 16.15 61.07 0.205 8.09 6.5 9.72
5/28/2022 2:30:00 PM 16.23 61.214 0.205 8.1 4.87 9.71
5/28/2022 2:45:00 PM 16.22 61.196 0.205 8.11 4.65 9.7
5/28/2022 3:00:00 PM 16.29 61.322 0.204 8.11 4.8 9.71
5/28/2022 3:15:00 PM 16.27 61.286 0.204 8.12 4.98 9.67
5/28/2022 3:30:00 PM 16.43 61.574 0.204 8.12 4.9 9.67
5/28/2022 3:45:00 PM 16.4 61.52 0.204 8.12 4.98 9.65
5/28/2022 4:00:00 PM 16.38 61.484 0.204 8.12 5.03 9.6
5/28/2022 4:15:00 PM 16.38 61.484 0.203 8.12 5.05 9.58
5/28/2022 4:30:00 PM 16.42 61.556 0.203 8.12 4.77 9.58
5/28/2022 4:45:00 PM 16.49 61.682 0.203 8.12 4.75 9.56
5/28/2022 5:00:00 PM 16.42 61.556 0.203 8.11 4.72 9.5
5/28/2022 5:15:00 PM 16.4 61.52 0.203 8.08 4.95 9.44
5/28/2022 5:30:00 PM 16.41 61.538 0.203 8.07 5.14 9.42
5/28/2022 5:45:00 PM 16.38 61.484 0.203 8.06 4.84 9.37
5/28/2022 6:00:00 PM 16.37 61.466 0.204 8.05 4.89 9.34
5/28/2022 6:15:00 PM 16.34 61.412 0.204 8.04 4.71 9.32
5/28/2022 6:30:00 PM 16.29 61.322 0.204 8.02 4.83 9.29
5/28/2022 6:45:00 PM 16.26 61.268 0.205 8.01 4.86 9.23
5/28/2022 7:00:00 PM 16.24 61.232 0.205 8 4.76 9.21
5/28/2022 7:15:00 PM 16.21 61.178 0.205 7.98 4.94 9.17
5/28/2022 7:30:00 PM 16.16 61.088 0.206 7.97 5.01 9.13
5/28/2022 7:45:00 PM 16.11 60.998 0.206 7.96 5.37 9.1
5/28/2022 8:00:00 PM 16.05 60.89 0.207 7.95 4.84 9.06
5/28/2022 8:15:00 PM 15.97 60.746 0.208 7.94 5.22 9.05
5/28/2022 8:30:00 PM 15.9 60.62 0.208 7.92 5.48 9.01
5/28/2022 8:45:00 PM 15.82 60.476 0.209 7.9 5.94 8.97
5/28/2022 9:00:00 PM 15.74 60.332 0.209 7.89 5.26 8.96
5/28/2022 9:15:00 PM 15.64 60.152 0.21 7.88 5.69 8.94
5/28/2022 9:30:00 PM 15.54 59.972 0.21 7.87 6.3 8.94
5/28/2022 9:45:00 PM 15.43 59.774 0.211 7.86 6.43 8.93
5/28/2022 10:00:00 PM 15.32 59.576 0.211 7.85 6.09 8.93
5/28/2022 10:15:00 PM 15.22 59.396 0.212 7.84 6.36 8.94
5/28/2022 10:30:00 PM 15.11 59.198 0.213 7.84 16.59 8.96
5/28/2022 10:45:00 PM 15.02 59.036 0.213 7.83 6.23 8.97
5/28/2022 11:00:00 PM 14.92 58.856 0.213 7.82 5.68 8.98
5/28/2022 11:15:00 PM 14.83 58.694 0.214 7.84 6.07 9.03
5/28/2022 11:30:00 PM 14.75 58.55 0.214 7.83 5.75 9.04
5/28/2022 11:45:00 PM 14.66 58.388 0.214 7.83 5.86 9.09
5/29/2022 12:00:00 AM 14.57 58.226 0.215 7.83 5.66 9.09
5/29/2022 12:15:00 AM 14.5 58.1 0.215 7.83 5.98 9.11
5/29/2022 12:30:00 AM 14.41 57.938 0.215 7.82 5.54 9.13
5/29/2022 12:45:00 AM 14.33 57.794 0.215 7.82 5.31 9.16
5/29/2022 1:00:00 AM 14.26 57.668 0.215 7.82 5.61 9.17
5/29/2022 1:15:00 AM 14.18 57.524 0.215 7.82 5.21 9.18
5/29/2022 1:30:00 AM 14.1 57.38 0.215 7.81 5.18 9.19
5/29/2022 1:45:00 AM 14.02 57.236 0.214 7.82 5.32 9.21
5/29/2022 2:00:00 AM 13.94 57.092 0.214 7.81 5.3 9.24
5/29/2022 2:15:00 AM 13.87 56.966 0.214 7.81 5.33 9.24
5/29/2022 2:30:00 AM 13.79 56.822 0.213 7.81 5.13 9.24
5/29/2022 2:45:00 AM 13.71 56.678 0.213 7.8 4.86 9.28
5/29/2022 3:00:00 AM 13.64 56.552 0.212 7.8 4.96 9.28
5/29/2022 3:15:00 AM 13.56 56.408 0.212 7.79 4.87 9.31
5/29/2022 3:30:00 AM 13.49 56.282 0.211 7.79 5.01 9.33
5/29/2022 3:45:00 AM 13.42 56.156 0.211 7.78 5.05 9.35
5/29/2022 4:00:00 AM 13.36 56.048 0.21 7.78 5.17 9.34
5/29/2022 4:15:00 AM 13.29 55.922 0.21 7.78 5.17 9.37
5/29/2022 4:30:00 AM 13.23 55.814 0.209 7.78 5.18 9.39
5/29/2022 4:45:00 AM 13.16 55.688 0.209 7.77 5.17 9.42
5/29/2022 5:00:00 AM 13.1 55.58 0.208 7.77 5.21 9.42
5/29/2022 5:15:00 AM 13.04 55.472 0.207 7.77 5.33 9.43
5/29/2022 5:30:00 AM 12.99 55.382 0.207 7.77 5.16 9.45
5/29/2022 5:45:00 AM 12.94 55.292 0.206 7.77 5.16 9.44
5/29/2022 6:00:00 AM 12.88 55.184 0.206 7.77 5.15 9.48
5/29/2022 6:15:00 AM 12.83 55.094 0.205 7.77 5.08 9.5
5/29/2022 6:30:00 AM 12.78 55.004 0.205 7.77 5.23 9.53
5/29/2022 6:45:00 AM 12.73 54.914 0.204 7.77 5.24 9.57
5/29/2022 7:00:00 AM 12.69 54.842 0.203 7.77 5.54 9.58
5/29/2022 7:15:00 AM 12.66 54.788 0.203 7.77 5.64 9.64
5/29/2022 7:30:00 AM 12.65 54.77 0.202 7.78 6.03 9.69
5/29/2022 7:45:00 AM 12.63 54.734 0.201 7.79 5.84 9.74
5/29/2022 8:00:00 AM 12.63 54.734 0.201 7.8 6.34 9.8
5/29/2022 8:15:00 AM 12.64 54.752 0.2 7.8 6.36 9.84
5/29/2022 8:30:00 AM 12.66 54.788 0.2 7.82 6.24 9.93
5/29/2022 8:45:00 AM 12.7 54.86 0.199 7.83 5.92 9.98
5/29/2022 9:00:00 AM 12.74 54.932 0.199 7.84 5.6 10.04
5/29/2022 9:15:00 AM 12.81 55.058 0.199 7.86 5.44 10.12
5/29/2022 9:30:00 AM 12.85 55.13 0.198 7.88 5.41 10.14
5/29/2022 9:45:00 AM 12.9 55.22 0.198 7.87 5.3 10.12
5/29/2022 10:00:00 AM 13.03 55.454 0.198 7.88 5.03 10.14
5/29/2022 10:15:00 AM 13.18 55.724 0.197 7.89 5 10.15
5/29/2022 10:30:00 AM 13.35 56.03 0.197 7.9 4.98 10.16
5/29/2022 10:45:00 AM 13.54 56.372 0.197 7.92 4.89 10.19
5/29/2022 11:00:00 AM 13.7 56.66 0.197 7.92 4.86 10.17
5/29/2022 11:15:00 AM 13.92 57.056 0.196 7.93 5.06 10.17
5/29/2022 11:30:00 AM 14.19 57.542 0.196 7.96 5.14 10.19
5/29/2022 11:45:00 AM 14.46 58.028 0.196 7.98 4.82 10.2
5/29/2022 12:00:00 PM 14.8 58.64 0.196 7.99 4.63 10.21
5/29/2022 12:15:00 PM 15.14 59.252 0.196 8.01 4.83 10.19
5/29/2022 12:30:00 PM 15.35 59.63 0.196 8.03 4.62 10.15
5/29/2022 12:45:00 PM 15.6 60.08 0.195 8.04 4.64 10.12
5/29/2022 1:00:00 PM 15.89 60.602 0.195 8.06 4.6 10.1
5/29/2022 1:15:00 PM 16.2 61.16 0.195 8.07 4.69 10.07
5/29/2022 1:30:00 PM 16.48 61.664 0.195 8.1 4.5 10.07
5/29/2022 1:45:00 PM 16.7 62.06 0.195 8.11 4.56 10.02
5/29/2022 2:00:00 PM 16.83 62.294 0.195 8.11 4.63 9.96
5/29/2022 2:15:00 PM 17.08 62.744 0.194 8.12 4.7 9.92
5/29/2022 2:30:00 PM 17.31 63.158 0.195 8.13 4.35 9.86
5/29/2022 2:45:00 PM 17.54 63.572 0.194 8.14 4.49 9.82
5/29/2022 3:00:00 PM 17.67 63.806 0.194 8.15 4.42 9.78
5/29/2022 3:15:00 PM 17.91 64.238 0.194 8.16 4.71 9.71
5/29/2022 3:30:00 PM 18.03 64.454 0.194 8.16 4.22 9.65
5/29/2022 3:45:00 PM 18.2 64.76 0.194 8.16 4.39 9.59
5/29/2022 4:00:00 PM 18.31 64.958 0.194 8.16 4.3 9.52
5/29/2022 4:15:00 PM 18.46 65.228 0.194 8.2 4.23 9.49
5/29/2022 4:30:00 PM 18.47 65.246 0.194 8.17 4.42 9.41
5/29/2022 4:45:00 PM 18.5 65.3 0.194 8.18 4.4 9.36
5/29/2022 5:00:00 PM 18.46 65.228 0.195 8.17 4.3 9.29
5/29/2022 5:15:00 PM 18.39 65.102 0.195 8.15 4.09 9.2
5/29/2022 5:30:00 PM 18.28 64.904 0.195 8.13 4.28 9.1
5/29/2022 5:45:00 PM 18.19 64.742 0.195 8.09 4.25 9.01
5/29/2022 6:00:00 PM 18.16 64.688 0.195 8.07 4.3 8.95
5/29/2022 6:15:00 PM 18.1 64.58 0.195 8.03 4.41 8.89
5/29/2022 6:30:00 PM 18.08 64.544 0.195 8.03 4.15 8.87
5/29/2022 6:45:00 PM 18.01 64.418 0.195 8 4.56 8.81
5/29/2022 7:00:00 PM 17.95 64.31 0.195 7.98 4.32 8.77
5/29/2022 7:15:00 PM 17.86 64.148 0.195 7.96 4.28 8.73
5/29/2022 7:30:00 PM 17.77 63.986 0.195 7.94 4.72 8.7
5/29/2022 7:45:00 PM 17.67 63.806 0.195 7.91 4.41 8.67
5/29/2022 8:00:00 PM 17.56 63.608 0.196 7.9 4.43 8.66
5/29/2022 8:15:00 PM 17.45 63.41 0.196 7.88 4.6 8.64
5/29/2022 8:30:00 PM 17.33 63.194 0.196 7.87 4.71 8.61
5/29/2022 8:45:00 PM 17.2 62.96 0.196 7.85 4.62 8.59
5/29/2022 9:00:00 PM 17.08 62.744 0.196 7.83 4.9 8.57
5/29/2022 9:15:00 PM 16.95 62.51 0.196 7.82 4.83 8.56
5/29/2022 9:30:00 PM 16.83 62.294 0.196 7.8 5 8.55
5/29/2022 9:45:00 PM 16.71 62.078 0.196 7.79 4.69 8.54
5/29/2022 10:00:00 PM 16.59 61.862 0.196 7.78 4.76 8.54
5/29/2022 10:15:00 PM 16.48 61.664 0.196 7.78 4.87 8.56
5/29/2022 10:30:00 PM 16.36 61.448 0.196 7.77 4.96 8.58
5/29/2022 10:45:00 PM 16.26 61.268 0.196 7.75 4.89 8.55
5/29/2022 11:00:00 PM 16.16 61.088 0.196 7.75 5.23 8.59
5/29/2022 11:15:00 PM 16.05 60.89 0.196 7.75 5.42 8.61
5/29/2022 11:30:00 PM 15.95 60.71 0.196 7.75 5.38 8.64
5/29/2022 11:45:00 PM 15.86 60.548 0.196 7.75 5.4 8.68
5/30/2022 12:00:00 AM 15.76 60.368 0.196 7.74 5.35 8.68
5/30/2022 12:15:00 AM 15.66 60.188 0.197 7.74 5.19 8.69
5/30/2022 12:30:00 AM 15.57 60.026 0.197 7.73 5.23 8.7
5/30/2022 12:45:00 AM 15.48 59.864 0.197 7.72 5.39 8.71
5/30/2022 1:00:00 AM 15.39 59.702 0.197 7.72 5.2 8.73
5/30/2022 1:15:00 AM 15.29 59.522 0.197 7.71 4.88 8.74
5/30/2022 1:30:00 AM 15.21 59.378 0.197 7.72 4.81 8.77
5/30/2022 1:45:00 AM 15.12 59.216 0.198 7.72 4.92 8.8
5/30/2022 2:00:00 AM 15.04 59.072 0.198 7.71 5.06 8.8
5/30/2022 2:15:00 AM 14.95 58.91 0.198 7.71 9.28 8.82
5/30/2022 2:30:00 AM 14.88 58.784 0.199 7.71 5.28 8.84
5/30/2022 2:45:00 AM 14.8 58.64 0.199 7.71 4.8 8.84
5/30/2022 3:00:00 AM 14.72 58.496 0.199 7.7 4.55 8.87
5/30/2022 3:15:00 AM 14.64 58.352 0.2 7.7 4.56 8.89
5/30/2022 3:30:00 AM 14.57 58.226 0.2 7.7 4.26 8.86
5/30/2022 3:45:00 AM 14.5 58.1 0.2 7.7 4.66 8.91
5/30/2022 4:00:00 AM 14.44 57.992 0.201 7.7 4.34 8.92
5/30/2022 4:15:00 AM 14.37 57.866 0.201 7.7 4.3 8.94
5/30/2022 4:30:00 AM 14.31 57.758 0.201 7.7 4.63 8.96
5/30/2022 4:45:00 AM 14.25 57.65 0.201 7.7 4.42 8.97
5/30/2022 5:00:00 AM 14.19 57.542 0.202 7.7 4.66 8.98
5/30/2022 5:15:00 AM 14.13 57.434 0.202 7.69 4.65 8.99
5/30/2022 5:30:00 AM 14.08 57.344 0.202 7.69 4.73 8.99
5/30/2022 5:45:00 AM 14.03 57.254 0.202 7.68 4.6 9
5/30/2022 6:00:00 AM 13.97 57.146 0.202 7.68 5.13 9.03
5/30/2022 6:15:00 AM 13.93 57.074 0.203 7.69 5.13 9.05
5/30/2022 6:30:00 AM 13.89 57.002 0.203 7.68 4.51 9.07
5/30/2022 6:45:00 AM 13.86 56.948 0.203 7.69 4.64 9.09
5/30/2022 7:00:00 AM 13.84 56.912 0.203 7.7 4.44 9.11
5/30/2022 7:15:00 AM 13.82 56.876 0.203 7.7 4.6 9.18
5/30/2022 7:30:00 AM 13.81 56.858 0.203 7.7 4.38 9.22
5/30/2022 7:45:00 AM 13.83 56.894 0.204 7.71 4.69 9.3
5/30/2022 8:00:00 AM 13.83 56.894 0.203 7.7 4.95 9.32
5/30/2022 8:15:00 AM 13.86 56.948 0.203 7.71 5.18 9.38
5/30/2022 8:30:00 AM 13.87 56.966 0.204 7.72 5.03 9.43
5/30/2022 8:45:00 AM 13.89 57.002 0.204 7.73 5 9.47
5/30/2022 9:00:00 AM 13.9 57.02 0.204 7.73 5.1 9.47
5/30/2022 9:15:00 AM 13.92 57.056 0.204 7.73 5.27 9.48
5/30/2022 9:30:00 AM 13.95 57.11 0.204 7.73 5.45 9.53
5/30/2022 9:45:00 AM 14.01 57.218 0.204 7.74 4.9 9.57
5/30/2022 10:00:00 AM 14.08 57.344 0.204 7.76 4.7 9.65
5/30/2022 10:15:00 AM 14.14 57.452 0.204 7.75 4.53 9.69
5/30/2022 10:30:00 AM 14.23 57.614 0.205 7.78 4.68 9.76
5/30/2022 10:45:00 AM 14.27 57.686 0.205 7.77 4.38 9.73
5/30/2022 11:00:00 AM 14.36 57.848 0.205 7.8 4.38 9.77
5/30/2022 11:15:00 AM 14.48 58.064 0.205 7.8 4.21 9.78
5/30/2022 11:30:00 AM 14.62 58.316 0.205 7.78 4.15 9.77
5/30/2022 11:45:00 AM 14.8 58.64 0.205 7.81 4.4 9.8
5/30/2022 12:00:00 PM 15.03 59.054 0.206 7.82 4.09 9.85
5/30/2022 12:15:00 PM 15.3 59.54 0.206 7.84 4.22 9.88
5/30/2022 12:30:00 PM 15.68 60.224 0.206 7.87 4.09 9.92
5/30/2022 12:45:00 PM 16.05 60.89 0.206 7.87 4.59 9.93
5/30/2022 1:00:00 PM 16.45 61.61 0.206 7.87 3.75 9.92
5/30/2022 1:15:00 PM 16.91 62.438 0.206 7.89 4.14 9.97
5/30/2022 1:30:00 PM 17.33 63.194 0.206 7.88 4.1 9.92
5/30/2022 1:45:00 PM 17.82 64.076 0.206 7.93 3.84 9.99
5/30/2022 2:00:00 PM 18.15 64.67 0.206 7.93 3.99 9.97
5/30/2022 2:15:00 PM 18.42 65.156 0.206 7.9 4.23 9.88
5/30/2022 2:30:00 PM 18.75 65.75 0.206 7.92 4.26 9.82
5/30/2022 2:45:00 PM 19.03 66.254 0.206 7.94 3.88 9.84
5/30/2022 3:00:00 PM 19.42 66.956 0.206 7.99 3.79 9.87
5/30/2022 3:15:00 PM 19.59 67.262 0.206 8 3.78 9.84
5/30/2022 3:30:00 PM 19.81 67.658 0.206 8 4.03 9.83
5/30/2022 3:45:00 PM 20.02 68.036 0.207 8.04 3.96 9.88
5/30/2022 4:00:00 PM 20.1 68.18 0.207 8.04 3.77 9.89
5/30/2022 4:15:00 PM 20.19 68.342 0.207 8.01 4.6 9.56
5/30/2022 4:30:00 PM 20.32 68.576 0.208 8.02 3.87 9.34
5/30/2022 4:45:00 PM 20.38 68.684 0.208 8.02 4.2 9.26
5/30/2022 5:00:00 PM 20.37 68.666 0.208 8 4.49 9.19
5/30/2022 5:15:00 PM 20.36 68.648 0.208 7.99 4.15 9.1
5/30/2022 5:30:00 PM 20.22 68.396 0.208 7.98 4.01 9.05
5/30/2022 5:45:00 PM 20.08 68.144 0.209 7.98 4.76 8.91
5/30/2022 6:00:00 PM 19.91 67.838 0.208 7.92 4.2 8.77
5/30/2022 6:15:00 PM 19.8 67.64 0.208 7.89 4.74 8.7
5/30/2022 6:30:00 PM 19.68 67.424 0.208 7.85 4.84 8.57
5/30/2022 6:45:00 PM 19.62 67.316 0.208 7.84 4.22 8.46
5/30/2022 7:00:00 PM 19.55 67.19 0.208 7.81 3.9 8.39
5/30/2022 7:15:00 PM 19.48 67.064 0.209 7.79 3.84 8.24
5/30/2022 7:30:00 PM 19.41 66.938 0.209 7.77 3.91 8.16
5/30/2022 7:45:00 PM 19.34 66.812 0.209 7.76 4.15 8.08
5/30/2022 8:00:00 PM 19.31 66.758 0.209 7.74 4.15 8.02
5/30/2022 8:15:00 PM 19.24 66.632 0.21 7.72 4.05 7.88
5/30/2022 8:30:00 PM 19.16 66.488 0.209 7.7 4.52 7.84
5/30/2022 8:45:00 PM 19.09 66.362 0.209 7.66 6.1 7.72
5/30/2022 9:00:00 PM 19.02 66.236 0.209 7.66 4.19 7.64
5/30/2022 9:15:00 PM 18.98 66.164 0.21 7.65 4.39 7.62
5/30/2022 9:30:00 PM 18.9 66.02 0.21 7.64 4.48 7.56
5/30/2022 9:45:00 PM 18.78 65.804 0.209 7.59 4.15 7.34
5/30/2022 10:00:00 PM 18.74 65.732 0.211 7.61 4.32 7.39
5/30/2022 10:15:00 PM 18.69 65.642 0.211 7.6 4.3 7.42
5/30/2022 10:30:00 PM 18.61 65.498 0.21 7.58 3.84 7.34
5/30/2022 10:45:00 PM 18.55 65.39 0.211 7.58 4.21 7.31
5/30/2022 11:00:00 PM 18.45 65.21 0.211 7.56 4.18 7.19
5/30/2022 11:15:00 PM 18.37 65.066 0.211 7.55 4.52 7.24
5/30/2022 11:30:00 PM 18.3 64.94 0.213 7.56 4.83 7.24
5/30/2022 11:45:00 PM 18.22 64.796 0.211 7.54 4.26 7.17
5/31/2022 12:00:00 AM 18.15 64.67 0.212 7.53 5.48 7.15
5/31/2022 12:15:00 AM 18.07 64.526 0.212 7.52 4.45 7.14
5/31/2022 12:30:00 AM 17.86 64.148 0.21 7.47 8 6.99
5/31/2022 12:45:00 AM 17.86 64.148 0.212 7.48 6.51 7
5/31/2022 1:00:00 AM 17.82 64.076 0.212 7.5 4.87 7.06
5/31/2022 1:15:00 AM 17.76 63.968 0.212 7.48 4.73 7
5/31/2022 1:30:00 AM 17.68 63.824 0.213 7.49 4.88 7.11
5/31/2022 1:45:00 AM 17.62 63.716 0.213 7.49 4.18 7.07
5/31/2022 2:00:00 AM 17.55 63.59 0.213 7.49 4.42 7.1
5/31/2022 2:15:00 AM 17.48 63.464 0.214 7.5 4.43 7.18
5/31/2022 2:30:00 AM 17.4 63.32 0.214 7.49 6.68 7.16
5/31/2022 2:45:00 AM 17.34 63.212 0.213 7.47 5.08 7.07
5/31/2022 3:00:00 AM 17.26 63.068 0.214 7.47 4.48 7.14
5/31/2022 3:15:00 AM 17.19 62.942 0.215 7.49 4.17 7.24
5/31/2022 3:30:00 AM 17.12 62.816 0.215 7.48 4.05 7.23
5/31/2022 3:45:00 AM 17.05 62.69 0.215 7.49 4.53 7.26
5/31/2022 4:00:00 AM 16.98 62.564 0.215 7.49 4.29 7.29
5/31/2022 4:15:00 AM 16.91 62.438 0.216 7.49 4.14 7.31
5/31/2022 4:30:00 AM 16.83 62.294 0.215 7.48 7.67 7.29
5/31/2022 4:45:00 AM 16.76 62.168 0.216 7.47 6.48 7.28
5/31/2022 5:00:00 AM 16.7 62.06 0.216 7.48 4.95 7.35
5/31/2022 5:15:00 AM 16.62 61.916 0.216 7.48 5.43 7.36
5/31/2022 5:30:00 AM 16.54 61.772 0.216 7.48 4.67 7.4
5/31/2022 5:45:00 AM 16.46 61.628 0.216 7.47 4.97 7.4
5/31/2022 6:00:00 AM 16.4 61.52 0.216 7.46 4.75 7.38
5/31/2022 6:15:00 AM 16.33 61.394 0.215 7.46 4.96 7.35
5/31/2022 6:30:00 AM 16.26 61.268 0.215 7.43 5.53 7.25
5/31/2022 6:45:00 AM 16.2 61.16 0.215 7.44 6.12 7.4
5/31/2022 7:00:00 AM 16.14 61.052 0.213 7.41 5.95 7.17
5/31/2022 7:15:00 AM 16.1 60.98 0.213 7.4 5.03 7.13
5/31/2022 7:30:00 AM 16.07 60.926 0.214 7.42 5 7.39
5/31/2022 7:45:00 AM 16.03 60.854 0.214 7.42 5.81 7.46
5/31/2022 8:00:00 AM 16.02 60.836 0.214 7.42 7.18 7.47
5/31/2022 8:15:00 AM 16 60.8 0.213 7.42 5.34 7.52
5/31/2022 8:30:00 AM 16 60.8 0.213 7.42 5.5 7.56
5/31/2022 8:45:00 AM 16 60.8 0.213 7.42 5.65 7.6
5/31/2022 9:00:00 AM 16 60.8 0.213 7.41 4.94 7.62
5/31/2022 9:15:00 AM 16.01 60.818 0.213 7.41 4.75 7.63
5/31/2022 9:30:00 AM 16.05 60.89 0.213 7.41 5.36 7.67
5/31/2022 9:45:00 AM 16.05 60.89 0.212 7.4 5.11 7.69
5/31/2022 10:00:00 AM 16.08 60.944 0.212 7.41 4.79 7.68
5/31/2022 10:15:00 AM 16.16 61.088 0.212 7.41 5.03 7.79
5/31/2022 10:30:00 AM 16.2 61.16 0.21 7.4 4.33 7.79
5/31/2022 10:45:00 AM 16.25 61.25 0.211 7.4 4.56 7.81
5/31/2022 11:00:00 AM 16.33 61.394 0.212 7.42 4.76 7.84
5/31/2022 11:15:00 AM 16.43 61.574 0.212 7.44 4.33 7.94
5/31/2022 11:30:00 AM 16.53 61.754 0.212 7.44 4.03 7.97
5/31/2022 11:45:00 AM 16.66 61.988 0.212 7.46 3.86 8.11
5/31/2022 12:00:00 PM 16.78 62.204 0.212 7.47 3.98 8.17
5/31/2022 12:15:00 PM 16.95 62.51 0.212 7.47 4.45 8.26
5/31/2022 12:30:00 PM 16.99 62.582 0.211 7.45 4.13 8.25
5/31/2022 12:45:00 PM 17.16 62.888 0.21 7.46 4.19 8.33
5/31/2022 1:00:00 PM 17.35 63.23 0.21 7.46 4.06 8.41
5/31/2022 1:15:00 PM 17.56 63.608 0.209 7.46 4.07 8.46
5/31/2022 1:30:00 PM 17.68 63.824 0.207 7.43 4.97 8.55
5/31/2022 1:45:00 PM 17.81 64.058 0.206 7.41 3.91 8.49
5/31/2022 2:00:00 PM 17.89 64.202 0.205 7.39 3.75 8.49
5/31/2022 2:15:00 PM 18.13 64.634 0.201 7.38 3.78 8.64
5/31/2022 2:30:00 PM 18.33 64.994 0.199 7.34 4.27 8.86
5/31/2022 2:45:00 PM 18.64 65.552 0.197 7.34 4.28 8.92
5/31/2022 3:00:00 PM 18.7 65.66 0.195 7.29 4.27 8.8
5/31/2022 3:15:00 PM 19.34 66.812 0.196 7.27 4.14 8.61
5/31/2022 3:30:00 PM 19.38 66.884 0.193 7.26 4.46 8.42
5/31/2022 3:45:00 PM 19.49 67.082 0.19 7.21 4.44 8.3
5/31/2022 4:00:00 PM 19.83 67.694 0.191 7.24 4.66 8.31
5/31/2022 4:15:00 PM 19.88 67.784 0.189 7.24 4.3 8.27
5/31/2022 4:30:00 PM 20.04 68.07201 0.191 7.22 3.99 8.13
5/31/2022 4:45:00 PM 20.09 68.162 0.191 7.21 4.27 8.12
5/31/2022 5:00:00 PM 20.41 68.738 0.191 7.21 5.07 7.84
5/31/2022 5:15:00 PM 20.44 68.792 0.189 7.18 4.98 7.54
5/31/2022 5:30:00 PM 20.5 68.9 0.189 7.16 4.76 7.47
5/31/2022 5:45:00 PM 20.54 68.972 0.187 7.14 4.8 7.33
5/31/2022 6:00:00 PM 20.69 69.242 0.19 7.15 5.37 7.21
5/31/2022 6:15:00 PM 20.43 68.774 0.183 7.1 5.57 6.96
5/31/2022 6:30:00 PM 20.38 68.684 0.184 7.11 4.63 6.88
5/31/2022 6:45:00 PM 20.35 68.63 0.185 7.1 4.38 6.89
5/31/2022 7:00:00 PM 20.16 68.288 0.185 7.07 4.29 6.6
5/31/2022 7:15:00 PM 19.95 67.91 0.183 7.06 5.01 6.48
5/31/2022 7:30:00 PM 19.67 67.406 0.182 7.05 4.33 6.34
5/31/2022 7:45:00 PM 19.48 67.064 0.18 7.03 4.3 6.32
5/31/2022 8:00:00 PM 19.38 66.884 0.18 7.03 4.17 6.23
5/31/2022 8:15:00 PM 19.22 66.596 0.18 7.02 4.78 6.17
5/31/2022 8:30:00 PM 19.16 66.488 0.18 7.03 4 6.16
5/31/2022 8:45:00 PM 19.08 66.344 0.18 7.03 4.37 6.14
5/31/2022 9:00:00 PM 18.95 66.11 0.178 7 3.67 6
5/31/2022 9:15:00 PM 18.79 65.82201 0.177 6.98 3.52 5.86
5/31/2022 9:30:00 PM 18.72 65.696 0.177 6.97 3.66 5.82
5/31/2022 9:45:00 PM 18.66 65.588 0.178 6.99 3.69 5.85
5/31/2022 10:00:00 PM 18.51 65.318 0.177 6.99 3.77 5.85
5/31/2022 10:15:00 PM 18.44 65.192 0.179 6.99 3.88 5.82
5/31/2022 10:30:00 PM 18.27 64.886 0.178 6.99 4.06 5.77
5/31/2022 10:45:00 PM 18.14 64.652 0.177 6.97 3.94 5.65
5/31/2022 11:00:00 PM 18.03 64.454 0.178 6.97 4.16 5.58
5/31/2022 11:15:00 PM 17.94 64.292 0.177 6.96 4.12 5.48
5/31/2022 11:30:00 PM 17.49 63.482 0.17 6.91 4.62 5.25
5/31/2022 11:45:00 PM 17.53 63.554 0.175 6.93 4.2 5.18
6/1/2022 12:00:00 AM 17.24 63.032 0.17 6.88 4.04 4.92
6/1/2022 12:15:00 AM 17.18 62.924 0.17 6.88 3.92 4.91
6/1/2022 12:30:00 AM 17.1 62.78 0.172 6.89 4.06 4.9
6/1/2022 12:45:00 AM 17.02 62.636 0.17 6.88 3.82 4.86
6/1/2022 1:00:00 AM 16.82 62.276 0.169 6.87 4.07 4.8
6/1/2022 1:15:00 AM 16.67 62.006 0.167 6.85 3.57 4.61
6/1/2022 1:30:00 AM 16.76 62.168 0.17 6.88 3.79 4.7
6/1/2022 1:45:00 AM 16.57 61.826 0.167 6.85 4.12 4.65
6/1/2022 2:00:00 AM 16.45 61.61 0.166 6.84 3.89 4.61
6/1/2022 2:15:00 AM 16.36 61.448 0.167 6.84 4.15 4.64
6/1/2022 2:30:00 AM 16.21 61.178 0.165 6.83 4.08 4.5
6/1/2022 2:45:00 AM 16.18 61.124 0.166 6.84 3.69 4.58
6/1/2022 3:00:00 AM 15.97 60.746 0.164 6.82 3.77 4.45
6/1/2022 3:15:00 AM 15.88 60.584 0.163 6.82 4.36 4.51
6/1/2022 3:30:00 AM 15.75 60.35 0.163 6.82 4.36 4.49
6/1/2022 3:45:00 AM 15.62 60.116 0.163 6.81 3.97 4.43
6/1/2022 4:00:00 AM 15.6 60.08 0.164 6.82 4.13 4.35
6/1/2022 4:15:00 AM 15.47 59.846 0.164 6.82 4.25 4.34
6/1/2022 4:30:00 AM 15.26 59.468 0.164 6.83 4.13 4.5
6/1/2022 4:45:00 AM 15.31 59.558 0.165 6.83 5.1 4.52
6/1/2022 5:00:00 AM 15.44 59.792 0.167 6.85 4.26 4.48
6/1/2022 5:15:00 AM 15.4 59.72 0.168 6.84 3.89 4.44
6/1/2022 5:30:00 AM 15.4 59.72 0.169 6.86 4.58 4.48
6/1/2022 5:45:00 AM 15.44 59.792 0.172 6.9 3.84 4.79
6/1/2022 6:00:00 AM 15.52 59.936 0.18 6.91 5.28 4.73
6/1/2022 6:15:00 AM 15.31 59.558 0.172 6.89 3.81 4.78
6/1/2022 6:30:00 AM 15.39 59.702 0.175 6.91 4.46 4.8
6/1/2022 6:45:00 AM 15.31 59.558 0.173 6.9 4.18 4.72
6/1/2022 7:00:00 AM 15.2 59.36 0.173 6.89 4.86 4.74
6/1/2022 7:15:00 AM 15.12 59.216 0.171 6.88 3.89 4.7
6/1/2022 7:30:00 AM 15.14 59.252 0.171 6.87 4.17 4.62
6/1/2022 7:45:00 AM 15.12 59.216 0.171 6.86 4.37 4.63
6/1/2022 8:00:00 AM 15.07 59.126 0.169 6.86 4.22 4.69
6/1/2022 8:15:00 AM 15.17 59.306 0.172 6.88 4.36 4.76
6/1/2022 8:30:00 AM 15.07 59.126 0.17 6.89 3.86 4.87
6/1/2022 8:45:00 AM 15.03 59.054 0.167 6.85 3.98 4.86
6/1/2022 9:00:00 AM 15.05 59.09 0.168 6.85 4.19 4.97
6/1/2022 9:15:00 AM 14.94 58.892 0.165 6.85 4.02 4.98
6/1/2022 9:30:00 AM 14.83 58.694 0.16 6.83 3.85 5.32
6/1/2022 9:45:00 AM 14.92 58.856 0.168 6.82 4.68 5.42
6/1/2022 10:00:00 AM 14.78 58.604 0.161 6.82 4.03 5.29
6/1/2022 10:15:00 AM 14.83 58.694 0.162 6.83 3.83 5.38
6/1/2022 10:30:00 AM 14.86 58.748 0.163 6.83 4.19 5.41
6/1/2022 10:45:00 AM 14.86 58.748 0.162 6.83 3.84 5.37
6/1/2022 11:00:00 AM 14.97 58.946 0.164 6.85 3.91 5.44
6/1/2022 11:15:00 AM 15.05 59.09 0.168 6.86 4.62 5.48
6/1/2022 11:30:00 AM 15.07 59.126 0.167 6.86 4.44 5.45
6/1/2022 11:45:00 AM 15.23 59.414 0.17 6.88 4.53 5.59
6/1/2022 12:00:00 PM 15.21 59.378 0.168 6.88 4.03 5.69
6/1/2022 12:15:00 PM 15.25 59.45 0.171 6.89 3.68 5.76
6/1/2022 12:30:00 PM 15.42 59.756 0.173 6.9 4.55 5.81
6/1/2022 12:45:00 PM 15.57 60.026 0.173 6.92 4.07 6
6/1/2022 1:00:00 PM 15.76 60.368 0.175 6.94 3.99 6.17
6/1/2022 1:15:00 PM 15.73 60.314 0.174 6.93 3.97 6.12
6/1/2022 1:30:00 PM 15.95 60.71 0.175 6.95 4.11 6.34
6/1/2022 1:45:00 PM 16.04 60.872 0.176 6.95 4.13 6.4
6/1/2022 2:00:00 PM 16.07 60.926 0.175 6.95 4.13 6.52
6/1/2022 2:15:00 PM 16.14 61.052 0.175 6.95 4.15 6.57
6/1/2022 2:30:00 PM 16.22 61.196 0.176 6.95 4.43 6.68
6/1/2022 2:45:00 PM 16.38 61.484 0.176 6.96 4.02 6.77
6/1/2022 3:00:00 PM 16.39 61.502 0.175 6.95 4.13 6.65
6/1/2022 3:15:00 PM 16.38 61.484 0.174 6.95 3.93 6.49
6/1/2022 3:30:00 PM 16.44 61.592 0.174 6.95 3.97 6.56
6/1/2022 3:45:00 PM 16.39 61.502 0.173 6.94 3.82 6.59
6/1/2022 4:00:00 PM 16.47 61.646 0.173 6.93 3.98 6.43
6/1/2022 4:15:00 PM 16.61 61.898 0.174 6.94 540.16 6.58
6/1/2022 4:30:00 PM 16.49 61.682 0.171 6.92 4.2 6.64
6/1/2022 4:45:00 PM 16.5 61.7 0.169 6.91 3.93 6.58
6/1/2022 5:00:00 PM 16.68 62.024 0.17 6.93 3.55 6.59
6/1/2022 5:15:00 PM 16.63 61.934 0.169 6.91 3.88 6.53
6/1/2022 5:30:00 PM 16.8 62.24 0.169 6.91 3.56 6.58
6/1/2022 5:45:00 PM 16.72 62.096 0.167 6.91 3.72 6.56
6/1/2022 6:00:00 PM 16.86 62.348 0.169 6.91 3.87 6.63
6/1/2022 6:15:00 PM 16.83 62.294 0.169 6.91 3.95 6.49
6/1/2022 6:30:00 PM 16.67 62.006 0.167 6.9 3.78 6.18
6/1/2022 6:45:00 PM 17.12 62.816 0.173 6.94 4.06 6.32
6/1/2022 7:00:00 PM 16.78 62.204 0.17 6.92 4.45 6.31
6/1/2022 7:15:00 PM 18.42 65.156 0.184 7.2 15.73 7.37
6/1/2022 7:30:00 PM 19.14 66.452 0.198 7.44 12.68 7.58
6/1/2022 7:45:00 PM 19.51 67.118 0.203 7.6 11.14 7.71
6/1/2022 8:00:00 PM 19.7 67.46 0.204 7.69 11.55 7.71
6/1/2022 8:15:00 PM 19.74 67.532 0.204 7.73 10.04 7.68
6/1/2022 8:30:00 PM 19.69 67.442 0.205 7.72 10.73 7.63
6/1/2022 8:45:00 PM 19.6 67.28 0.205 7.71 9.11 7.62
6/1/2022 9:00:00 PM 19.63 67.334 0.207 7.73 8.86 7.63
6/1/2022 9:15:00 PM 19.58 67.244 0.207 7.72 8.2 7.6
6/1/2022 9:30:00 PM 19.53 67.154 0.208 7.71 7.47 7.53
6/1/2022 9:45:00 PM 19.47 67.046 0.208 7.71 8.33 7.58
6/1/2022 10:00:00 PM 19.43 66.974 0.207 7.73 8.87 7.61
6/1/2022 10:15:00 PM 19.37 66.866 0.206 7.72 8.44 7.58
6/1/2022 10:30:00 PM 19.3 66.74 0.206 7.72 7.94 7.59
6/1/2022 10:45:00 PM 19.23 66.614 0.205 7.7 8.19 7.59
6/1/2022 11:00:00 PM 19.16 66.488 0.206 7.69 7.91 7.59
6/1/2022 11:15:00 PM 19.11 66.398 0.206 7.69 7.96 7.62
6/1/2022 11:30:00 PM 19.04 66.272 0.206 7.68 8.63 7.6
6/1/2022 11:45:00 PM 18.99 66.182 0.206 7.68 7.63 7.65
6/2/2022 12:00:00 AM 18.93 66.074 0.206 7.67 8.38 7.65
6/2/2022 12:15:00 AM 18.87 65.966 0.206 7.68 8.57 7.68
6/2/2022 12:30:00 AM 18.82 65.876 0.206 7.68 7.8 7.71
6/2/2022 12:45:00 AM 18.76 65.768 0.205 7.68 8.5 7.75
6/2/2022 1:00:00 AM 18.68 65.624 0.205 7.67 8.41 7.76
6/2/2022 1:15:00 AM 18.61 65.498 0.205 7.67 7.87 7.8
6/2/2022 1:30:00 AM 18.54 65.372 0.205 7.67 9.34 7.84
6/2/2022 1:45:00 AM 18.47 65.246 0.205 7.66 8 7.85
6/2/2022 2:00:00 AM 18.4 65.12 0.205 7.66 7.59 7.85
6/2/2022 2:15:00 AM 18.35 65.03 0.206 7.66 6.89 7.89
6/2/2022 2:30:00 AM 18.29 64.922 0.206 7.66 7.11 7.89
6/2/2022 2:45:00 AM 18.24 64.832 0.207 7.66 7.33 7.92
6/2/2022 3:00:00 AM 18.18 64.724 0.207 7.67 7.25 7.96
6/2/2022 3:15:00 AM 18.13 64.634 0.208 7.68 8.58 8
6/2/2022 3:30:00 AM 18.07 64.526 0.209 7.69 11.74 8.05
6/2/2022 3:45:00 AM 18.03 64.454 0.21 7.7 9.57 8.1
6/2/2022 4:00:00 AM 17.98 64.364 0.21 7.7 7.95 8.1
6/2/2022 4:15:00 AM 17.94 64.292 0.211 7.71 8.22 8.17
6/2/2022 4:30:00 AM 17.91 64.238 0.212 7.71 8.16 8.18
6/2/2022 4:45:00 AM 17.87 64.166 0.212 7.72 8.18 8.21
6/2/2022 5:00:00 AM 17.82 64.076 0.213 7.72 8.47 8.16
6/2/2022 5:15:00 AM 17.78 64.004 0.214 7.73 7.7 8.18
6/2/2022 5:30:00 AM 17.73 63.914 0.214 7.73 7.69 8.19
6/2/2022 5:45:00 AM 17.69 63.842 0.215 7.74 7.29 8.22
6/2/2022 6:00:00 AM 17.64 63.752 0.215 7.74 7.59 8.23
6/2/2022 6:15:00 AM 17.58 63.644 0.215 7.74 6.87 8.24
6/2/2022 6:30:00 AM 17.55 63.59 0.216 7.76 7.42 8.3
6/2/2022 6:45:00 AM 17.52 63.536 0.216 7.78 6.71 8.39
6/2/2022 7:00:00 AM 17.49 63.482 0.216 7.79 6.2 8.44
6/2/2022 7:15:00 AM 17.45 63.41 0.216 7.8 5.82 8.48
6/2/2022 7:30:00 AM 17.42 63.356 0.216 7.81 5.64 8.52
6/2/2022 7:45:00 AM 17.39 63.302 0.216 7.81 5.39 8.56
6/2/2022 8:00:00 AM 17.37 63.266 0.216 7.83 5.47 8.59
6/2/2022 8:15:00 AM 17.36 63.248 0.216 7.83 5.43 8.65
6/2/2022 8:30:00 AM 17.34 63.212 0.216 7.84 5.17 8.7
6/2/2022 8:45:00 AM 17.33 63.194 0.216 7.85 5.02 8.74
6/2/2022 9:00:00 AM 17.34 63.212 0.216 7.86 4.79 8.81
6/2/2022 9:15:00 AM 17.34 63.212 0.216 7.88 4.81 8.84
6/2/2022 9:30:00 AM 17.35 63.23 0.215 7.89 4.67 8.89
6/2/2022 9:45:00 AM 17.38 63.284 0.215 7.9 5 8.96
6/2/2022 10:00:00 AM 17.42 63.356 0.215 7.92 4.51 9.01
6/2/2022 10:15:00 AM 17.47 63.446 0.215 7.94 4.74 9.06
6/2/2022 10:30:00 AM 17.49 63.482 0.214 7.95 4.72 9.1
6/2/2022 10:45:00 AM 17.54 63.572 0.214 7.96 4.61 9.12
6/2/2022 11:00:00 AM 17.66 63.788 0.213 7.98 4.44 9.17
6/2/2022 11:15:00 AM 17.79 64.022 0.213 7.99 4.52 9.21
6/2/2022 11:30:00 AM 17.93 64.274 0.212 8.01 4.39 9.24
6/2/2022 11:45:00 AM 18.02 64.436 0.211 8.02 4.62 9.28
6/2/2022 12:00:00 PM 18.11 64.598 0.211 8.03 4.37 9.29
6/2/2022 12:15:00 PM 18.23 64.814 0.21 8.04 4.38 9.3
6/2/2022 12:30:00 PM 18.31 64.958 0.21 8.05 4.45 9.3
6/2/2022 12:45:00 PM 18.5 65.3 0.209 8.05 4.72 9.31
6/2/2022 1:00:00 PM 18.62 65.516 0.209 8.07 4.34 9.33
6/2/2022 1:15:00 PM 18.69 65.642 0.208 8.08 4.88 9.31
6/2/2022 1:30:00 PM 18.74 65.732 0.208 8.08 4.52 9.3
6/2/2022 1:45:00 PM 18.89 66.002 0.208 8.09 5.08 9.32
6/2/2022 2:00:00 PM 19.11 66.398 0.208 8.09 4.51 9.32
6/2/2022 2:15:00 PM 19.16 66.488 0.208 8.1 4.54 9.31
6/2/2022 2:30:00 PM 19.11 66.398 0.208 8.1 4.23 9.22
6/2/2022 2:45:00 PM 19.08 66.344 0.208 8.09 3.92 9.17
6/2/2022 3:00:00 PM 19.11 66.398 0.208 8.09 3.85 9.16
6/2/2022 3:15:00 PM 19.14 66.452 0.208 8.09 3.94 9.11
6/2/2022 3:30:00 PM 19.19 66.542 0.208 8.08 4.25 9.1
6/2/2022 3:45:00 PM 19.45 67.01 0.209 8.06 4.19 9.01
6/2/2022 4:00:00 PM 19.68 67.424 0.209 8.08 4.01 9.02
6/2/2022 4:15:00 PM 19.64 67.352 0.209 8.06 3.92 8.95
6/2/2022 4:30:00 PM 19.63 67.334 0.21 8.05 4.12 8.86
6/2/2022 4:45:00 PM 19.66 67.388 0.21 8.08 3.57 8.9
6/2/2022 5:00:00 PM 19.64 67.352 0.21 8.07 3.51 8.84
6/2/2022 5:15:00 PM 19.59 67.262 0.211 8.06 3.8 8.79
6/2/2022 5:30:00 PM 19.5 67.1 0.212 8.03 3.66 8.69
6/2/2022 5:45:00 PM 19.38 66.884 0.212 7.99 3.88 8.6
6/2/2022 6:00:00 PM 19.28 66.704 0.212 7.95 3.67 8.48
6/2/2022 6:15:00 PM 19.3 66.74 0.212 7.96 3.79 8.45
6/2/2022 6:30:00 PM 19.29 66.722 0.213 7.94 3.79 8.39
6/2/2022 6:45:00 PM 19.22 66.596 0.213 7.91 3.74 8.33
6/2/2022 7:00:00 PM 19.17 66.506 0.214 7.88 4.85 8.24
6/2/2022 7:15:00 PM 19.15 66.47 0.214 7.87 3.76 8.21
6/2/2022 7:30:00 PM 19.11 66.398 0.215 7.85 3.81 8.17
6/2/2022 7:45:00 PM 19.07 66.326 0.215 7.84 3.66 8.15
6/2/2022 8:00:00 PM 19.03 66.254 0.215 7.85 4.28 8.12
6/2/2022 8:15:00 PM 18.94 66.092 0.216 7.83 4.15 8.06
6/2/2022 8:30:00 PM 18.88 65.984 0.217 7.82 4.01 8.02
6/2/2022 8:45:00 PM 18.77 65.786 0.217 7.79 4 7.96
6/2/2022 9:00:00 PM 18.65 65.57 0.217 7.77 4.7 7.91
6/2/2022 9:15:00 PM 18.55 65.39 0.217 7.76 4.69 7.86
6/2/2022 9:30:00 PM 18.45 65.21 0.218 7.74 4.28 7.86
6/2/2022 9:45:00 PM 18.39 65.102 0.218 7.74 4.44 7.83
6/2/2022 10:00:00 PM 18.3 64.94 0.218 7.73 4.47 7.79
6/2/2022 10:15:00 PM 18.22 64.796 0.218 7.73 4.15 7.81
6/2/2022 10:30:00 PM 18.14 64.652 0.218 7.72 4.53 7.79
6/2/2022 10:45:00 PM 18.07 64.526 0.219 7.71 4.22 7.78
6/2/2022 11:00:00 PM 17.98 64.364 0.219 7.7 4.62 7.77
6/2/2022 11:15:00 PM 17.89 64.202 0.218 7.69 4.82 7.77
6/2/2022 11:30:00 PM 17.86 64.148 0.219 7.69 4.83 7.77
6/2/2022 11:45:00 PM 17.8 64.04 0.219 7.69 4.94 7.74
6/3/2022 12:00:00 AM 17.72 63.896 0.219 7.66 5.14 7.71
6/3/2022 12:15:00 AM 17.54 63.572 0.217 7.63 4.77 7.61
6/3/2022 12:30:00 AM 17.55 63.59 0.218 7.65 4.54 7.7
6/3/2022 12:45:00 AM 17.47 63.446 0.218 7.64 4.43 7.69
6/3/2022 1:00:00 AM 17.36 63.248 0.217 7.59 4.72 7.6
6/3/2022 1:15:00 AM 17.25 63.05 0.217 7.57 4.59 7.57
6/3/2022 1:30:00 AM 17.27 63.086 0.218 7.61 4.61 7.72
6/3/2022 1:45:00 AM 17.23 63.014 0.217 7.6 5.17 7.72
6/3/2022 2:00:00 AM 17.23 63.014 0.218 7.62 4.23 7.72
6/3/2022 2:15:00 AM 17.19 62.942 0.218 7.62 4.62 7.74
6/3/2022 2:30:00 AM 17.11 62.798 0.218 7.61 4.38 7.73
6/3/2022 2:45:00 AM 17.03 62.654 0.218 7.61 4.43 7.75
6/3/2022 3:00:00 AM 16.99 62.582 0.217 7.6 4.52 7.74
6/3/2022 3:15:00 AM 16.91 62.438 0.217 7.6 4.76 7.77
6/3/2022 3:30:00 AM 16.85 62.33 0.217 7.61 4.87 7.82
6/3/2022 3:45:00 AM 16.79 62.222 0.217 7.61 4.47 7.86
6/3/2022 4:00:00 AM 16.74 62.132 0.217 7.61 4.23 7.85
6/3/2022 4:15:00 AM 16.67 62.006 0.216 7.61 4.28 7.86
6/3/2022 4:30:00 AM 16.62 61.916 0.216 7.6 4.02 7.86
6/3/2022 4:45:00 AM 16.55 61.79 0.215 7.58 5.88 7.79
6/3/2022 5:00:00 AM 16.5 61.7 0.215 7.56 5.02 7.74
6/3/2022 5:15:00 AM 16.42 61.556 0.214 7.54 5.02 7.66
6/3/2022 5:30:00 AM 16.34 61.412 0.214 7.53 5.07 7.64
6/3/2022 5:45:00 AM 16.29 61.322 0.214 7.52 4.82 7.6
6/3/2022 6:00:00 AM 16.2 61.16 0.214 7.53 4.46 7.63
6/3/2022 6:15:00 AM 16.12 61.016 0.213 7.53 4.28 7.67
6/3/2022 6:30:00 AM 16.04 60.872 0.213 7.51 4.12 7.62
6/3/2022 6:45:00 AM 15.96 60.728 0.213 7.5 4.25 7.62
6/3/2022 7:00:00 AM 15.89 60.602 0.212 7.49 4.26 7.52
6/3/2022 7:15:00 AM 15.84 60.512 0.212 7.5 4.32 7.63
6/3/2022 7:30:00 AM 15.78 60.404 0.212 7.49 4.75 7.46
6/3/2022 7:45:00 AM 15.72 60.296 0.212 7.48 4.37 7.6
6/3/2022 8:00:00 AM 15.7 60.26 0.212 7.48 4.23 7.57
6/3/2022 8:15:00 AM 15.67 60.206 0.212 7.48 11.85 7.56
6/3/2022 8:30:00 AM 15.62 60.116 0.211 7.49 4.35 7.69
6/3/2022 8:45:00 AM 15.58 60.044 0.211 7.5 4.42 7.81
6/3/2022 9:00:00 AM 15.53 59.954 0.211 7.5 4.65 7.79
6/3/2022 9:15:00 AM 15.49 59.882 0.211 7.5 4.32 7.82
6/3/2022 9:30:00 AM 15.46 59.828 0.21 7.5 4.35 7.89
6/3/2022 9:45:00 AM 15.44 59.792 0.21 7.5 4.34 7.9
6/3/2022 10:00:00 AM 15.38 59.684 0.209 7.49 4.46 7.86
6/3/2022 10:15:00 AM 15.38 59.684 0.21 7.5 4.32 7.97
6/3/2022 10:30:00 AM 15.34 59.612 0.209 7.48 4.94 7.91
6/3/2022 10:45:00 AM 15.3 59.54 0.208 7.46 4.38 7.94
6/3/2022 11:00:00 AM 15.32 59.576 0.208 7.48 4.86 7.87
6/3/2022 11:15:00 AM 15.35 59.63 0.209 7.47 4.14 7.91
6/3/2022 11:30:00 AM 15.41 59.738 0.209 7.5 4.12 8.05
6/3/2022 11:45:00 AM 15.51 59.918 0.209 7.51 4.06 8.2
6/3/2022 12:00:00 PM 15.63 60.134 0.208 7.52 4.02 8.28
6/3/2022 12:15:00 PM 15.67 60.206 0.207 7.51 4.34 8.33
6/3/2022 12:30:00 PM 15.99 60.782 0.207 7.53 3.7 8.47
6/3/2022 12:45:00 PM 16.18 61.124 0.207 7.54 3.71 8.53
6/3/2022 1:00:00 PM 16.26 61.268 0.206 7.53 3.92 8.62
6/3/2022 1:15:00 PM 16.54 61.772 0.206 7.54 3.88 8.64
6/3/2022 1:30:00 PM 16.92 62.456 0.205 7.52 3.76 8.67
6/3/2022 1:45:00 PM 17.14 62.852 0.205 7.51 4.09 8.68
6/3/2022 2:00:00 PM 17.48 63.464 0.203 7.43 3.55 8.75
6/3/2022 2:15:00 PM 17.94 64.292 0.203 7.49 6.44 8.86
6/3/2022 2:30:00 PM 18.06 64.508 0.201 7.44 5.02 8.78
6/3/2022 2:45:00 PM 18.2 64.76 0.2 7.44 6.96 8.99
6/3/2022 3:00:00 PM 18.55 65.39 0.2 7.43 4.69 8.74
6/3/2022 3:15:00 PM 18.73 65.714 0.199 7.44 4.36 8.82
6/3/2022 3:30:00 PM 18.87 65.966 0.198 7.44 4.79 8.62
6/3/2022 3:45:00 PM 19.24 66.632 0.199 7.46 4.3 8.5
6/3/2022 4:00:00 PM 19.4 66.92 0.2 7.44 5 8.41
6/3/2022 4:15:00 PM 19.29 66.722 0.198 7.42 4.18 8.39
6/3/2022 4:30:00 PM 19.49 67.082 0.199 7.45 3.97 8.4
6/3/2022 4:45:00 PM 19.67 67.406 0.199 7.47 4.18 8.35
6/3/2022 5:00:00 PM 19.71 67.478 0.199 7.47 3.74 8.32
6/3/2022 5:15:00 PM 19.73 67.514 0.198 7.47 3.8 8.25
6/3/2022 5:30:00 PM 19.61 67.298 0.198 7.43 3.91 8.08
6/3/2022 5:45:00 PM 19.63 67.334 0.198 7.44 3.81 8.09
6/3/2022 6:00:00 PM 19.95 67.91 0.202 7.58 4.53 8.41
6/3/2022 6:15:00 PM 19.79 67.622 0.203 7.6 5.46 8.38
6/3/2022 6:30:00 PM 19.59 67.262 0.203 7.6 4.28 8.3
6/3/2022 6:45:00 PM 19.44 66.992 0.204 7.61 8.03 8.27
6/3/2022 7:00:00 PM 19.25 66.65 0.205 7.64 4.97 8.26
6/3/2022 7:15:00 PM 19.05 66.29 0.205 7.62 4.44 8.14
6/3/2022 7:30:00 PM 18.85 65.93 0.205 7.59 5.98 8.02
6/3/2022 7:45:00 PM 18.67 65.606 0.204 7.55 4.21 7.86
6/3/2022 8:00:00 PM 18.52 65.336 0.204 7.52 4.01 7.73
6/3/2022 8:15:00 PM 18.2 64.76 0.2 7.41 4.09 7.4
6/3/2022 8:30:00 PM 18.02 64.436 0.198 7.4 3.97 7.29
6/3/2022 8:45:00 PM 17.74 63.932 0.191 7.29 4.05 7.23
6/3/2022 9:00:00 PM 17.55 63.59 0.19 7.27 3.83 7.11
6/3/2022 9:15:00 PM 17.3 63.14 0.188 7.22 3.76 6.9
6/3/2022 9:30:00 PM 17.07 62.726 0.187 7.2 3.69 6.81
6/3/2022 9:45:00 PM 16.82 62.276 0.186 7.16 3.88 6.54
6/3/2022 10:00:00 PM 16.66 61.988 0.184 7.15 3.71 6.54
6/3/2022 10:15:00 PM 16.48 61.664 0.183 7.12 3.49 6.41
6/3/2022 10:30:00 PM 16.32 61.376 0.183 7.1 4.05 6.25
6/3/2022 10:45:00 PM 16.29 61.322 0.183 7.11 3.6 6.25
6/3/2022 11:00:00 PM 16.06 60.908 0.181 7.08 4.7 6.23
6/3/2022 11:15:00 PM 16 60.8 0.182 7.09 3.75 6.28
6/3/2022 11:30:00 PM 15.94 60.692 0.181 7.08 4.09 6.18
6/3/2022 11:45:00 PM 15.91 60.638 0.182 7.08 4.45 6.18
6/4/2022 12:00:00 AM 15.78 60.404 0.182 7.08 4.07 6.12
6/4/2022 12:15:00 AM 15.66 60.188 0.182 7.07 3.79 6.06
6/4/2022 12:30:00 AM 15.51 59.918 0.182 7.07 4.09 6.13
6/4/2022 12:45:00 AM 15.44 59.792 0.181 7.06 4.05 6
6/4/2022 1:00:00 AM 15.28 59.504 0.18 7.05 4.58 5.97
6/4/2022 1:15:00 AM 15.12 59.216 0.178 7.03 4.64 5.97
6/4/2022 1:30:00 AM 15.03 59.054 0.176 7.01 3.77 5.98
6/4/2022 1:45:00 AM 14.92 58.856 0.176 7.01 3.98 5.95
6/4/2022 2:00:00 AM 14.83 58.694 0.175 7 4.19 5.91
6/4/2022 2:15:00 AM 14.69 58.442 0.174 6.99 4.31 5.89
6/4/2022 2:30:00 AM 14.66 58.388 0.178 6.99 4.16 5.84
6/4/2022 2:45:00 AM 14.52 58.136 0.174 6.98 3.99 5.83
6/4/2022 3:00:00 AM 14.38 57.884 0.172 6.97 4.02 5.84
6/4/2022 3:15:00 AM 14.39 57.902 0.173 6.98 4.2 5.8
6/4/2022 3:30:00 AM 14.2 57.56 0.17 6.95 4.19 5.79
6/4/2022 3:45:00 AM 14.12 57.416 0.169 6.94 4.9 5.6
6/4/2022 4:00:00 AM 14.05 57.29 0.17 6.94 4.24 5.74
6/4/2022 4:15:00 AM 13.97 57.146 0.168 6.93 4.25 5.6
6/4/2022 4:30:00 AM 14.02 57.236 0.167 6.91 3.97 5.39
6/4/2022 4:45:00 AM 13.98 57.164 0.168 6.92 4.95 5.41
6/4/2022 5:00:00 AM 13.88 56.984 0.166 6.91 4.26 5.4
6/4/2022 5:15:00 AM 13.84 56.912 0.169 6.91 4.85 5.34
6/4/2022 5:30:00 AM 13.72 56.696 0.167 6.91 4 5.34
6/4/2022 5:45:00 AM 13.64 56.552 0.166 6.92 4.4 5.4
6/4/2022 6:00:00 AM 13.6 56.48 0.167 6.91 4.08 5.44
6/4/2022 6:15:00 AM 13.42 56.156 0.166 6.9 4.18 5.51
6/4/2022 6:30:00 AM 13.4 56.12 0.165 6.9 4.38 5.55
6/4/2022 6:45:00 AM 13.31 55.958 0.165 6.9 4.88 5.61
6/4/2022 7:00:00 AM 13.25 55.85 0.163 6.88 4.09 5.44
6/4/2022 7:15:00 AM 13.16 55.688 0.162 6.87 4.19 5.46
6/4/2022 7:30:00 AM 13.1 55.58 0.162 6.88 4.7 5.54
6/4/2022 7:45:00 AM 13.01 55.418 0.162 6.88 4.02 5.57
6/4/2022 8:00:00 AM 13.01 55.418 0.161 6.87 4.23 5.53
6/4/2022 8:15:00 AM 13.03 55.454 0.161 6.88 4.07 5.58
6/4/2022 8:30:00 AM 12.98 55.364 0.161 6.87 3.78 5.54
6/4/2022 8:45:00 AM 12.9 55.22 0.158 6.86 3.93 5.54
6/4/2022 9:00:00 AM 12.99 55.382 0.161 6.87 4.02 5.52
6/4/2022 9:15:00 AM 12.84 55.112 0.156 6.83 3.83 5.54
6/4/2022 9:30:00 AM 12.85 55.13 0.155 6.84 3.7 5.8
6/4/2022 9:45:00 AM 12.86 55.148 0.154 6.84 3.55 5.85
6/4/2022 10:00:00 AM 12.98 55.364 0.159 6.86 3.74 5.62
6/4/2022 10:15:00 AM 12.81 55.058 0.154 6.81 3.77 5.68
6/4/2022 10:30:00 AM 12.81 55.058 0.151 6.81 3.62 5.82
6/4/2022 10:45:00 AM 12.89 55.202 0.153 6.82 3.52 5.8
6/4/2022 11:00:00 AM 12.83 55.094 0.151 6.8 4.05 5.74
6/4/2022 11:15:00 AM 12.86 55.148 0.152 6.81 3.84 5.7
6/4/2022 11:30:00 AM 12.92 55.256 0.154 6.82 3.86 5.69
6/4/2022 11:45:00 AM 13.15 55.67 0.162 6.85 3.9 5.61
6/4/2022 12:00:00 PM 12.89 55.202 0.149 6.78 3.78 5.55
6/4/2022 12:15:00 PM 13.04 55.472 0.154 6.8 4.16 5.48
6/4/2022 12:30:00 PM 13.22 55.796 0.165 6.82 3.99 5.43
6/4/2022 12:45:00 PM 13.41 56.138 0.167 6.9 4.95 5.66
6/4/2022 1:00:00 PM 13.69 56.642 0.174 6.96 4.13 6
6/4/2022 1:15:00 PM 13.96 57.128 0.173 6.97 4.1 6.24
6/4/2022 1:30:00 PM 14.1 57.38 0.173 6.96 3.85 6.33
6/4/2022 1:45:00 PM 14.55 58.19 0.175 6.99 4.17 6.54
6/4/2022 2:00:00 PM 14.69 58.442 0.173 6.97 3.94 6.49
6/4/2022 2:15:00 PM 15.01 59.018 0.166 6.93 3.7 6.86
6/4/2022 2:30:00 PM 15.24 59.432 0.165 6.92 4.06 6.97
6/4/2022 2:45:00 PM 15.41 59.738 0.163 6.9 3.84 6.97
6/4/2022 3:00:00 PM 15.81 60.458 0.161 6.9 3.68 7.17
6/4/2022 3:15:00 PM 15.92 60.656 0.159 6.88 4.1 7.04
6/4/2022 3:30:00 PM 16.11 60.998 0.16 6.88 3.67 7.2
6/4/2022 3:45:00 PM 16.12 61.016 0.156 6.86 3.54 6.97
6/4/2022 4:00:00 PM 16.28 61.304 0.158 6.86 3.64 6.9
6/4/2022 4:15:00 PM 16.32 61.376 0.158 6.87 3.56 6.82
6/4/2022 4:30:00 PM 16.48 61.664 0.158 6.87 3.62 6.66
6/4/2022 4:45:00 PM 16.65 61.97 0.157 6.87 3.78 6.69
6/4/2022 5:00:00 PM 16.45 61.61 0.154 6.84 3.58 6.47
6/4/2022 5:15:00 PM 16.66 61.988 0.155 6.84 3.91 6.41
6/4/2022 5:30:00 PM 16.54 61.772 0.152 6.83 3.71 6.36
6/4/2022 5:45:00 PM 16.35 61.43 0.149 6.8 3.66 6.18
6/4/2022 6:00:00 PM 16.31 61.358 0.149 6.8 3.94 6.16
6/4/2022 6:15:00 PM 16.21 61.178 0.149 6.78 3.73 6.06
6/4/2022 6:30:00 PM 16.11 60.998 0.149 6.78 3.65 5.96
6/4/2022 6:45:00 PM 16.14 61.052 0.149 6.79 3.89 5.95
6/4/2022 7:00:00 PM 15.93 60.674 0.147 6.76 3.67 5.81
6/4/2022 7:15:00 PM 15.89 60.602 0.148 6.78 3.98 5.77
6/4/2022 7:30:00 PM 15.88 60.584 0.148 6.78 3.7 5.77
6/4/2022 7:45:00 PM 15.8 60.44 0.148 6.77 3.71 5.66
6/4/2022 8:00:00 PM 15.63 60.134 0.147 6.76 3.46 5.62
6/4/2022 8:15:00 PM 15.62 60.116 0.147 6.76 3.65 5.5
6/4/2022 8:30:00 PM 15.45 59.81 0.147 6.77 3.86 5.67
6/4/2022 8:45:00 PM 15.46 59.828 0.148 6.78 3.75 5.73
6/4/2022 9:00:00 PM 15.35 59.63 0.15 6.79 3.56 5.86
6/4/2022 9:15:00 PM 15.14 59.252 0.149 6.79 3.72 5.82
6/4/2022 9:30:00 PM 15.07 59.126 0.15 6.79 3.84 5.74
6/4/2022 9:45:00 PM 14.88 58.784 0.15 6.79 3.8 5.71
6/4/2022 10:00:00 PM 14.83 58.694 0.15 6.8 4.73 5.76
6/4/2022 10:15:00 PM 14.67 58.406 0.15 6.79 3.81 5.67
6/4/2022 10:30:00 PM 14.57 58.226 0.148 6.76 3.85 5.43
6/4/2022 10:45:00 PM 14.47 58.046 0.146 6.75 3.74 5.29
6/4/2022 11:00:00 PM 14.42 57.956 0.148 6.77 3.63 5.33
6/4/2022 11:15:00 PM 14.31 57.758 0.147 6.76 4.05 5.39
6/4/2022 11:30:00 PM 14.18 57.524 0.146 6.75 3.95 5.28
6/4/2022 11:45:00 PM 14.09 57.362 0.146 6.76 3.75 5.33
6/5/2022 12:00:00 AM 13.98 57.164 0.146 6.76 4.14 5.31
6/5/2022 12:15:00 AM 13.88 56.984 0.147 6.77 3.74 5.37
6/5/2022 12:30:00 AM 13.85 56.93 0.148 6.76 3.64 5.41
6/5/2022 12:45:00 AM 13.76 56.768 0.148 6.77 3.78 5.39
6/5/2022 1:00:00 AM 13.6 56.48 0.145 6.76 3.59 5.3
6/5/2022 1:15:00 AM 13.52 56.336 0.146 6.77 3.52 5.38
6/5/2022 1:30:00 AM 13.41 56.138 0.146 6.77 3.69 5.38
6/5/2022 1:45:00 AM 13.34 56.012 0.145 6.76 3.59 5.38
6/5/2022 2:00:00 AM 13.25 55.85 0.148 6.78 3.77 5.4
6/5/2022 2:15:00 AM 13.15 55.67 0.146 6.76 4.37 5.38
6/5/2022 2:30:00 AM 13.1 55.58 0.147 6.77 3.77 5.37
6/5/2022 2:45:00 AM 12.96 55.328 0.144 6.77 3.63 5.36
6/5/2022 3:00:00 AM 12.9 55.22 0.149 6.79 3.9 5.61
6/5/2022 3:15:00 AM 12.8 55.04 0.145 6.77 3.84 5.46
6/5/2022 3:30:00 AM 12.71 54.878 0.148 6.78 3.87 5.5
6/5/2022 3:45:00 AM 12.6 54.68 0.148 6.78 3.87 5.45
6/5/2022 4:00:00 AM 12.52 54.536 0.147 6.77 4.03 5.47
6/5/2022 4:15:00 AM 12.44 54.392 0.148 6.78 3.83 5.5
6/5/2022 4:30:00 AM 12.35 54.23 0.147 6.78 4.14 5.44
6/5/2022 4:45:00 AM 12.19 53.942 0.145 6.77 4.01 5.37
6/5/2022 5:00:00 AM 12.21 53.978 0.147 6.79 3.71 5.44
6/5/2022 5:15:00 AM 12.03 53.654 0.141 6.76 4.25 5.27
6/5/2022 5:30:00 AM 12.02 53.636 0.148 6.78 5.58 5.38
6/5/2022 5:45:00 AM 11.91 53.438 0.146 6.78 5.83 5.4
6/5/2022 6:00:00 AM 11.89 53.402 0.149 6.79 4.88 5.4
6/5/2022 6:15:00 AM 11.78 53.204 0.147 6.8 4.32 5.55
6/5/2022 6:30:00 AM 11.73 53.114 0.148 6.8 4.28 5.57
6/5/2022 6:45:00 AM 11.66 52.988 0.148 6.78 4.48 5.48
6/5/2022 7:00:00 AM 11.63 52.934 0.149 6.81 4.18 5.54
6/5/2022 7:15:00 AM 11.57 52.826 0.149 6.83 4.5 5.67
6/5/2022 7:30:00 AM 11.48 52.664 0.145 6.79 4.18 5.47
6/5/2022 7:45:00 AM 11.45 52.61 0.148 6.79 4.25 5.53
6/5/2022 8:00:00 AM 11.44 52.592 0.147 6.8 4.38 5.55
6/5/2022 8:15:00 AM 11.38 52.484 0.148 6.77 4.37 5.62
6/5/2022 8:30:00 AM 11.32 52.376 0.145 6.79 3.96 5.58
6/5/2022 8:45:00 AM 11.36 52.448 0.148 6.82 4.54 5.71
6/5/2022 9:00:00 AM 11.34 52.412 0.147 6.8 4.03 5.86
6/5/2022 9:15:00 AM 11.35 52.43 0.146 6.8 4.87 5.7
6/5/2022 9:30:00 AM 11.35 52.43 0.147 6.8 4.39 5.66
6/5/2022 9:45:00 AM 11.4 52.52 0.149 6.81 4.76 5.65
6/5/2022 10:00:00 AM 11.44 52.592 0.15 6.82 4.44 5.71
6/5/2022 10:15:00 AM 11.41 52.538 0.148 6.81 4.18 5.65
6/5/2022 10:30:00 AM 11.44 52.592 0.148 6.81 4.24 5.66
6/5/2022 10:45:00 AM 11.47 52.646 0.148 6.82 4.43 5.76
6/5/2022 11:00:00 AM 11.49 52.682 0.147 6.82 4.12 6.01
6/5/2022 11:15:00 AM 11.53 52.754 0.147 6.81 4.09 6.1
6/5/2022 11:30:00 AM 11.51 52.718 0.144 6.8 4.03 6.16
6/5/2022 11:45:00 AM 11.53 52.754 0.144 6.78 4.33 6.06
6/5/2022 12:00:00 PM 11.62 52.916 0.147 6.8 3.87 5.92
6/5/2022 12:15:00 PM 11.69 53.042 0.147 6.8 4.31 5.95
6/5/2022 12:30:00 PM 11.89 53.402 0.149 6.83 4.01 6.08
6/5/2022 12:45:00 PM 12.03 53.654 0.151 6.85 3.8 6.2
6/5/2022 1:00:00 PM 12.28 54.104 0.153 6.88 3.88 6.34
6/5/2022 1:15:00 PM 12.56 54.608 0.154 6.87 3.99 6.35
6/5/2022 1:30:00 PM 12.84 55.112 0.154 6.88 4.18 6.42
6/5/2022 1:45:00 PM 13.18 55.724 0.152 6.85 4.27 6.64
6/5/2022 2:00:00 PM 13.45 56.21 0.149 6.84 4.07 6.87
6/5/2022 2:15:00 PM 13.67 56.606 0.148 6.82 4.58 6.74
6/5/2022 2:30:00 PM 13.93 57.074 0.147 6.81 3.82 6.88
6/5/2022 2:45:00 PM 14.26 57.668 0.145 6.81 3.9 7.18
6/5/2022 3:00:00 PM 14.34 57.812 0.144 6.8 4.05 6.88
6/5/2022 3:15:00 PM 14.49 58.082 0.144 6.79 3.81 6.92
6/5/2022 3:30:00 PM 14.59 58.262 0.143 6.79 4.17 6.92
6/5/2022 3:45:00 PM 14.66 58.388 0.142 6.79 4.19 6.95
6/5/2022 4:00:00 PM 14.7 58.46 0.141 6.78 3.93 6.75
6/5/2022 4:15:00 PM 14.81 58.658 0.143 6.79 4.16 6.82
6/5/2022 4:30:00 PM 14.81 58.658 0.143 6.79 3.75 6.7
6/5/2022 4:45:00 PM 14.79 58.622 0.142 6.78 3.85 6.65
6/5/2022 5:00:00 PM 14.79 58.622 0.142 6.77 3.89 6.5
6/5/2022 5:15:00 PM 14.92 58.856 0.142 6.76 3.65 6.36
6/5/2022 5:30:00 PM 14.76 58.568 0.139 6.75 3.94 6.35
6/5/2022 5:45:00 PM 14.76 58.568 0.138 6.75 3.87 6.32
6/5/2022 6:00:00 PM 14.7 58.46 0.139 6.75 4.19 6.27
6/5/2022 6:15:00 PM 14.72 58.496 0.139 6.75 3.98 6.23
6/5/2022 6:30:00 PM 14.68 58.424 0.139 6.75 3.83 6.18
6/5/2022 6:45:00 PM 14.67 58.406 0.14 6.77 4.1 6.23
6/5/2022 7:00:00 PM 14.61 58.298 0.141 6.76 3.99 6.2
6/5/2022 7:15:00 PM 14.52 58.136 0.141 6.76 3.7 6.13
6/5/2022 7:30:00 PM 14.55 58.19 0.141 6.75 3.62 6.11
6/5/2022 7:45:00 PM 14.41 57.938 0.14 6.74 3.76 5.99
6/5/2022 8:00:00 PM 14.37 57.866 0.139 6.73 3.92 5.87
6/5/2022 8:15:00 PM 14.36 57.848 0.141 6.74 3.97 5.77
6/5/2022 8:30:00 PM 14.27 57.686 0.14 6.73 3.8 5.62
6/5/2022 8:45:00 PM 14.2 57.56 0.142 6.74 3.94 5.54
6/5/2022 9:00:00 PM 14.16 57.488 0.141 6.74 3.76 5.56
6/5/2022 9:15:00 PM 14.14 57.452 0.141 6.75 4.17 5.65
6/5/2022 9:30:00 PM 14.12 57.416 0.142 6.75 3.9 5.73
6/5/2022 9:45:00 PM 14.12 57.416 0.141 6.74 4.15 5.65
6/5/2022 10:00:00 PM 14.06 57.308 0.14 6.73 5.37 5.58
6/5/2022 10:15:00 PM 14.01 57.218 0.139 6.73 3.89 5.54
6/5/2022 10:30:00 PM 13.95 57.11 0.14 6.73 3.91 5.46
6/5/2022 10:45:00 PM 13.86 56.948 0.138 6.72 3.89 5.39
6/5/2022 11:00:00 PM 13.81 56.858 0.138 6.71 3.89 5.33
6/5/2022 11:15:00 PM 13.73 56.714 0.138 6.71 4.42 5.32
6/5/2022 11:30:00 PM 13.68 56.624 0.139 6.71 4.07 5.26
6/5/2022 11:45:00 PM 13.59 56.462 0.138 6.7 4.17 5.18
6/6/2022 12:00:00 AM 13.52 56.336 0.138 6.7 3.95 5.1
6/6/2022 12:15:00 AM 13.5 56.3 0.138 6.7 4.24 5.09
6/6/2022 12:30:00 AM 13.44 56.192 0.139 6.7 4.2 5.04
6/6/2022 12:45:00 AM 13.38 56.084 0.138 6.69 5.18 4.94
6/6/2022 1:00:00 AM 13.37 56.066 0.138 6.69 4.17 4.91
6/6/2022 1:15:00 AM 13.28 55.904 0.137 6.69 4.06 4.97
6/6/2022 1:30:00 AM 13.25 55.85 0.138 6.69 4.35 4.98
6/6/2022 1:45:00 AM 13.29 55.922 0.139 6.7 4.33 5.04
6/6/2022 2:00:00 AM 13.23 55.814 0.137 6.69 4.11 4.91
6/6/2022 2:15:00 AM 13.18 55.724 0.137 6.69 4.35 4.88
6/6/2022 2:30:00 AM 13.12 55.616 0.137 6.68 5.25 4.79
6/6/2022 2:45:00 AM 13.1 55.58 0.137 6.68 4.11 4.71
6/6/2022 3:00:00 AM 13.04 55.472 0.138 6.68 4.01 4.69
6/6/2022 3:15:00 AM 13 55.4 0.137 6.68 3.87 4.7
6/6/2022 3:30:00 AM 12.93 55.274 0.136 6.68 3.98 4.77
6/6/2022 3:45:00 AM 12.89 55.202 0.136 6.67 4.01 4.77
6/6/2022 4:00:00 AM 12.86 55.148 0.135 6.67 3.8 4.85
6/6/2022 4:15:00 AM 12.81 55.058 0.136 6.67 5.05 4.8
6/6/2022 4:30:00 AM 12.77 54.986 0.136 6.68 3.95 4.81
6/6/2022 4:45:00 AM 12.75 54.95 0.137 6.67 4.52 4.66
6/6/2022 5:00:00 AM 12.74 54.932 0.136 6.67 4.54 4.58
6/6/2022 5:15:00 AM 12.69 54.842 0.136 6.67 4.42 4.62
6/6/2022 5:30:00 AM 12.67 54.806 0.136 6.67 4.09 4.69
6/6/2022 5:45:00 AM 12.62 54.716 0.137 6.68 4.33 4.68
6/6/2022 6:00:00 AM 12.56 54.608 0.137 6.67 4.07 4.61
6/6/2022 6:15:00 AM 12.53 54.554 0.137 6.67 3.84 4.54
6/6/2022 6:30:00 AM 12.5 54.5 0.137 6.67 4.01 4.46
6/6/2022 6:45:00 AM 12.47 54.446 0.136 6.67 3.89 4.42
6/6/2022 7:00:00 AM 12.45 54.41 0.137 6.67 3.99 4.36
6/6/2022 7:15:00 AM 12.42 54.356 0.137 6.68 4.38 4.48
6/6/2022 7:30:00 AM 12.38 54.284 0.137 6.67 4.07 4.55
6/6/2022 7:45:00 AM 12.38 54.284 0.137 6.67 3.83 4.59
6/6/2022 8:00:00 AM 12.36 54.248 0.138 6.67 3.85 4.66
6/6/2022 8:15:00 AM 12.35 54.23 0.137 6.67 3.76 4.66
6/6/2022 8:30:00 AM 12.33 54.194 0.136 6.67 3.77 4.67
6/6/2022 8:45:00 AM 12.34 54.212 0.136 6.67 3.68 4.74
6/6/2022 9:00:00 AM 12.3 54.14 0.135 6.66 3.69 4.74
6/6/2022 9:15:00 AM 12.29 54.122 0.135 6.66 3.63 4.7
6/6/2022 9:30:00 AM 12.31 54.158 0.135 6.66 3.55 4.71
6/6/2022 9:45:00 AM 12.28 54.104 0.136 6.66 4.04 4.61
6/6/2022 10:00:00 AM 12.34 54.212 0.137 6.67 3.78 4.59
6/6/2022 10:15:00 AM 12.31 54.158 0.137 6.66 3.95 4.64
6/6/2022 10:30:00 AM 12.32 54.176 0.137 6.67 3.63 4.67
6/6/2022 10:45:00 AM 12.3 54.14 0.135 6.66 3.61 4.83
6/6/2022 11:00:00 AM 12.34 54.212 0.135 6.65 4.11 4.92
6/6/2022 11:15:00 AM 12.33 54.194 0.132 6.64 3.53 5
6/6/2022 11:30:00 AM 12.35 54.23 0.132 6.64 3.47 4.98
6/6/2022 11:45:00 AM 12.4 54.32 0.133 6.65 4.03 4.95
6/6/2022 12:00:00 PM 12.46 54.428 0.135 6.66 3.92 4.99
6/6/2022 12:15:00 PM 12.55 54.59 0.136 6.67 3.9 4.96
6/6/2022 12:30:00 PM 12.65 54.77 0.137 6.67 3.86 5.04
6/6/2022 12:45:00 PM 12.83 55.094 0.139 6.69 3.97 5.23
6/6/2022 1:00:00 PM 12.98 55.364 0.139 6.7 3.62 5.42
6/6/2022 1:15:00 PM 13.24 55.832 0.142 6.73 3.65 5.63
6/6/2022 1:30:00 PM 13.47 56.246 0.144 6.74 3.64 5.69
6/6/2022 1:45:00 PM 13.63 56.534 0.144 6.74 3.77 5.82
6/6/2022 2:00:00 PM 13.85 56.93 0.142 6.73 4.16 6.14
6/6/2022 2:15:00 PM 14.07 57.326 0.14 6.72 4.32 6.47
6/6/2022 2:30:00 PM 14.26 57.668 0.137 6.71 3.67 6.54
6/6/2022 2:45:00 PM 14.45 58.01 0.137 6.71 3.76 6.7
6/6/2022 3:00:00 PM 14.57 58.226 0.136 6.71 3.83 6.52
6/6/2022 3:15:00 PM 14.7 58.46 0.137 6.71 3.68 6.49
6/6/2022 3:30:00 PM 14.78 58.604 0.137 6.71 3.62 6.5
6/6/2022 3:45:00 PM 14.85 58.73 0.137 6.71 3.78 6.53
6/6/2022 4:00:00 PM 14.95 58.91 0.136 6.7 3.8 6.32
6/6/2022 4:15:00 PM 14.97 58.946 0.136 6.7 3.64 6.24
6/6/2022 4:30:00 PM 15.01 59.018 0.136 6.69 3.86 6.26
6/6/2022 4:45:00 PM 15.07 59.126 0.135 6.7 3.58 6.16
6/6/2022 5:00:00 PM 15.17 59.306 0.135 6.7 3.43 6.11
6/6/2022 5:15:00 PM 14.98 58.964 0.132 6.67 3.9 6.08
6/6/2022 5:30:00 PM 15.05 59.09 0.133 6.67 4.14 5.99
6/6/2022 5:45:00 PM 14.95 58.91 0.133 6.66 3.63 5.74
6/6/2022 6:00:00 PM 14.97 58.946 0.132 6.65 3.59 5.6
6/6/2022 6:15:00 PM 14.91 58.838 0.131 6.64 3.71 5.5
6/6/2022 6:30:00 PM 14.87 58.766 0.13 6.63 3.6 5.42
6/6/2022 6:45:00 PM 14.78 58.604 0.13 6.63 3.86 5.38
6/6/2022 7:00:00 PM 14.8 58.64 0.131 6.64 3.79 5.39
6/6/2022 7:15:00 PM 14.74 58.532 0.132 6.64 4.02 5.31
6/6/2022 7:30:00 PM 14.69 58.442 0.13 6.63 3.65 5.23
6/6/2022 7:45:00 PM 14.65 58.37 0.129 6.62 3.75 5.08
6/6/2022 8:00:00 PM 14.58 58.244 0.128 6.61 3.83 5.04
6/6/2022 8:15:00 PM 14.52 58.136 0.129 6.62 3.97 5
6/6/2022 8:30:00 PM 14.47 58.046 0.129 6.61 3.78 4.92
6/6/2022 8:45:00 PM 14.37 57.866 0.13 6.62 4.22 4.8
6/6/2022 9:00:00 PM 14.32 57.776 0.129 6.62 4.19 4.87
6/6/2022 9:15:00 PM 14.26 57.668 0.129 6.62 3.91 4.9
6/6/2022 9:30:00 PM 14.2 57.56 0.13 6.62 4.25 4.88
6/6/2022 9:45:00 PM 14.18 57.524 0.131 6.62 4.06 4.87
6/6/2022 10:00:00 PM 14.13 57.434 0.131 6.63 4.86 4.88
6/6/2022 10:15:00 PM 14.1 57.38 0.131 6.62 3.98 4.86
6/6/2022 10:30:00 PM 14.04 57.272 0.131 6.62 3.9 4.82
6/6/2022 10:45:00 PM 13.95 57.11 0.132 6.62 3.92 4.79
6/6/2022 11:00:00 PM 13.94 57.092 0.134 6.63 3.87 4.68
6/6/2022 11:15:00 PM 13.94 57.092 0.134 6.64 3.73 4.67
6/6/2022 11:30:00 PM 13.88 56.984 0.133 6.64 3.74 4.7
6/6/2022 11:45:00 PM 13.84 56.912 0.132 6.63 3.57 4.73
6/7/2022 12:00:00 AM 13.79 56.822 0.132 6.63 3.52 4.63
6/7/2022 12:15:00 AM 13.76 56.768 0.132 6.62 3.57 4.58
6/7/2022 12:30:00 AM 13.75 56.75 0.132 6.62 3.54 4.54
6/7/2022 12:45:00 AM 13.7 56.66 0.132 6.62 3.59 4.51
6/7/2022 1:00:00 AM 13.69 56.642 0.132 6.63 3.61 4.43
6/7/2022 1:15:00 AM 13.67 56.606 0.132 6.62 3.75 4.47
6/7/2022 1:30:00 AM 13.69 56.642 0.133 6.63 3.56 4.39
6/7/2022 1:45:00 AM 13.63 56.534 0.133 6.63 3.62 4.32
6/7/2022 2:00:00 AM 13.59 56.462 0.133 6.63 3.52 4.24
6/7/2022 2:15:00 AM 13.54 56.372 0.133 6.63 3.51 4.29
6/7/2022 2:30:00 AM 13.53 56.354 0.133 6.63 3.45 4.16
6/7/2022 2:45:00 AM 13.5 56.3 0.133 6.63 3.57 4.05
6/7/2022 3:00:00 AM 13.44 56.192 0.133 6.62 3.49 4.08
6/7/2022 3:15:00 AM 13.39 56.102 0.133 6.63 3.57 4.15
6/7/2022 3:30:00 AM 13.35 56.03 0.133 6.62 3.49 4.04
6/7/2022 3:45:00 AM 13.33 55.994 0.133 6.62 3.59 3.89
6/7/2022 4:00:00 AM 13.28 55.904 0.133 6.62 3.71 3.89
6/7/2022 4:15:00 AM 13.27 55.886 0.133 6.62 3.46 3.89
6/7/2022 4:30:00 AM 13.18 55.724 0.132 6.62 3.42 3.91
6/7/2022 4:45:00 AM 13.16 55.688 0.132 6.61 3.52 3.93
6/7/2022 5:00:00 AM 13.09 55.562 0.131 6.61 3.48 3.93
6/7/2022 5:15:00 AM 13.07 55.526 0.131 6.61 3.59 3.93
6/7/2022 5:30:00 AM 13.08 55.544 0.132 6.61 3.57 3.86
6/7/2022 5:45:00 AM 13.02 55.436 0.132 6.61 3.69 3.76
6/7/2022 6:00:00 AM 13 55.4 0.131 6.61 3.72 3.83
6/7/2022 6:15:00 AM 12.95 55.31 0.13 6.6 3.62 3.85
6/7/2022 6:30:00 AM 12.92 55.256 0.131 6.6 3.68 3.89
6/7/2022 6:45:00 AM 12.97 55.346 0.131 6.61 4.03 3.9
6/7/2022 7:00:00 AM 12.88 55.184 0.129 6.59 3.6 3.94
6/7/2022 7:15:00 AM 12.89 55.202 0.129 6.6 3.51 4.02
6/7/2022 7:30:00 AM 12.86 55.148 0.129 6.59 3.89 3.99
6/7/2022 7:45:00 AM 12.84 55.112 0.128 6.58 3.58 3.97
6/7/2022 8:00:00 AM 12.82 55.076 0.128 6.58 3.56 3.99
6/7/2022 8:15:00 AM 12.83 55.094 0.128 6.59 3.56 4.06
6/7/2022 8:30:00 AM 12.83 55.094 0.128 6.59 3.63 4.18
6/7/2022 8:45:00 AM 12.85 55.13 0.128 6.59 3.72 4.18
6/7/2022 9:00:00 AM 12.85 55.13 0.128 6.59 3.79 4.23
6/7/2022 9:15:00 AM 12.87 55.166 0.128 6.59 3.55 4.34
6/7/2022 9:30:00 AM 12.9 55.22 0.128 6.59 3.51 4.38
6/7/2022 9:45:00 AM 12.96 55.328 0.128 6.59 3.8 4.51
6/7/2022 10:00:00 AM 13 55.4 0.128 6.6 3.55 4.55
6/7/2022 10:15:00 AM 12.99 55.382 0.128 6.59 3.51 4.57
6/7/2022 10:30:00 AM 13.02 55.436 0.128 6.59 3.8 4.6
6/7/2022 10:45:00 AM 13.06 55.508 0.127 6.59 3.47 4.63
6/7/2022 11:00:00 AM 13 55.4 0.126 6.58 3.49 4.54
6/7/2022 11:15:00 AM 13.11 55.598 0.128 6.59 3.77 4.61
6/7/2022 11:30:00 AM 13.11 55.598 0.129 6.6 3.7 4.71
6/7/2022 11:45:00 AM 13.17 55.706 0.129 6.61 3.4 4.77
6/7/2022 12:00:00 PM 13.24 55.832 0.13 6.61 3.47 4.83
6/7/2022 12:15:00 PM 13.31 55.958 0.131 6.62 3.61 4.99
6/7/2022 12:30:00 PM 13.3 55.94 0.132 6.63 3.48 5.08
6/7/2022 12:45:00 PM 13.39 56.102 0.131 6.63 3.57 5.09
6/7/2022 1:00:00 PM 13.37 56.066 0.131 6.63 3.69 5.16
6/7/2022 1:15:00 PM 13.52 56.336 0.132 6.63 3.61 5.2
6/7/2022 1:30:00 PM 13.43 56.174 0.13 6.63 3.4 5.28
6/7/2022 1:45:00 PM 13.52 56.336 0.131 6.64 3.57 5.27
6/7/2022 2:00:00 PM 13.51 56.318 0.13 6.63 3.79 5.21
6/7/2022 2:15:00 PM 13.48 56.264 0.13 6.61 3.93 5.04
6/7/2022 2:30:00 PM 13.5 56.3 0.13 6.62 3.57 5
6/7/2022 2:45:00 PM 13.5 56.3 0.131 6.62 3.71 4.96
6/7/2022 3:00:00 PM 13.51 56.318 0.132 6.62 3.79 4.91
6/7/2022 3:15:00 PM 13.52 56.336 0.132 6.63 3.93 5
6/7/2022 3:30:00 PM 13.5 56.3 0.131 6.63 4.28 5.01
6/7/2022 3:45:00 PM 13.47 56.246 0.131 6.63 3.84 5.09
6/7/2022 4:00:00 PM 13.5 56.3 0.133 6.64 3.64 5.04
6/7/2022 4:15:00 PM 13.51 56.318 0.132 6.64 3.82 4.9
6/7/2022 4:30:00 PM 13.47 56.246 0.131 6.62 4.18 4.77
6/7/2022 4:45:00 PM 13.43 56.174 0.131 6.62 3.87 4.8
6/7/2022 5:00:00 PM 13.42 56.156 0.131 6.62 3.65 4.85
6/7/2022 5:15:00 PM 13.44 56.192 0.131 6.62 3.79 4.85
6/7/2022 5:30:00 PM 13.4 56.12 0.128 6.62 4.12 5.23
6/7/2022 5:45:00 PM 13.35 56.03 0.125 6.61 3.42 5.64
6/7/2022 6:00:00 PM 13.32 55.976 0.126 6.61 3.48 5.55
6/7/2022 6:15:00 PM 13.33 55.994 0.127 6.63 6.48 5.41
6/7/2022 6:30:00 PM 13.28 55.904 0.129 6.63 3.88 5.14
6/7/2022 6:45:00 PM 13.34 56.012 0.129 6.63 3.9 5.23
6/7/2022 7:00:00 PM 13.43 56.174 0.129 6.63 3.56 5.27
6/7/2022 7:15:00 PM 13.58 56.444 0.13 6.65 3.92 5.3
6/7/2022 7:30:00 PM 13.71 56.678 0.136 6.69 4.58 5.26
6/7/2022 7:45:00 PM 13.79 56.822 0.138 6.71 4.54 5.31
6/7/2022 8:00:00 PM 13.91 57.038 0.141 6.74 4.78 5.34
6/7/2022 8:15:00 PM 14.03 57.254 0.143 6.75 4.94 5.34
6/7/2022 8:30:00 PM 14.1 57.38 0.146 6.76 4.82 5.38
6/7/2022 8:45:00 PM 14.25 57.65 0.154 6.83 5.05 5.47
6/7/2022 9:00:00 PM 14.35 57.83 0.16 6.87 5.38 5.47
6/7/2022 9:15:00 PM 14.57 58.226 0.167 6.91 5.35 5.57
6/7/2022 9:30:00 PM 14.68 58.424 0.173 6.93 6.43 5.6
6/7/2022 9:45:00 PM 14.69 58.442 0.178 6.96 5.02 5.63
6/7/2022 10:00:00 PM 14.84 58.712 0.181 7 5.46 5.74
6/7/2022 10:15:00 PM 14.87 58.766 0.184 7.01 5.26 5.78
6/7/2022 10:30:00 PM 15.04 59.072 0.186 7.04 4.78 5.79
6/7/2022 10:45:00 PM 15.14 59.252 0.19 7.07 4.93 5.87
6/7/2022 11:00:00 PM 15.13 59.234 0.189 7.07 4.6 5.88
6/7/2022 11:15:00 PM 15.17 59.306 0.192 7.09 4.72 5.93
6/7/2022 11:30:00 PM 15.17 59.306 0.193 7.09 5.02 5.89
6/7/2022 11:45:00 PM 15.3 59.54 0.198 7.13 4.76 6.05
6/8/2022 12:00:00 AM 15.36 59.648 0.199 7.14 4.89 6.07
6/8/2022 12:15:00 AM 15.48 59.864 0.202 7.18 4.72 6.17
6/8/2022 12:30:00 AM 15.37 59.666 0.2 7.16 4.47 6.11
6/8/2022 12:45:00 AM 15.41 59.738 0.2 7.16 4.37 6.07
6/8/2022 1:00:00 AM 15.47 59.846 0.203 7.19 4.69 6.22
6/8/2022 1:15:00 AM 15.54 59.972 0.204 7.2 4.73 6.24
6/8/2022 1:30:00 AM 15.62 60.116 0.206 7.22 4.33 6.31
6/8/2022 1:45:00 AM 15.61 60.098 0.207 7.24 6.54 6.42
6/8/2022 2:00:00 AM 15.6 60.08 0.207 7.25 6.2 6.39
6/8/2022 2:15:00 AM 15.7 60.26 0.21 7.28 5.11 6.52
6/8/2022 2:30:00 AM 15.62 60.116 0.208 7.27 4.94 6.48
6/8/2022 2:45:00 AM 15.68 60.224 0.21 7.3 5.66 6.6
6/8/2022 3:00:00 AM 15.71 60.278 0.212 7.3 4.87 6.64
6/8/2022 3:15:00 AM 15.64 60.152 0.211 7.3 5.01 6.62
6/8/2022 3:30:00 AM 15.56 60.008 0.21 7.29 4.7 6.6
6/8/2022 3:45:00 AM 15.6 60.08 0.212 7.31 4.94 6.72
6/8/2022 4:00:00 AM 15.56 60.008 0.211 7.3 4.68 6.7
6/8/2022 4:15:00 AM 15.57 60.026 0.213 7.31 4.62 6.71
6/8/2022 4:30:00 AM 15.46 59.828 0.212 7.28 4.7 6.51
6/8/2022 4:45:00 AM 15.45 59.81 0.214 7.31 4.7 6.69
6/8/2022 5:00:00 AM 15.42 59.756 0.214 7.32 5.1 6.79
6/8/2022 5:15:00 AM 15.37 59.666 0.214 7.33 4.9 6.76
6/8/2022 5:30:00 AM 15.24 59.432 0.213 7.3 6.55 6.71
6/8/2022 5:45:00 AM 15.2 59.36 0.213 7.33 5.08 6.74
6/8/2022 6:00:00 AM 15.22 59.396 0.215 7.35 4.78 6.92
6/8/2022 6:15:00 AM 15.14 59.252 0.212 7.31 5.05 6.77
6/8/2022 6:30:00 AM 15.09 59.162 0.213 7.32 6 6.77
6/8/2022 6:45:00 AM 15.02 59.036 0.213 7.3 5.1 6.71
6/8/2022 7:00:00 AM 14.94 58.892 0.212 7.3 4.75 6.67
6/8/2022 7:15:00 AM 14.91 58.838 0.213 7.29 7.78 6.64
6/8/2022 7:30:00 AM 14.84 58.712 0.213 7.3 4.9 6.78
6/8/2022 7:45:00 AM 14.8 58.64 0.212 7.3 5.1 6.79
6/8/2022 8:00:00 AM 14.77 58.586 0.212 7.29 5.22 6.73
6/8/2022 8:15:00 AM 14.71 58.478 0.211 7.27 5.51 6.79
6/8/2022 8:30:00 AM 14.7 58.46 0.211 7.27 5.11 6.73
6/8/2022 8:45:00 AM 14.68 58.424 0.211 7.26 4.68 6.75
6/8/2022 9:00:00 AM 14.7 58.46 0.212 7.28 4.64 6.78
6/8/2022 9:15:00 AM 14.72 58.496 0.212 7.29 4.4 6.9
6/8/2022 9:30:00 AM 14.75 58.55 0.213 7.31 4.67 6.95
6/8/2022 9:45:00 AM 14.76 58.568 0.213 7.31 4.22 7
6/8/2022 10:00:00 AM 14.82 58.676 0.214 7.32 4.36 7.09
6/8/2022 10:15:00 AM 14.86 58.748 0.215 7.33 4.25 7.2
6/8/2022 10:30:00 AM 14.9 58.82 0.215 7.34 4.29 7.28
6/8/2022 10:45:00 AM 14.94 58.892 0.215 7.34 4.34 7.3
6/8/2022 11:00:00 AM 14.99 58.982 0.215 7.33 4.52 7.32
6/8/2022 11:15:00 AM 15.03 59.054 0.216 7.36 8.7 7.34
6/8/2022 11:30:00 AM 15.04 59.072 0.215 7.36 4.38 7.5
6/8/2022 11:45:00 AM 15.16 59.288 0.216 7.38 3.96 7.69
6/8/2022 12:00:00 PM 15.23 59.414 0.217 7.4 4.36 7.85
6/8/2022 12:15:00 PM 15.21 59.378 0.215 7.37 4.12 7.84
6/8/2022 12:30:00 PM 15.41 59.738 0.217 7.41 4.03 8.05
6/8/2022 12:45:00 PM 15.62 60.116 0.217 7.43 3.83 8.12
6/8/2022 1:00:00 PM 15.68 60.224 0.217 7.41 4.06 8.13
6/8/2022 1:15:00 PM 15.88 60.584 0.217 7.43 3.97 8.22
6/8/2022 1:30:00 PM 15.98 60.764 0.217 7.42 3.73 8.32
6/8/2022 1:45:00 PM 16.14 61.052 0.215 7.42 3.9 8.47
6/8/2022 2:00:00 PM 16.51 61.718 0.217 7.43 3.65 8.54
6/8/2022 2:15:00 PM 16.61 61.898 0.213 7.4 4.67 8.83
6/8/2022 2:30:00 PM 16.82 62.276 0.212 7.36 4.71 8.58
6/8/2022 2:45:00 PM 17.02 62.636 0.212 7.39 3.94 8.58
6/8/2022 3:00:00 PM 17.11 62.798 0.208 7.33 5.33 8.46
6/8/2022 3:15:00 PM 17.46 63.428 0.21 7.33 3.74 8.49
6/8/2022 3:30:00 PM 17.76 63.968 0.212 7.35 5.26 8.57
6/8/2022 3:45:00 PM 17.75 63.95 0.209 7.34 3.79 8.42
6/8/2022 4:00:00 PM 18.06 64.508 0.212 7.37 3.98 8.41
6/8/2022 4:15:00 PM 17.9 64.22 0.209 7.35 3.51 8.38
6/8/2022 4:30:00 PM 18.2 64.76 0.212 7.43 4.05 8.48
6/8/2022 4:45:00 PM 18.64 65.552 0.214 7.46 3.99 8.49
6/8/2022 5:00:00 PM 18.73 65.714 0.216 7.47 4.04 8.48
6/8/2022 5:15:00 PM 18.35 65.03 0.211 7.41 3.54 8.2
6/8/2022 5:30:00 PM 18.67 65.606 0.218 7.4 3.77 8.19
6/8/2022 5:45:00 PM 18.86 65.948 0.218 7.51 3.65 8.35
6/8/2022 6:00:00 PM 19.06 66.308 0.223 7.61 4.33 8.46
6/8/2022 6:15:00 PM 18.94 66.092 0.225 7.64 4.4 8.46
6/8/2022 6:30:00 PM 18.78 65.804 0.225 7.65 4.03 8.43
6/8/2022 6:45:00 PM 18.69 65.642 0.226 7.67 3.52 8.4
6/8/2022 7:00:00 PM 18.55 65.39 0.225 7.65 3.68 8.32
6/8/2022 7:15:00 PM 18.43 65.174 0.225 7.63 3.72 8.25
6/8/2022 7:30:00 PM 18.19 64.742 0.221 7.57 4.06 8.11
6/8/2022 7:45:00 PM 18.12 64.616 0.223 7.56 3.5 8
6/8/2022 8:00:00 PM 17.95 64.31 0.221 7.54 3.75 7.89
6/8/2022 8:15:00 PM 17.87 64.166 0.222 7.52 3.75 7.81
6/8/2022 8:30:00 PM 17.81 64.058 0.222 7.52 3.67 7.69
6/8/2022 8:45:00 PM 17.69 63.842 0.221 7.48 3.95 7.57
6/8/2022 9:00:00 PM 17.63 63.734 0.221 7.49 3.66 7.53
6/8/2022 9:15:00 PM 17.51 63.518 0.221 7.47 3.81 7.46
6/8/2022 9:30:00 PM 17.31 63.158 0.218 7.41 3.68 7.12
6/8/2022 9:45:00 PM 17.21 62.978 0.217 7.42 3.74 7.18
6/8/2022 10:00:00 PM 17.19 62.942 0.22 7.42 4.27 7.15
6/8/2022 10:15:00 PM 17.01 62.618 0.217 7.38 3.67 6.96
6/8/2022 10:30:00 PM 16.81 62.258 0.214 7.35 3.7 6.84
6/8/2022 10:45:00 PM 16.65 61.97 0.213 7.29 3.4 6.64
6/8/2022 11:00:00 PM 16.59 61.862 0.213 7.27 3.55 6.48
6/8/2022 11:15:00 PM 16.45 61.61 0.211 7.25 3.7 6.31
6/8/2022 11:30:00 PM 16.37 61.466 0.209 7.23 4.02 6.25
6/8/2022 11:45:00 PM 16.23 61.214 0.207 7.19 4.31 6.11
6/9/2022 12:00:00 AM 16.12 61.016 0.205 7.16 3.78 5.89
6/9/2022 12:15:00 AM 15.95 60.71 0.204 7.16 3.71 5.97
6/9/2022 12:30:00 AM 15.89 60.602 0.203 7.13 4.01 5.89
6/9/2022 12:45:00 AM 15.73 60.314 0.201 7.1 3.86 5.75
6/9/2022 1:00:00 AM 15.69 60.242 0.199 7.1 3.71 5.72
6/9/2022 1:15:00 AM 15.6 60.08 0.196 7.07 4.27 5.66
6/9/2022 1:30:00 AM 15.56 60.008 0.194 7.05 4.17 5.54
6/9/2022 1:45:00 AM 15.5 59.9 0.194 7.04 4.36 5.46
6/9/2022 2:00:00 AM 15.4 59.72 0.194 7.03 4.62 5.44
6/9/2022 2:15:00 AM 15.34 59.612 0.194 7.04 4.2 5.46
6/9/2022 2:30:00 AM 15.27 59.486 0.194 7.04 4.2 5.49
6/9/2022 2:45:00 AM 15.13 59.234 0.192 7.01 3.89 5.38
6/9/2022 3:00:00 AM 15.1 59.18 0.189 7.01 4.24 5.37
6/9/2022 3:15:00 AM 15.48 59.864 0.196 7.2 12.17 6.69
6/9/2022 3:30:00 AM 15.83 60.494 0.206 7.43 13.11 7.7
6/9/2022 3:45:00 AM 15.96 60.728 0.208 7.63 18.74 8.3
6/9/2022 4:00:00 AM 15.9 60.62 0.203 7.72 30.15 8.56
6/9/2022 4:15:00 AM 15.71 60.278 0.192 7.7 67.77 8.64
6/9/2022 4:30:00 AM 15.5 59.9 0.178 7.66 117.17 8.73
6/9/2022 4:45:00 AM 15.35 59.63 0.167 7.62 172.37 8.8
6/9/2022 5:00:00 AM 15.24 59.432 0.159 7.62 151.86 8.9
6/9/2022 5:15:00 AM 15.16 59.288 0.157 7.61 152.27 8.9
6/9/2022 5:30:00 AM 14.95 58.91 0.148 7.54 265.42 8.95
6/9/2022 5:45:00 AM 14.79 58.622 0.137 7.51 198.11 8.99
6/9/2022 6:00:00 AM 14.51 58.118 0.118 7.4 260.04 9
6/9/2022 6:15:00 AM 14.48 58.064 0.114 7.44 361.6 9
6/9/2022 6:30:00 AM 14.43 57.974 0.105 7.4 600.74 9.06
6/9/2022 6:45:00 AM 14.44 57.992 0.102 7.34 527.16 9.12
6/9/2022 7:00:00 AM 14.47 58.046 0.106 7.37 393.8 9.13
6/9/2022 7:15:00 AM 14.51 58.118 0.115 7.42 283.56 9.11
6/9/2022 7:30:00 AM 14.55 58.19 0.124 7.48 206.44 9.08
6/9/2022 7:45:00 AM 14.56 58.208 0.139 7.5 165.3 9.05
6/9/2022 8:00:00 AM 14.59 58.262 0.15 7.51 129.76 9
6/9/2022 8:15:00 AM 14.6 58.28 0.148 7.5 111.76 9.01
6/9/2022 8:30:00 AM 14.53 58.154 0.132 7.48 108.04 9.05
6/9/2022 8:45:00 AM 14.4 57.92 0.118 7.45 114.14 9.11
6/9/2022 9:00:00 AM 14.33 57.794 0.115 7.44 120.26 9.14
6/9/2022 9:15:00 AM 14.32 57.776 0.12 7.44 114.5 9.16
6/9/2022 9:30:00 AM 14.33 57.794 0.122 7.45 106.58 9.16
6/9/2022 9:45:00 AM 14.34 57.812 0.118 7.45 108.71 9.17
6/9/2022 10:00:00 AM 14.34 57.812 0.112 7.43 110.58 9.18
6/9/2022 10:15:00 AM 14.34 57.812 0.107 7.43 107.06 9.19
6/9/2022 10:30:00 AM 14.35 57.83 0.104 7.41 107.67 9.21
6/9/2022 10:45:00 AM 14.36 57.848 0.102 7.4 97.04 9.21
6/9/2022 11:00:00 AM 14.37 57.866 0.102 7.4 86.52 9.21
6/9/2022 11:15:00 AM 14.39 57.902 0.102 7.37 85.88 9.21
6/9/2022 11:30:00 AM 14.42 57.956 0.102 7.35 82.3 9.2
6/9/2022 11:45:00 AM 14.46 58.028 0.103 7.36 77.74 9.2
6/9/2022 12:00:00 PM 14.52 58.136 0.103 7.36 75.12 9.2
6/9/2022 12:15:00 PM 14.58 58.244 0.103 7.35 71.79 9.22
6/9/2022 12:30:00 PM 14.61 58.298 0.103 7.35 69.42 9.24
6/9/2022 12:45:00 PM 14.65 58.37 0.103 7.35 70.27 9.21
6/9/2022 1:00:00 PM 14.66 58.388 0.102 7.37 58.08 9.22
6/9/2022 1:15:00 PM 14.66 58.388 0.102 7.37 59.14 9.23
6/9/2022 1:30:00 PM 14.66 58.388 0.102 7.37 55.59 9.25
6/9/2022 1:45:00 PM 14.66 58.388 0.102 7.38 53.95 9.24
6/9/2022 2:00:00 PM 14.66 58.388 0.102 7.37 45.47 9.25
6/9/2022 2:15:00 PM 14.67 58.406 0.102 7.38 50.28 9.25
6/9/2022 2:30:00 PM 14.71 58.478 0.102 7.38 46.3 9.26
6/9/2022 2:45:00 PM 14.73 58.514 0.103 7.39 37.58 9.26
6/9/2022 3:00:00 PM 14.76 58.568 0.104 7.4 41.54 9.26
6/9/2022 3:15:00 PM 14.78 58.604 0.104 7.4 44.16 9.27
6/9/2022 3:30:00 PM 14.81 58.658 0.104 7.4 41.49 9.26
6/9/2022 3:45:00 PM 14.81 58.658 0.104 7.41 39.42 9.27
6/9/2022 4:00:00 PM 14.84 58.712 0.105 7.4 36.76 9.25
6/9/2022 4:15:00 PM 14.85 58.73 0.105 7.41 35.99 9.23
6/9/2022 4:30:00 PM 14.87 58.766 0.105 7.42 36.4 9.24
6/9/2022 4:45:00 PM 14.9 58.82 0.105 7.42 35.13 9.25
6/9/2022 5:00:00 PM 14.89 58.802 0.106 7.43 34.86 9.23
6/9/2022 5:15:00 PM 14.9 58.82 0.106 7.43 35.15 9.22
6/9/2022 5:30:00 PM 14.9 58.82 0.106 7.43 33.54 9.22
6/9/2022 5:45:00 PM 14.89 58.802 0.106 7.43 32.6 9.22
6/9/2022 6:00:00 PM 14.89 58.802 0.106 7.43 31.23 9.2
6/9/2022 6:15:00 PM 14.9 58.82 0.106 7.43 29.86 9.21
6/9/2022 6:30:00 PM 14.91 58.838 0.106 7.44 29.82 9.2
6/9/2022 6:45:00 PM 14.9 58.82 0.106 7.44 28.88 9.21
6/9/2022 7:00:00 PM 14.85 58.73 0.107 7.44 28.18 9.2
6/9/2022 7:15:00 PM 14.81 58.658 0.107 7.44 27.84 9.2
6/9/2022 7:30:00 PM 14.78 58.604 0.107 7.44 26.66 9.2
6/9/2022 7:45:00 PM 14.74 58.532 0.108 7.44 25.31 9.2
6/9/2022 8:00:00 PM 14.7 58.46 0.108 7.44 25.74 9.2
6/9/2022 8:15:00 PM 14.66 58.388 0.109 7.44 24.64 9.2
6/9/2022 8:30:00 PM 14.62 58.316 0.109 7.45 23.3 9.2
6/9/2022 8:45:00 PM 14.58 58.244 0.11 7.45 22.84 9.21
6/9/2022 9:00:00 PM 14.53 58.154 0.11 7.45 25 9.21
6/9/2022 9:15:00 PM 14.49 58.082 0.111 7.45 22.85 9.21
6/9/2022 9:30:00 PM 14.45 58.01 0.112 7.45 22.35 9.21
6/9/2022 9:45:00 PM 14.41 57.938 0.112 7.45 22.25 9.22
6/9/2022 10:00:00 PM 14.37 57.866 0.113 7.45 21.78 9.22
6/9/2022 10:15:00 PM 14.35 57.83 0.114 7.45 21.53 9.23
6/9/2022 10:30:00 PM 14.31 57.758 0.114 7.45 21.36 9.23
6/9/2022 10:45:00 PM 14.28 57.704 0.115 7.46 20.38 9.23
6/9/2022 11:00:00 PM 14.24 57.632 0.115 7.46 20.1 9.24
6/9/2022 11:15:00 PM 14.21 57.578 0.116 7.46 19.6 9.25
6/9/2022 11:30:00 PM 14.18 57.524 0.117 7.46 19.11 9.26
6/9/2022 11:45:00 PM 14.15 57.47 0.117 7.46 19.08 9.26
6/10/2022 12:00:00 AM 14.12 57.416 0.118 7.47 18.28 9.26
6/10/2022 12:15:00 AM 14.09 57.362 0.119 7.48 18.04 9.28
6/10/2022 12:30:00 AM 14.07 57.326 0.119 7.48 17.91 9.27
6/10/2022 12:45:00 AM 14.04 57.272 0.12 7.48 17.93 9.28
6/10/2022 1:00:00 AM 14.01 57.218 0.12 7.48 17.26 9.28
6/10/2022 1:15:00 AM 13.97 57.146 0.121 7.48 17.57 9.29
6/10/2022 1:30:00 AM 13.94 57.092 0.121 7.48 16.91 9.29
6/10/2022 1:45:00 AM 13.9 57.02 0.122 7.48 16.5 9.3
6/10/2022 2:00:00 AM 13.86 56.948 0.123 7.49 16.65 9.31
6/10/2022 2:15:00 AM 13.81 56.858 0.124 7.48 15.96 9.31
6/10/2022 2:30:00 AM 13.77 56.786 0.124 7.48 15.2 9.33
6/10/2022 2:45:00 AM 13.72 56.696 0.125 7.49 15.32 9.33
6/10/2022 3:00:00 AM 13.67 56.606 0.125 7.49 14.88 9.34
6/10/2022 3:15:00 AM 13.62 56.516 0.126 7.49 14.16 9.35
6/10/2022 3:30:00 AM 13.57 56.426 0.127 7.49 14.21 9.36
6/10/2022 3:45:00 AM 13.52 56.336 0.127 7.49 14.3 9.36
6/10/2022 4:00:00 AM 13.47 56.246 0.128 7.49 13.38 9.38
6/10/2022 4:15:00 AM 13.41 56.138 0.128 7.5 13.54 9.38
6/10/2022 4:30:00 AM 13.36 56.048 0.129 7.5 13.39 9.4
6/10/2022 4:45:00 AM 13.31 55.958 0.129 7.5 13.09 9.41
6/10/2022 5:00:00 AM 13.25 55.85 0.13 7.5 13.04 9.42
6/10/2022 5:15:00 AM 13.2 55.76 0.131 7.5 12.94 9.43
6/10/2022 5:30:00 AM 13.15 55.67 0.131 7.51 13.19 9.44
6/10/2022 5:45:00 AM 13.1 55.58 0.132 7.51 13.72 9.46
6/10/2022 6:00:00 AM 13.06 55.508 0.132 7.51 12.46 9.47
6/10/2022 6:15:00 AM 13.01 55.418 0.133 7.51 12.4 9.48
6/10/2022 6:30:00 AM 12.97 55.346 0.133 7.52 12.15 9.5
6/10/2022 6:45:00 AM 12.93 55.274 0.133 7.52 11.72 9.51
6/10/2022 7:00:00 AM 12.89 55.202 0.134 7.53 11.43 9.53
6/10/2022 7:15:00 AM 12.86 55.148 0.134 7.53 10.98 9.54
6/10/2022 7:30:00 AM 12.83 55.094 0.135 7.54 10.77 9.55
6/10/2022 7:45:00 AM 12.82 55.076 0.135 7.54 10.49 9.58
6/10/2022 8:00:00 AM 12.81 55.058 0.136 7.55 10.58 9.59
6/10/2022 8:15:00 AM 12.82 55.076 0.136 7.55 10.45 9.61
6/10/2022 8:30:00 AM 12.84 55.112 0.137 7.56 9.88 9.62
6/10/2022 8:45:00 AM 12.87 55.166 0.137 7.56 9.85 9.64
6/10/2022 9:00:00 AM 12.93 55.274 0.138 7.57 9.28 9.65
6/10/2022 9:15:00 AM 13 55.4 0.138 7.58 9.65 9.67
6/10/2022 9:30:00 AM 13.08 55.544 0.138 7.58 9.52 9.68
6/10/2022 9:45:00 AM 13.18 55.724 0.139 7.59 9.32 9.69
6/10/2022 10:00:00 AM 13.29 55.922 0.139 7.6 9.35 9.69
6/10/2022 10:15:00 AM 13.41 56.138 0.14 7.61 9.14 9.7
6/10/2022 10:30:00 AM 13.55 56.39 0.14 7.62 8.77 9.7
6/10/2022 10:45:00 AM 13.7 56.66 0.141 7.63 8.56 9.7